<?xml version="1.0" encoding="UTF-8" standalone="no" ?>
<gpx xmlns="http://www.topografix.com/GPX/1/1" xmlns:xsi="http://www.w3.org/2001/XMLSchema-instance" xsi:schemaLocation="http://www.topografix.com/GPX/1/1 http://www.topografix.com/GPX/1/1/gpx.xsd" version="1.1" creator="VisuGPX - https://www.visugpx.com">
  <metadata>
    <name>GENEUILLE - CUSSEY SUR L\'OGNON</name>
    <desc><![CDATA[GENEUILLE - CUSSEY SUR L\'OGNON]]></desc>
  </metadata>
  <trk>
    <name><![CDATA[GENEUILLE - CUSSEY SUR L\'OGNON_1]]></name>
    <trkseg>
      <trkpt lat="47.3228" lon="5.96836">
        <ele>222.6</ele>
        <time>2012-01-26T13:02:54Z</time>
      </trkpt>
      <trkpt lat="47.3228" lon="5.96836">
        <ele>272.2</ele>
        <time>2012-01-26T13:02:58Z</time>
      </trkpt>
      <trkpt lat="47.32279" lon="5.96846">
        <ele>271.1</ele>
        <time>2012-01-26T13:03:09Z</time>
      </trkpt>
      <trkpt lat="47.32282" lon="5.96854">
        <ele>270.7</ele>
        <time>2012-01-26T13:03:15Z</time>
      </trkpt>
      <trkpt lat="47.32288" lon="5.9686">
        <ele>270.2</ele>
        <time>2012-01-26T13:03:20Z</time>
      </trkpt>
      <trkpt lat="47.32292" lon="5.9687">
        <ele>269.2</ele>
        <time>2012-01-26T13:03:25Z</time>
      </trkpt>
      <trkpt lat="47.32296" lon="5.96877">
        <ele>269.3</ele>
        <time>2012-01-26T13:03:30Z</time>
      </trkpt>
      <trkpt lat="47.32297" lon="5.96886">
        <ele>267.1</ele>
        <time>2012-01-26T13:03:37Z</time>
      </trkpt>
      <trkpt lat="47.32298" lon="5.96896">
        <ele>267</ele>
        <time>2012-01-26T13:03:42Z</time>
      </trkpt>
      <trkpt lat="47.32301" lon="5.96904">
        <ele>266.7</ele>
        <time>2012-01-26T13:03:46Z</time>
      </trkpt>
      <trkpt lat="47.32304" lon="5.96913">
        <ele>267.2</ele>
        <time>2012-01-26T13:03:53Z</time>
      </trkpt>
      <trkpt lat="47.32306" lon="5.96922">
        <ele>266.1</ele>
        <time>2012-01-26T13:04:00Z</time>
      </trkpt>
      <trkpt lat="47.32307" lon="5.96932">
        <ele>264.8</ele>
        <time>2012-01-26T13:04:08Z</time>
      </trkpt>
      <trkpt lat="47.32309" lon="5.96942">
        <ele>263.3</ele>
        <time>2012-01-26T13:04:14Z</time>
      </trkpt>
      <trkpt lat="47.32314" lon="5.96949">
        <ele>262.6</ele>
        <time>2012-01-26T13:04:18Z</time>
      </trkpt>
      <trkpt lat="47.3232" lon="5.96954">
        <ele>261.6</ele>
        <time>2012-01-26T13:04:22Z</time>
      </trkpt>
      <trkpt lat="47.32322" lon="5.96962">
        <ele>262.5</ele>
        <time>2012-01-26T13:04:29Z</time>
      </trkpt>
      <trkpt lat="47.32321" lon="5.96972">
        <ele>261.9</ele>
        <time>2012-01-26T13:04:34Z</time>
      </trkpt>
      <trkpt lat="47.32325" lon="5.9698">
        <ele>263.2</ele>
        <time>2012-01-26T13:04:40Z</time>
      </trkpt>
      <trkpt lat="47.32326" lon="5.9699">
        <ele>263.2</ele>
        <time>2012-01-26T13:04:46Z</time>
      </trkpt>
      <trkpt lat="47.32327" lon="5.96999">
        <ele>262.9</ele>
        <time>2012-01-26T13:04:51Z</time>
      </trkpt>
      <trkpt lat="47.32331" lon="5.97007">
        <ele>262.8</ele>
        <time>2012-01-26T13:04:57Z</time>
      </trkpt>
      <trkpt lat="47.32336" lon="5.97015">
        <ele>266.4</ele>
        <time>2012-01-26T13:05:04Z</time>
      </trkpt>
      <trkpt lat="47.32339" lon="5.97025">
        <ele>267.2</ele>
        <time>2012-01-26T13:05:10Z</time>
      </trkpt>
      <trkpt lat="47.32338" lon="5.97034">
        <ele>267.4</ele>
        <time>2012-01-26T13:05:19Z</time>
      </trkpt>
      <trkpt lat="47.3234" lon="5.97043">
        <ele>266</ele>
        <time>2012-01-26T13:05:25Z</time>
      </trkpt>
      <trkpt lat="47.32347" lon="5.97051">
        <ele>267.2</ele>
        <time>2012-01-26T13:05:32Z</time>
      </trkpt>
      <trkpt lat="47.32352" lon="5.97058">
        <ele>269</ele>
        <time>2012-01-26T13:05:38Z</time>
      </trkpt>
      <trkpt lat="47.32352" lon="5.97058">
        <ele>224.4</ele>
        <time>2012-01-26T13:05:49Z</time>
      </trkpt>
      <trkpt lat="47.32352" lon="5.97058">
        <ele>224.4</ele>
        <time>2012-01-26T13:05:56Z</time>
      </trkpt>
      <trkpt lat="47.32361" lon="5.97075">
        <ele>275.2</ele>
        <time>2012-01-26T13:06:02Z</time>
      </trkpt>
      <trkpt lat="47.32366" lon="5.97083">
        <ele>275.2</ele>
        <time>2012-01-26T13:06:07Z</time>
      </trkpt>
      <trkpt lat="47.32365" lon="5.97092">
        <ele>275</ele>
        <time>2012-01-26T13:06:14Z</time>
      </trkpt>
      <trkpt lat="47.32365" lon="5.97102">
        <ele>273.2</ele>
        <time>2012-01-26T13:06:19Z</time>
      </trkpt>
      <trkpt lat="47.3237" lon="5.97109">
        <ele>272.9</ele>
        <time>2012-01-26T13:06:23Z</time>
      </trkpt>
      <trkpt lat="47.32371" lon="5.97119">
        <ele>272</ele>
        <time>2012-01-26T13:06:29Z</time>
      </trkpt>
      <trkpt lat="47.32373" lon="5.97128">
        <ele>270.8</ele>
        <time>2012-01-26T13:06:35Z</time>
      </trkpt>
      <trkpt lat="47.32373" lon="5.97138">
        <ele>270</ele>
        <time>2012-01-26T13:06:41Z</time>
      </trkpt>
      <trkpt lat="47.32379" lon="5.97139">
        <ele>270.6</ele>
        <time>2012-01-26T13:06:49Z</time>
      </trkpt>
      <trkpt lat="47.32385" lon="5.97128">
        <ele>271.6</ele>
        <time>2012-01-26T13:06:52Z</time>
      </trkpt>
      <trkpt lat="47.3239" lon="5.97123">
        <ele>272.6</ele>
        <time>2012-01-26T13:06:59Z</time>
      </trkpt>
      <trkpt lat="47.32398" lon="5.97125">
        <ele>267.8</ele>
        <time>2012-01-26T13:07:04Z</time>
      </trkpt>
      <trkpt lat="47.32404" lon="5.97126">
        <ele>266.6</ele>
        <time>2012-01-26T13:07:09Z</time>
      </trkpt>
      <trkpt lat="47.32411" lon="5.97126">
        <ele>267.3</ele>
        <time>2012-01-26T13:07:16Z</time>
      </trkpt>
      <trkpt lat="47.32418" lon="5.97126">
        <ele>267.4</ele>
        <time>2012-01-26T13:07:19Z</time>
      </trkpt>
      <trkpt lat="47.32425" lon="5.97123">
        <ele>267.1</ele>
        <time>2012-01-26T13:07:28Z</time>
      </trkpt>
      <trkpt lat="47.32432" lon="5.9712">
        <ele>266.6</ele>
        <time>2012-01-26T13:07:35Z</time>
      </trkpt>
      <trkpt lat="47.32438" lon="5.97119">
        <ele>266.1</ele>
        <time>2012-01-26T13:07:40Z</time>
      </trkpt>
      <trkpt lat="47.32445" lon="5.9712">
        <ele>266.4</ele>
        <time>2012-01-26T13:07:45Z</time>
      </trkpt>
      <trkpt lat="47.32451" lon="5.97115">
        <ele>265.2</ele>
        <time>2012-01-26T13:07:51Z</time>
      </trkpt>
      <trkpt lat="47.32457" lon="5.97111">
        <ele>265.1</ele>
        <time>2012-01-26T13:07:54Z</time>
      </trkpt>
      <trkpt lat="47.32464" lon="5.97109">
        <ele>265.9</ele>
        <time>2012-01-26T13:08:02Z</time>
      </trkpt>
      <trkpt lat="47.32471" lon="5.97105">
        <ele>265.8</ele>
        <time>2012-01-26T13:08:06Z</time>
      </trkpt>
      <trkpt lat="47.32475" lon="5.97097">
        <ele>263.5</ele>
        <time>2012-01-26T13:08:13Z</time>
      </trkpt>
      <trkpt lat="47.3248" lon="5.97091">
        <ele>264</ele>
        <time>2012-01-26T13:08:17Z</time>
      </trkpt>
      <trkpt lat="47.32487" lon="5.97086">
        <ele>263.3</ele>
        <time>2012-01-26T13:08:24Z</time>
      </trkpt>
      <trkpt lat="47.32491" lon="5.97078">
        <ele>262.3</ele>
        <time>2012-01-26T13:08:31Z</time>
      </trkpt>
      <trkpt lat="47.32496" lon="5.97071">
        <ele>261.7</ele>
        <time>2012-01-26T13:08:41Z</time>
      </trkpt>
      <trkpt lat="47.325" lon="5.97063">
        <ele>261.2</ele>
        <time>2012-01-26T13:08:49Z</time>
      </trkpt>
      <trkpt lat="47.32504" lon="5.97055">
        <ele>260</ele>
        <time>2012-01-26T13:08:53Z</time>
      </trkpt>
      <trkpt lat="47.32507" lon="5.97045">
        <ele>261.4</ele>
        <time>2012-01-26T13:08:59Z</time>
      </trkpt>
      <trkpt lat="47.32509" lon="5.97036">
        <ele>259.4</ele>
        <time>2012-01-26T13:09:06Z</time>
      </trkpt>
      <trkpt lat="47.32513" lon="5.97028">
        <ele>260.5</ele>
        <time>2012-01-26T13:09:10Z</time>
      </trkpt>
      <trkpt lat="47.32516" lon="5.9702">
        <ele>261.6</ele>
        <time>2012-01-26T13:09:19Z</time>
      </trkpt>
      <trkpt lat="47.32518" lon="5.97008">
        <ele>261.7</ele>
        <time>2012-01-26T13:09:27Z</time>
      </trkpt>
      <trkpt lat="47.32521" lon="5.97">
        <ele>263.5</ele>
        <time>2012-01-26T13:09:32Z</time>
      </trkpt>
      <trkpt lat="47.32524" lon="5.9699">
        <ele>266.6</ele>
        <time>2012-01-26T13:09:39Z</time>
      </trkpt>
      <trkpt lat="47.32523" lon="5.96979">
        <ele>266.9</ele>
        <time>2012-01-26T13:09:45Z</time>
      </trkpt>
      <trkpt lat="47.32528" lon="5.96889">
        <ele>268.8</ele>
        <time>2012-01-26T13:10:49Z</time>
      </trkpt>
      <trkpt lat="47.32531" lon="5.96881">
        <ele>270.5</ele>
        <time>2012-01-26T13:10:56Z</time>
      </trkpt>
      <trkpt lat="47.32537" lon="5.96875">
        <ele>270.2</ele>
        <time>2012-01-26T13:11:01Z</time>
      </trkpt>
      <trkpt lat="47.32541" lon="5.96867">
        <ele>270.7</ele>
        <time>2012-01-26T13:11:09Z</time>
      </trkpt>
      <trkpt lat="47.32547" lon="5.96861">
        <ele>269.7</ele>
        <time>2012-01-26T13:11:16Z</time>
      </trkpt>
      <trkpt lat="47.32553" lon="5.96857">
        <ele>270.3</ele>
        <time>2012-01-26T13:11:22Z</time>
      </trkpt>
      <trkpt lat="47.32556" lon="5.96849">
        <ele>271.4</ele>
        <time>2012-01-26T13:11:28Z</time>
      </trkpt>
      <trkpt lat="47.32562" lon="5.96842">
        <ele>272.7</ele>
        <time>2012-01-26T13:11:35Z</time>
      </trkpt>
      <trkpt lat="47.32569" lon="5.9684">
        <ele>271.9</ele>
        <time>2012-01-26T13:11:42Z</time>
      </trkpt>
      <trkpt lat="47.32576" lon="5.9684">
        <ele>273.5</ele>
        <time>2012-01-26T13:11:49Z</time>
      </trkpt>
      <trkpt lat="47.32582" lon="5.96839">
        <ele>274.3</ele>
        <time>2012-01-26T13:11:54Z</time>
      </trkpt>
      <trkpt lat="47.32589" lon="5.96838">
        <ele>274</ele>
        <time>2012-01-26T13:11:59Z</time>
      </trkpt>
      <trkpt lat="47.32595" lon="5.96835">
        <ele>276.1</ele>
        <time>2012-01-26T13:12:06Z</time>
      </trkpt>
      <trkpt lat="47.32601" lon="5.9683">
        <ele>277</ele>
        <time>2012-01-26T13:12:12Z</time>
      </trkpt>
      <trkpt lat="47.32605" lon="5.96821">
        <ele>277.3</ele>
        <time>2012-01-26T13:12:19Z</time>
      </trkpt>
      <trkpt lat="47.32608" lon="5.96812">
        <ele>277.6</ele>
        <time>2012-01-26T13:12:27Z</time>
      </trkpt>
      <trkpt lat="47.32609" lon="5.96803">
        <ele>280.5</ele>
        <time>2012-01-26T13:12:34Z</time>
      </trkpt>
      <trkpt lat="47.32614" lon="5.96794">
        <ele>282.2</ele>
        <time>2012-01-26T13:12:40Z</time>
      </trkpt>
      <trkpt lat="47.32614" lon="5.96785">
        <ele>282.9</ele>
        <time>2012-01-26T13:12:45Z</time>
      </trkpt>
      <trkpt lat="47.32618" lon="5.96776">
        <ele>282.7</ele>
        <time>2012-01-26T13:12:51Z</time>
      </trkpt>
      <trkpt lat="47.32622" lon="5.96769">
        <ele>283.1</ele>
        <time>2012-01-26T13:12:59Z</time>
      </trkpt>
      <trkpt lat="47.32628" lon="5.96762">
        <ele>284.3</ele>
        <time>2012-01-26T13:13:05Z</time>
      </trkpt>
      <trkpt lat="47.32633" lon="5.96754">
        <ele>285.3</ele>
        <time>2012-01-26T13:13:11Z</time>
      </trkpt>
      <trkpt lat="47.32639" lon="5.96747">
        <ele>285</ele>
        <time>2012-01-26T13:13:19Z</time>
      </trkpt>
      <trkpt lat="47.32644" lon="5.96739">
        <ele>286.2</ele>
        <time>2012-01-26T13:13:25Z</time>
      </trkpt>
      <trkpt lat="47.32648" lon="5.9673">
        <ele>288.5</ele>
        <time>2012-01-26T13:13:33Z</time>
      </trkpt>
      <trkpt lat="47.32646" lon="5.9672">
        <ele>288.6</ele>
        <time>2012-01-26T13:13:39Z</time>
      </trkpt>
      <trkpt lat="47.32642" lon="5.96713">
        <ele>287.5</ele>
        <time>2012-01-26T13:13:44Z</time>
      </trkpt>
      <trkpt lat="47.32636" lon="5.96708">
        <ele>290.6</ele>
        <time>2012-01-26T13:13:54Z</time>
      </trkpt>
      <trkpt lat="47.32632" lon="5.96699">
        <ele>291.6</ele>
        <time>2012-01-26T13:13:59Z</time>
      </trkpt>
      <trkpt lat="47.32628" lon="5.96692">
        <ele>292.1</ele>
        <time>2012-01-26T13:14:05Z</time>
      </trkpt>
      <trkpt lat="47.32623" lon="5.96685">
        <ele>293</ele>
        <time>2012-01-26T13:14:11Z</time>
      </trkpt>
      <trkpt lat="47.32616" lon="5.96678">
        <ele>290</ele>
        <time>2012-01-26T13:14:16Z</time>
      </trkpt>
      <trkpt lat="47.32611" lon="5.9667">
        <ele>287.8</ele>
        <time>2012-01-26T13:14:22Z</time>
      </trkpt>
      <trkpt lat="47.32607" lon="5.96663">
        <ele>287.6</ele>
        <time>2012-01-26T13:14:29Z</time>
      </trkpt>
      <trkpt lat="47.32602" lon="5.96655">
        <ele>286.9</ele>
        <time>2012-01-26T13:14:33Z</time>
      </trkpt>
      <trkpt lat="47.32598" lon="5.96647">
        <ele>285.5</ele>
        <time>2012-01-26T13:14:39Z</time>
      </trkpt>
      <trkpt lat="47.32594" lon="5.96639">
        <ele>287.1</ele>
        <time>2012-01-26T13:14:46Z</time>
      </trkpt>
      <trkpt lat="47.3259" lon="5.9663">
        <ele>286.5</ele>
        <time>2012-01-26T13:14:52Z</time>
      </trkpt>
      <trkpt lat="47.32586" lon="5.96621">
        <ele>287</ele>
        <time>2012-01-26T13:14:57Z</time>
      </trkpt>
      <trkpt lat="47.32583" lon="5.96613">
        <ele>288.8</ele>
        <time>2012-01-26T13:15:04Z</time>
      </trkpt>
      <trkpt lat="47.32579" lon="5.96605">
        <ele>287.3</ele>
        <time>2012-01-26T13:15:10Z</time>
      </trkpt>
      <trkpt lat="47.32582" lon="5.96596">
        <ele>287.9</ele>
        <time>2012-01-26T13:15:17Z</time>
      </trkpt>
      <trkpt lat="47.32585" lon="5.96588">
        <ele>287.4</ele>
        <time>2012-01-26T13:15:23Z</time>
      </trkpt>
      <trkpt lat="47.32591" lon="5.96582">
        <ele>287.4</ele>
        <time>2012-01-26T13:15:30Z</time>
      </trkpt>
      <trkpt lat="47.32596" lon="5.96575">
        <ele>288.6</ele>
        <time>2012-01-26T13:15:37Z</time>
      </trkpt>
      <trkpt lat="47.32601" lon="5.96568">
        <ele>290.4</ele>
        <time>2012-01-26T13:15:44Z</time>
      </trkpt>
      <trkpt lat="47.32606" lon="5.96561">
        <ele>292</ele>
        <time>2012-01-26T13:15:51Z</time>
      </trkpt>
      <trkpt lat="47.32606" lon="5.96551">
        <ele>292.9</ele>
        <time>2012-01-26T13:15:58Z</time>
      </trkpt>
      <trkpt lat="47.32605" lon="5.96542">
        <ele>293.9</ele>
        <time>2012-01-26T13:16:05Z</time>
      </trkpt>
      <trkpt lat="47.32603" lon="5.96532">
        <ele>294.7</ele>
        <time>2012-01-26T13:16:12Z</time>
      </trkpt>
      <trkpt lat="47.32603" lon="5.96532">
        <ele>247.6</ele>
        <time>2012-01-26T13:16:24Z</time>
      </trkpt>
      <trkpt lat="47.32603" lon="5.96532">
        <ele>247.6</ele>
        <time>2012-01-26T13:16:26Z</time>
      </trkpt>
      <trkpt lat="47.32598" lon="5.96514">
        <ele>294.9</ele>
        <time>2012-01-26T13:16:32Z</time>
      </trkpt>
      <trkpt lat="47.32598" lon="5.96502">
        <ele>296.6</ele>
        <time>2012-01-26T13:16:38Z</time>
      </trkpt>
      <trkpt lat="47.32601" lon="5.96493">
        <ele>298.3</ele>
        <time>2012-01-26T13:16:44Z</time>
      </trkpt>
      <trkpt lat="47.32608" lon="5.96493">
        <ele>298</ele>
        <time>2012-01-26T13:16:50Z</time>
      </trkpt>
      <trkpt lat="47.32614" lon="5.96496">
        <ele>297</ele>
        <time>2012-01-26T13:16:54Z</time>
      </trkpt>
      <trkpt lat="47.32614" lon="5.96496">
        <ele>247</ele>
        <time>2012-01-26T13:17:06Z</time>
      </trkpt>
      <trkpt lat="47.32614" lon="5.96496">
        <ele>247</ele>
        <time>2012-01-26T13:17:07Z</time>
      </trkpt>
      <trkpt lat="47.32625" lon="5.96486">
        <ele>297.4</ele>
        <time>2012-01-26T13:17:12Z</time>
      </trkpt>
      <trkpt lat="47.32628" lon="5.96477">
        <ele>297</ele>
        <time>2012-01-26T13:17:18Z</time>
      </trkpt>
      <trkpt lat="47.3263" lon="5.96468">
        <ele>297.9</ele>
        <time>2012-01-26T13:17:24Z</time>
      </trkpt>
      <trkpt lat="47.32635" lon="5.96461">
        <ele>295.7</ele>
        <time>2012-01-26T13:17:31Z</time>
      </trkpt>
      <trkpt lat="47.32639" lon="5.96454">
        <ele>295.5</ele>
        <time>2012-01-26T13:17:37Z</time>
      </trkpt>
      <trkpt lat="47.32645" lon="5.96448">
        <ele>294.9</ele>
        <time>2012-01-26T13:17:38Z</time>
      </trkpt>
      <trkpt lat="47.3265" lon="5.96443">
        <ele>294.2</ele>
        <time>2012-01-26T13:17:43Z</time>
      </trkpt>
      <trkpt lat="47.32655" lon="5.96437">
        <ele>292.4</ele>
        <time>2012-01-26T13:17:50Z</time>
      </trkpt>
      <trkpt lat="47.32661" lon="5.96432">
        <ele>292.3</ele>
        <time>2012-01-26T13:17:59Z</time>
      </trkpt>
      <trkpt lat="47.32661" lon="5.96432">
        <ele>242.4</ele>
        <time>2012-01-26T13:18:10Z</time>
      </trkpt>
      <trkpt lat="47.32661" lon="5.96432">
        <ele>242.4</ele>
        <time>2012-01-26T13:19:50Z</time>
      </trkpt>
      <trkpt lat="47.32671" lon="5.96418">
        <ele>287.9</ele>
        <time>2012-01-26T13:19:56Z</time>
      </trkpt>
      <trkpt lat="47.32677" lon="5.96412">
        <ele>289.7</ele>
        <time>2012-01-26T13:20:06Z</time>
      </trkpt>
      <trkpt lat="47.32683" lon="5.96411">
        <ele>288.8</ele>
        <time>2012-01-26T13:20:12Z</time>
      </trkpt>
      <trkpt lat="47.3269" lon="5.96406">
        <ele>288.7</ele>
        <time>2012-01-26T13:20:19Z</time>
      </trkpt>
      <trkpt lat="47.32694" lon="5.964">
        <ele>288.5</ele>
        <time>2012-01-26T13:20:26Z</time>
      </trkpt>
      <trkpt lat="47.32702" lon="5.96402">
        <ele>289.1</ele>
        <time>2012-01-26T13:20:34Z</time>
      </trkpt>
      <trkpt lat="47.32708" lon="5.96402">
        <ele>288</ele>
        <time>2012-01-26T13:20:44Z</time>
      </trkpt>
      <trkpt lat="47.32715" lon="5.96404">
        <ele>286.8</ele>
        <time>2012-01-26T13:20:52Z</time>
      </trkpt>
      <trkpt lat="47.32722" lon="5.96404">
        <ele>285</ele>
        <time>2012-01-26T13:21:03Z</time>
      </trkpt>
      <trkpt lat="47.32728" lon="5.96409">
        <ele>283</ele>
        <time>2012-01-26T13:21:11Z</time>
      </trkpt>
      <trkpt lat="47.32734" lon="5.96409">
        <ele>281.3</ele>
        <time>2012-01-26T13:21:18Z</time>
      </trkpt>
      <trkpt lat="47.3274" lon="5.96414">
        <ele>281.6</ele>
        <time>2012-01-26T13:21:27Z</time>
      </trkpt>
      <trkpt lat="47.32746" lon="5.9642">
        <ele>283.3</ele>
        <time>2012-01-26T13:21:34Z</time>
      </trkpt>
      <trkpt lat="47.32753" lon="5.96422">
        <ele>283.2</ele>
        <time>2012-01-26T13:21:45Z</time>
      </trkpt>
      <trkpt lat="47.32759" lon="5.96424">
        <ele>282.4</ele>
        <time>2012-01-26T13:21:57Z</time>
      </trkpt>
      <trkpt lat="47.32765" lon="5.96429">
        <ele>280.5</ele>
        <time>2012-01-26T13:22:07Z</time>
      </trkpt>
      <trkpt lat="47.32771" lon="5.96432">
        <ele>281.3</ele>
        <time>2012-01-26T13:22:13Z</time>
      </trkpt>
      <trkpt lat="47.32777" lon="5.96436">
        <ele>280.7</ele>
        <time>2012-01-26T13:22:22Z</time>
      </trkpt>
      <trkpt lat="47.32784" lon="5.96436">
        <ele>283</ele>
        <time>2012-01-26T13:22:29Z</time>
      </trkpt>
      <trkpt lat="47.3279" lon="5.9644">
        <ele>284.3</ele>
        <time>2012-01-26T13:22:36Z</time>
      </trkpt>
      <trkpt lat="47.32797" lon="5.96442">
        <ele>285.8</ele>
        <time>2012-01-26T13:22:43Z</time>
      </trkpt>
      <trkpt lat="47.32803" lon="5.96448">
        <ele>284.4</ele>
        <time>2012-01-26T13:22:51Z</time>
      </trkpt>
      <trkpt lat="47.32809" lon="5.96451">
        <ele>282.1</ele>
        <time>2012-01-26T13:23:00Z</time>
      </trkpt>
      <trkpt lat="47.32816" lon="5.96453">
        <ele>281.4</ele>
        <time>2012-01-26T13:23:05Z</time>
      </trkpt>
      <trkpt lat="47.32823" lon="5.96453">
        <ele>281.4</ele>
        <time>2012-01-26T13:23:12Z</time>
      </trkpt>
      <trkpt lat="47.3283" lon="5.96455">
        <ele>280.6</ele>
        <time>2012-01-26T13:23:18Z</time>
      </trkpt>
      <trkpt lat="47.3283" lon="5.96455">
        <ele>234.1</ele>
        <time>2012-01-26T13:23:30Z</time>
      </trkpt>
      <trkpt lat="47.3283" lon="5.96455">
        <ele>234.1</ele>
        <time>2012-01-26T13:23:33Z</time>
      </trkpt>
      <trkpt lat="47.32844" lon="5.96456">
        <ele>278.2</ele>
        <time>2012-01-26T13:23:40Z</time>
      </trkpt>
      <trkpt lat="47.3285" lon="5.96458">
        <ele>277.6</ele>
        <time>2012-01-26T13:23:50Z</time>
      </trkpt>
      <trkpt lat="47.32857" lon="5.96457">
        <ele>274.8</ele>
        <time>2012-01-26T13:23:56Z</time>
      </trkpt>
      <trkpt lat="47.32863" lon="5.96457">
        <ele>273.6</ele>
        <time>2012-01-26T13:24:02Z</time>
      </trkpt>
      <trkpt lat="47.3287" lon="5.96459">
        <ele>271.7</ele>
        <time>2012-01-26T13:24:09Z</time>
      </trkpt>
      <trkpt lat="47.3287" lon="5.96459">
        <ele>231.1</ele>
        <time>2012-01-26T13:24:21Z</time>
      </trkpt>
      <trkpt lat="47.3287" lon="5.96459">
        <ele>231.1</ele>
        <time>2012-01-26T13:24:48Z</time>
      </trkpt>
      <trkpt lat="47.32876" lon="5.96443">
        <ele>274.6</ele>
        <time>2012-01-26T13:24:53Z</time>
      </trkpt>
      <trkpt lat="47.32877" lon="5.96431">
        <ele>276</ele>
        <time>2012-01-26T13:25:01Z</time>
      </trkpt>
      <trkpt lat="47.32881" lon="5.96423">
        <ele>275.2</ele>
        <time>2012-01-26T13:25:07Z</time>
      </trkpt>
      <trkpt lat="47.32882" lon="5.96413">
        <ele>275.5</ele>
        <time>2012-01-26T13:25:14Z</time>
      </trkpt>
      <trkpt lat="47.32882" lon="5.96401">
        <ele>274.5</ele>
        <time>2012-01-26T13:25:20Z</time>
      </trkpt>
      <trkpt lat="47.32881" lon="5.96391">
        <ele>275.4</ele>
        <time>2012-01-26T13:25:27Z</time>
      </trkpt>
      <trkpt lat="47.32882" lon="5.96381">
        <ele>275.2</ele>
        <time>2012-01-26T13:25:33Z</time>
      </trkpt>
      <trkpt lat="47.32882" lon="5.96371">
        <ele>275</ele>
        <time>2012-01-26T13:25:39Z</time>
      </trkpt>
      <trkpt lat="47.32883" lon="5.96362">
        <ele>274.7</ele>
        <time>2012-01-26T13:25:43Z</time>
      </trkpt>
      <trkpt lat="47.32883" lon="5.96352">
        <ele>274.6</ele>
        <time>2012-01-26T13:25:49Z</time>
      </trkpt>
      <trkpt lat="47.32887" lon="5.96344">
        <ele>273.7</ele>
        <time>2012-01-26T13:25:56Z</time>
      </trkpt>
      <trkpt lat="47.32888" lon="5.96334">
        <ele>274.3</ele>
        <time>2012-01-26T13:26:02Z</time>
      </trkpt>
      <trkpt lat="47.32888" lon="5.96325">
        <ele>273.9</ele>
        <time>2012-01-26T13:26:07Z</time>
      </trkpt>
      <trkpt lat="47.3289" lon="5.96315">
        <ele>272.6</ele>
        <time>2012-01-26T13:26:13Z</time>
      </trkpt>
      <trkpt lat="47.32887" lon="5.96306">
        <ele>273.8</ele>
        <time>2012-01-26T13:26:19Z</time>
      </trkpt>
      <trkpt lat="47.32888" lon="5.96297">
        <ele>274.2</ele>
        <time>2012-01-26T13:26:25Z</time>
      </trkpt>
      <trkpt lat="47.32892" lon="5.96288">
        <ele>274.5</ele>
        <time>2012-01-26T13:26:31Z</time>
      </trkpt>
      <trkpt lat="47.32894" lon="5.96278">
        <ele>274.7</ele>
        <time>2012-01-26T13:26:38Z</time>
      </trkpt>
      <trkpt lat="47.32898" lon="5.9627">
        <ele>275</ele>
        <time>2012-01-26T13:26:44Z</time>
      </trkpt>
      <trkpt lat="47.32903" lon="5.9626">
        <ele>274.4</ele>
        <time>2012-01-26T13:26:51Z</time>
      </trkpt>
      <trkpt lat="47.32904" lon="5.96248">
        <ele>275.5</ele>
        <time>2012-01-26T13:26:59Z</time>
      </trkpt>
      <trkpt lat="47.32911" lon="5.96243">
        <ele>276.4</ele>
        <time>2012-01-26T13:27:06Z</time>
      </trkpt>
      <trkpt lat="47.32913" lon="5.96233">
        <ele>276.7</ele>
        <time>2012-01-26T13:27:12Z</time>
      </trkpt>
      <trkpt lat="47.32916" lon="5.96223">
        <ele>275.2</ele>
        <time>2012-01-26T13:27:18Z</time>
      </trkpt>
      <trkpt lat="47.3292" lon="5.96215">
        <ele>274.6</ele>
        <time>2012-01-26T13:27:27Z</time>
      </trkpt>
      <trkpt lat="47.32922" lon="5.96205">
        <ele>273.7</ele>
        <time>2012-01-26T13:27:32Z</time>
      </trkpt>
      <trkpt lat="47.32922" lon="5.96195">
        <ele>272.3</ele>
        <time>2012-01-26T13:27:42Z</time>
      </trkpt>
      <trkpt lat="47.32926" lon="5.96185">
        <ele>273.8</ele>
        <time>2012-01-26T13:27:48Z</time>
      </trkpt>
      <trkpt lat="47.32926" lon="5.96175">
        <ele>275.9</ele>
        <time>2012-01-26T13:27:55Z</time>
      </trkpt>
      <trkpt lat="47.3293" lon="5.96166">
        <ele>277.2</ele>
        <time>2012-01-26T13:28:00Z</time>
      </trkpt>
      <trkpt lat="47.32932" lon="5.96156">
        <ele>278</ele>
        <time>2012-01-26T13:28:05Z</time>
      </trkpt>
      <trkpt lat="47.32931" lon="5.96146">
        <ele>278.5</ele>
        <time>2012-01-26T13:28:11Z</time>
      </trkpt>
      <trkpt lat="47.32932" lon="5.96134">
        <ele>277.1</ele>
        <time>2012-01-26T13:28:19Z</time>
      </trkpt>
      <trkpt lat="47.32931" lon="5.96124">
        <ele>277.1</ele>
        <time>2012-01-26T13:28:23Z</time>
      </trkpt>
      <trkpt lat="47.32935" lon="5.96115">
        <ele>278.1</ele>
        <time>2012-01-26T13:28:29Z</time>
      </trkpt>
      <trkpt lat="47.32934" lon="5.96105">
        <ele>276.8</ele>
        <time>2012-01-26T13:28:35Z</time>
      </trkpt>
      <trkpt lat="47.32936" lon="5.96096">
        <ele>277.4</ele>
        <time>2012-01-26T13:28:40Z</time>
      </trkpt>
      <trkpt lat="47.32939" lon="5.96086">
        <ele>277.6</ele>
        <time>2012-01-26T13:28:46Z</time>
      </trkpt>
      <trkpt lat="47.3294" lon="5.96076">
        <ele>277.6</ele>
        <time>2012-01-26T13:28:52Z</time>
      </trkpt>
      <trkpt lat="47.3294" lon="5.96066">
        <ele>277.7</ele>
        <time>2012-01-26T13:29:00Z</time>
      </trkpt>
      <trkpt lat="47.32937" lon="5.96058">
        <ele>273</ele>
        <time>2012-01-26T13:29:06Z</time>
      </trkpt>
      <trkpt lat="47.32939" lon="5.96049">
        <ele>273.2</ele>
        <time>2012-01-26T13:29:12Z</time>
      </trkpt>
      <trkpt lat="47.32941" lon="5.96038">
        <ele>271.3</ele>
        <time>2012-01-26T13:29:18Z</time>
      </trkpt>
      <trkpt lat="47.32943" lon="5.96028">
        <ele>271</ele>
        <time>2012-01-26T13:29:24Z</time>
      </trkpt>
      <trkpt lat="47.32945" lon="5.96019">
        <ele>269.2</ele>
        <time>2012-01-26T13:29:32Z</time>
      </trkpt>
      <trkpt lat="47.32944" lon="5.96009">
        <ele>269.5</ele>
        <time>2012-01-26T13:29:38Z</time>
      </trkpt>
      <trkpt lat="47.32943" lon="5.95999">
        <ele>267</ele>
        <time>2012-01-26T13:29:46Z</time>
      </trkpt>
      <trkpt lat="47.32945" lon="5.95989">
        <ele>267.4</ele>
        <time>2012-01-26T13:29:50Z</time>
      </trkpt>
      <trkpt lat="47.32947" lon="5.95979">
        <ele>267.1</ele>
        <time>2012-01-26T13:29:59Z</time>
      </trkpt>
      <trkpt lat="47.32946" lon="5.9597">
        <ele>267.6</ele>
        <time>2012-01-26T13:30:03Z</time>
      </trkpt>
      <trkpt lat="47.32943" lon="5.9596">
        <ele>269.5</ele>
        <time>2012-01-26T13:30:08Z</time>
      </trkpt>
      <trkpt lat="47.32945" lon="5.9595">
        <ele>268.2</ele>
        <time>2012-01-26T13:30:15Z</time>
      </trkpt>
      <trkpt lat="47.3295" lon="5.95942">
        <ele>269.7</ele>
        <time>2012-01-26T13:30:22Z</time>
      </trkpt>
      <trkpt lat="47.32954" lon="5.95933">
        <ele>271.9</ele>
        <time>2012-01-26T13:30:27Z</time>
      </trkpt>
      <trkpt lat="47.32956" lon="5.95923">
        <ele>271</ele>
        <time>2012-01-26T13:30:33Z</time>
      </trkpt>
      <trkpt lat="47.32955" lon="5.95911">
        <ele>271.3</ele>
        <time>2012-01-26T13:30:39Z</time>
      </trkpt>
      <trkpt lat="47.32957" lon="5.95901">
        <ele>271.8</ele>
        <time>2012-01-26T13:30:46Z</time>
      </trkpt>
      <trkpt lat="47.32958" lon="5.95892">
        <ele>271.4</ele>
        <time>2012-01-26T13:30:51Z</time>
      </trkpt>
      <trkpt lat="47.32959" lon="5.95882">
        <ele>271.2</ele>
        <time>2012-01-26T13:30:59Z</time>
      </trkpt>
      <trkpt lat="47.32963" lon="5.95874">
        <ele>273</ele>
        <time>2012-01-26T13:31:05Z</time>
      </trkpt>
      <trkpt lat="47.32963" lon="5.95864">
        <ele>274.1</ele>
        <time>2012-01-26T13:31:12Z</time>
      </trkpt>
      <trkpt lat="47.32964" lon="5.95855">
        <ele>272</ele>
        <time>2012-01-26T13:31:17Z</time>
      </trkpt>
      <trkpt lat="47.32965" lon="5.95844">
        <ele>270.2</ele>
        <time>2012-01-26T13:31:24Z</time>
      </trkpt>
      <trkpt lat="47.32968" lon="5.95835">
        <ele>269.6</ele>
        <time>2012-01-26T13:31:31Z</time>
      </trkpt>
      <trkpt lat="47.32969" lon="5.95824">
        <ele>269.8</ele>
        <time>2012-01-26T13:31:37Z</time>
      </trkpt>
      <trkpt lat="47.32973" lon="5.95815">
        <ele>270.5</ele>
        <time>2012-01-26T13:31:44Z</time>
      </trkpt>
      <trkpt lat="47.32973" lon="5.95805">
        <ele>271.1</ele>
        <time>2012-01-26T13:31:52Z</time>
      </trkpt>
      <trkpt lat="47.32972" lon="5.95795">
        <ele>272.1</ele>
        <time>2012-01-26T13:31:58Z</time>
      </trkpt>
      <trkpt lat="47.32975" lon="5.95784">
        <ele>272.7</ele>
        <time>2012-01-26T13:32:03Z</time>
      </trkpt>
      <trkpt lat="47.32975" lon="5.95773">
        <ele>274.2</ele>
        <time>2012-01-26T13:32:11Z</time>
      </trkpt>
      <trkpt lat="47.32978" lon="5.95763">
        <ele>275.1</ele>
        <time>2012-01-26T13:32:18Z</time>
      </trkpt>
      <trkpt lat="47.32979" lon="5.95754">
        <ele>274</ele>
        <time>2012-01-26T13:32:24Z</time>
      </trkpt>
      <trkpt lat="47.32978" lon="5.95744">
        <ele>278.1</ele>
        <time>2012-01-26T13:32:30Z</time>
      </trkpt>
      <trkpt lat="47.32977" lon="5.95734">
        <ele>279.3</ele>
        <time>2012-01-26T13:32:36Z</time>
      </trkpt>
      <trkpt lat="47.3298" lon="5.95724">
        <ele>281.6</ele>
        <time>2012-01-26T13:32:46Z</time>
      </trkpt>
      <trkpt lat="47.32983" lon="5.95715">
        <ele>282</ele>
        <time>2012-01-26T13:32:54Z</time>
      </trkpt>
      <trkpt lat="47.32984" lon="5.95704">
        <ele>283.6</ele>
        <time>2012-01-26T13:33:00Z</time>
      </trkpt>
      <trkpt lat="47.32984" lon="5.95695">
        <ele>283.9</ele>
        <time>2012-01-26T13:33:09Z</time>
      </trkpt>
      <trkpt lat="47.32986" lon="5.95685">
        <ele>284.3</ele>
        <time>2012-01-26T13:33:13Z</time>
      </trkpt>
      <trkpt lat="47.32988" lon="5.95676">
        <ele>281.4</ele>
        <time>2012-01-26T13:33:22Z</time>
      </trkpt>
      <trkpt lat="47.32988" lon="5.95666">
        <ele>279.5</ele>
        <time>2012-01-26T13:33:32Z</time>
      </trkpt>
      <trkpt lat="47.3299" lon="5.95655">
        <ele>281.2</ele>
        <time>2012-01-26T13:33:41Z</time>
      </trkpt>
      <trkpt lat="47.32995" lon="5.95647">
        <ele>280.4</ele>
        <time>2012-01-26T13:33:48Z</time>
      </trkpt>
      <trkpt lat="47.32992" lon="5.95637">
        <ele>282.1</ele>
        <time>2012-01-26T13:33:56Z</time>
      </trkpt>
      <trkpt lat="47.32992" lon="5.95628">
        <ele>282</ele>
        <time>2012-01-26T13:34:02Z</time>
      </trkpt>
      <trkpt lat="47.32993" lon="5.95617">
        <ele>283.8</ele>
        <time>2012-01-26T13:34:11Z</time>
      </trkpt>
      <trkpt lat="47.32996" lon="5.95608">
        <ele>283.2</ele>
        <time>2012-01-26T13:34:18Z</time>
      </trkpt>
      <trkpt lat="47.32998" lon="5.95597">
        <ele>280.7</ele>
        <time>2012-01-26T13:34:25Z</time>
      </trkpt>
      <trkpt lat="47.32998" lon="5.95597">
        <ele>238.5</ele>
        <time>2012-01-26T13:34:37Z</time>
      </trkpt>
      <trkpt lat="47.32998" lon="5.95597">
        <ele>238.5</ele>
        <time>2012-01-26T13:35:19Z</time>
      </trkpt>
      <trkpt lat="47.33011" lon="5.95604">
        <ele>283</ele>
        <time>2012-01-26T13:35:19Z</time>
      </trkpt>
      <trkpt lat="47.33016" lon="5.9561">
        <ele>288.7</ele>
        <time>2012-01-26T13:35:28Z</time>
      </trkpt>
      <trkpt lat="47.33021" lon="5.95614">
        <ele>288.2</ele>
        <time>2012-01-26T13:35:33Z</time>
      </trkpt>
      <trkpt lat="47.33027" lon="5.9562">
        <ele>288.7</ele>
        <time>2012-01-26T13:35:40Z</time>
      </trkpt>
      <trkpt lat="47.33027" lon="5.9562">
        <ele>237.1</ele>
        <time>2012-01-26T13:35:52Z</time>
      </trkpt>
      <trkpt lat="47.33027" lon="5.9562">
        <ele>237.1</ele>
        <time>2012-01-26T13:35:58Z</time>
      </trkpt>
      <trkpt lat="47.33036" lon="5.95637">
        <ele>289.5</ele>
        <time>2012-01-26T13:36:01Z</time>
      </trkpt>
      <trkpt lat="47.33038" lon="5.95646">
        <ele>291.7</ele>
        <time>2012-01-26T13:36:05Z</time>
      </trkpt>
      <trkpt lat="47.33043" lon="5.95652">
        <ele>292.1</ele>
        <time>2012-01-26T13:36:10Z</time>
      </trkpt>
      <trkpt lat="47.33043" lon="5.95652">
        <ele>235.8</ele>
        <time>2012-01-26T13:36:22Z</time>
      </trkpt>
      <trkpt lat="47.33043" lon="5.95652">
        <ele>235.8</ele>
        <time>2012-01-26T13:36:36Z</time>
      </trkpt>
      <trkpt lat="47.33051" lon="5.95667">
        <ele>291.4</ele>
        <time>2012-01-26T13:36:38Z</time>
      </trkpt>
      <trkpt lat="47.33057" lon="5.95668">
        <ele>290.5</ele>
        <time>2012-01-26T13:36:43Z</time>
      </trkpt>
      <trkpt lat="47.33063" lon="5.9567">
        <ele>289.1</ele>
        <time>2012-01-26T13:36:47Z</time>
      </trkpt>
      <trkpt lat="47.33071" lon="5.95672">
        <ele>287.2</ele>
        <time>2012-01-26T13:36:52Z</time>
      </trkpt>
      <trkpt lat="47.33077" lon="5.95677">
        <ele>287.1</ele>
        <time>2012-01-26T13:36:57Z</time>
      </trkpt>
      <trkpt lat="47.33084" lon="5.95679">
        <ele>285.4</ele>
        <time>2012-01-26T13:37:06Z</time>
      </trkpt>
      <trkpt lat="47.33092" lon="5.95675">
        <ele>282.4</ele>
        <time>2012-01-26T13:37:13Z</time>
      </trkpt>
      <trkpt lat="47.33096" lon="5.95668">
        <ele>282.9</ele>
        <time>2012-01-26T13:37:19Z</time>
      </trkpt>
      <trkpt lat="47.33102" lon="5.95664">
        <ele>279.9</ele>
        <time>2012-01-26T13:37:27Z</time>
      </trkpt>
      <trkpt lat="47.33102" lon="5.95664">
        <ele>228.8</ele>
        <time>2012-01-26T13:37:39Z</time>
      </trkpt>
      <trkpt lat="47.33102" lon="5.95664">
        <ele>228.8</ele>
        <time>2012-01-26T13:37:43Z</time>
      </trkpt>
      <trkpt lat="47.33111" lon="5.95652">
        <ele>284.4</ele>
        <time>2012-01-26T13:37:49Z</time>
      </trkpt>
      <trkpt lat="47.33116" lon="5.95642">
        <ele>283.4</ele>
        <time>2012-01-26T13:37:56Z</time>
      </trkpt>
      <trkpt lat="47.33115" lon="5.95633">
        <ele>282.4</ele>
        <time>2012-01-26T13:38:06Z</time>
      </trkpt>
      <trkpt lat="47.33115" lon="5.95633">
        <ele>231.3</ele>
        <time>2012-01-26T13:38:18Z</time>
      </trkpt>
      <trkpt lat="47.33115" lon="5.95633">
        <ele>231.3</ele>
        <time>2012-01-26T13:40:00Z</time>
      </trkpt>
      <trkpt lat="47.33123" lon="5.9562">
        <ele>280.9</ele>
        <time>2012-01-26T13:40:07Z</time>
      </trkpt>
      <trkpt lat="47.33123" lon="5.9562">
        <ele>232.4</ele>
        <time>2012-01-26T13:40:19Z</time>
      </trkpt>
      <trkpt lat="47.33123" lon="5.9562">
        <ele>232.4</ele>
        <time>2012-01-26T13:41:18Z</time>
      </trkpt>
      <trkpt lat="47.33134" lon="5.9561">
        <ele>285</ele>
        <time>2012-01-26T13:41:27Z</time>
      </trkpt>
      <trkpt lat="47.3314" lon="5.95605">
        <ele>285.6</ele>
        <time>2012-01-26T13:41:34Z</time>
      </trkpt>
      <trkpt lat="47.3314" lon="5.95605">
        <ele>233.4</ele>
        <time>2012-01-26T13:41:46Z</time>
      </trkpt>
      <trkpt lat="47.3314" lon="5.95605">
        <ele>233.4</ele>
        <time>2012-01-26T13:41:46Z</time>
      </trkpt>
      <trkpt lat="47.3314" lon="5.95605">
        <ele>233.4</ele>
        <time>2012-01-26T13:41:58Z</time>
      </trkpt>
      <trkpt lat="47.3314" lon="5.95605">
        <ele>233.4</ele>
        <time>2012-01-26T13:42:11Z</time>
      </trkpt>
      <trkpt lat="47.3315" lon="5.95578">
        <ele>285.3</ele>
        <time>2012-01-26T13:42:16Z</time>
      </trkpt>
      <trkpt lat="47.33155" lon="5.95571">
        <ele>283.9</ele>
        <time>2012-01-26T13:42:20Z</time>
      </trkpt>
      <trkpt lat="47.33158" lon="5.95562">
        <ele>285.2</ele>
        <time>2012-01-26T13:42:29Z</time>
      </trkpt>
      <trkpt lat="47.33158" lon="5.95562">
        <ele>235.8</ele>
        <time>2012-01-26T13:42:41Z</time>
      </trkpt>
      <trkpt lat="47.33158" lon="5.95562">
        <ele>235.8</ele>
        <time>2012-01-26T13:42:41Z</time>
      </trkpt>
      <trkpt lat="47.33165" lon="5.95547">
        <ele>283.4</ele>
        <time>2012-01-26T13:42:46Z</time>
      </trkpt>
      <trkpt lat="47.33171" lon="5.95542">
        <ele>281.9</ele>
        <time>2012-01-26T13:42:52Z</time>
      </trkpt>
      <trkpt lat="47.33176" lon="5.95534">
        <ele>284.1</ele>
        <time>2012-01-26T13:42:59Z</time>
      </trkpt>
      <trkpt lat="47.33181" lon="5.95524">
        <ele>284.8</ele>
        <time>2012-01-26T13:43:07Z</time>
      </trkpt>
      <trkpt lat="47.33187" lon="5.95518">
        <ele>284.3</ele>
        <time>2012-01-26T13:43:11Z</time>
      </trkpt>
      <trkpt lat="47.33192" lon="5.95509">
        <ele>285.9</ele>
        <time>2012-01-26T13:43:16Z</time>
      </trkpt>
      <trkpt lat="47.33197" lon="5.95503">
        <ele>290.1</ele>
        <time>2012-01-26T13:43:22Z</time>
      </trkpt>
      <trkpt lat="47.33202" lon="5.95493">
        <ele>292.3</ele>
        <time>2012-01-26T13:43:26Z</time>
      </trkpt>
      <trkpt lat="47.33202" lon="5.95493">
        <ele>238.4</ele>
        <time>2012-01-26T13:43:38Z</time>
      </trkpt>
      <trkpt lat="47.33202" lon="5.95493">
        <ele>238.4</ele>
        <time>2012-01-26T13:43:42Z</time>
      </trkpt>
      <trkpt lat="47.33212" lon="5.95481">
        <ele>289.2</ele>
        <time>2012-01-26T13:43:45Z</time>
      </trkpt>
      <trkpt lat="47.33216" lon="5.95471">
        <ele>288.5</ele>
        <time>2012-01-26T13:43:50Z</time>
      </trkpt>
      <trkpt lat="47.33214" lon="5.95461">
        <ele>288.9</ele>
        <time>2012-01-26T13:43:57Z</time>
      </trkpt>
      <trkpt lat="47.33216" lon="5.95452">
        <ele>289.2</ele>
        <time>2012-01-26T13:44:02Z</time>
      </trkpt>
      <trkpt lat="47.33219" lon="5.95443">
        <ele>288</ele>
        <time>2012-01-26T13:44:08Z</time>
      </trkpt>
      <trkpt lat="47.33226" lon="5.95434">
        <ele>288.6</ele>
        <time>2012-01-26T13:44:13Z</time>
      </trkpt>
      <trkpt lat="47.33224" lon="5.95424">
        <ele>287.7</ele>
        <time>2012-01-26T13:44:18Z</time>
      </trkpt>
      <trkpt lat="47.33231" lon="5.95419">
        <ele>288.4</ele>
        <time>2012-01-26T13:44:23Z</time>
      </trkpt>
      <trkpt lat="47.33233" lon="5.95408">
        <ele>290</ele>
        <time>2012-01-26T13:44:28Z</time>
      </trkpt>
      <trkpt lat="47.33238" lon="5.95401">
        <ele>289</ele>
        <time>2012-01-26T13:44:35Z</time>
      </trkpt>
      <trkpt lat="47.33239" lon="5.95391">
        <ele>289</ele>
        <time>2012-01-26T13:44:40Z</time>
      </trkpt>
      <trkpt lat="47.33243" lon="5.95383">
        <ele>288.8</ele>
        <time>2012-01-26T13:44:44Z</time>
      </trkpt>
      <trkpt lat="47.33247" lon="5.95374">
        <ele>289.6</ele>
        <time>2012-01-26T13:44:49Z</time>
      </trkpt>
      <trkpt lat="47.33252" lon="5.95368">
        <ele>289.7</ele>
        <time>2012-01-26T13:44:55Z</time>
      </trkpt>
      <trkpt lat="47.33256" lon="5.95359">
        <ele>291.8</ele>
        <time>2012-01-26T13:45:03Z</time>
      </trkpt>
      <trkpt lat="47.33259" lon="5.9535">
        <ele>290.1</ele>
        <time>2012-01-26T13:45:11Z</time>
      </trkpt>
      <trkpt lat="47.33265" lon="5.95344">
        <ele>289.3</ele>
        <time>2012-01-26T13:45:20Z</time>
      </trkpt>
      <trkpt lat="47.33271" lon="5.95336">
        <ele>291.2</ele>
        <time>2012-01-26T13:45:23Z</time>
      </trkpt>
      <trkpt lat="47.33273" lon="5.95327">
        <ele>289.9</ele>
        <time>2012-01-26T13:45:27Z</time>
      </trkpt>
      <trkpt lat="47.33275" lon="5.95317">
        <ele>290.2</ele>
        <time>2012-01-26T13:45:33Z</time>
      </trkpt>
      <trkpt lat="47.33281" lon="5.95311">
        <ele>290.7</ele>
        <time>2012-01-26T13:45:38Z</time>
      </trkpt>
      <trkpt lat="47.33283" lon="5.95301">
        <ele>290.7</ele>
        <time>2012-01-26T13:45:42Z</time>
      </trkpt>
      <trkpt lat="47.33283" lon="5.95301">
        <ele>234.4</ele>
        <time>2012-01-26T13:45:54Z</time>
      </trkpt>
      <trkpt lat="47.33283" lon="5.95301">
        <ele>234.4</ele>
        <time>2012-01-26T13:45:55Z</time>
      </trkpt>
      <trkpt lat="47.33286" lon="5.95291">
        <ele>281.1</ele>
        <time>2012-01-26T13:45:57Z</time>
      </trkpt>
      <trkpt lat="47.33286" lon="5.95279">
        <ele>281.5</ele>
        <time>2012-01-26T13:46:07Z</time>
      </trkpt>
      <trkpt lat="47.33288" lon="5.9527">
        <ele>281.2</ele>
        <time>2012-01-26T13:46:14Z</time>
      </trkpt>
      <trkpt lat="47.33288" lon="5.9527">
        <ele>233.7</ele>
        <time>2012-01-26T13:46:26Z</time>
      </trkpt>
      <trkpt lat="47.33288" lon="5.9527">
        <ele>233.7</ele>
        <time>2012-01-26T13:46:39Z</time>
      </trkpt>
      <trkpt lat="47.33288" lon="5.9527">
        <ele>233.7</ele>
        <time>2012-01-26T13:46:51Z</time>
      </trkpt>
      <trkpt lat="47.33288" lon="5.9527">
        <ele>233.7</ele>
        <time>2012-01-26T13:48:44Z</time>
      </trkpt>
      <trkpt lat="47.3328" lon="5.95281">
        <ele>277.7</ele>
        <time>2012-01-26T13:48:48Z</time>
      </trkpt>
      <trkpt lat="47.33273" lon="5.9528">
        <ele>279.5</ele>
        <time>2012-01-26T13:48:52Z</time>
      </trkpt>
      <trkpt lat="47.33267" lon="5.95276">
        <ele>280.1</ele>
        <time>2012-01-26T13:48:55Z</time>
      </trkpt>
      <trkpt lat="47.33263" lon="5.95268">
        <ele>282.4</ele>
        <time>2012-01-26T13:49:01Z</time>
      </trkpt>
      <trkpt lat="47.33257" lon="5.95267">
        <ele>281.3</ele>
        <time>2012-01-26T13:49:05Z</time>
      </trkpt>
      <trkpt lat="47.33252" lon="5.9526">
        <ele>282.5</ele>
        <time>2012-01-26T13:49:11Z</time>
      </trkpt>
      <trkpt lat="47.33246" lon="5.95265">
        <ele>277.3</ele>
        <time>2012-01-26T13:49:22Z</time>
      </trkpt>
      <trkpt lat="47.3324" lon="5.95264">
        <ele>278.9</ele>
        <time>2012-01-26T13:49:27Z</time>
      </trkpt>
      <trkpt lat="47.33233" lon="5.95257">
        <ele>278.9</ele>
        <time>2012-01-26T13:49:33Z</time>
      </trkpt>
      <trkpt lat="47.33233" lon="5.95257">
        <ele>236.9</ele>
        <time>2012-01-26T13:49:45Z</time>
      </trkpt>
      <trkpt lat="47.33233" lon="5.95257">
        <ele>236.9</ele>
        <time>2012-01-26T13:50:29Z</time>
      </trkpt>
      <trkpt lat="47.33223" lon="5.95244">
        <ele>280.2</ele>
        <time>2012-01-26T13:50:37Z</time>
      </trkpt>
      <trkpt lat="47.33216" lon="5.95239">
        <ele>280.8</ele>
        <time>2012-01-26T13:50:42Z</time>
      </trkpt>
      <trkpt lat="47.33211" lon="5.95234">
        <ele>279.4</ele>
        <time>2012-01-26T13:50:47Z</time>
      </trkpt>
      <trkpt lat="47.33204" lon="5.9523">
        <ele>280.3</ele>
        <time>2012-01-26T13:50:53Z</time>
      </trkpt>
      <trkpt lat="47.33197" lon="5.95226">
        <ele>282.4</ele>
        <time>2012-01-26T13:50:58Z</time>
      </trkpt>
      <trkpt lat="47.33192" lon="5.95221">
        <ele>281.3</ele>
        <time>2012-01-26T13:51:03Z</time>
      </trkpt>
      <trkpt lat="47.33185" lon="5.95217">
        <ele>280.4</ele>
        <time>2012-01-26T13:51:07Z</time>
      </trkpt>
      <trkpt lat="47.33178" lon="5.95213">
        <ele>280.1</ele>
        <time>2012-01-26T13:51:12Z</time>
      </trkpt>
      <trkpt lat="47.33172" lon="5.95208">
        <ele>281</ele>
        <time>2012-01-26T13:51:21Z</time>
      </trkpt>
      <trkpt lat="47.33168" lon="5.95201">
        <ele>281.2</ele>
        <time>2012-01-26T13:51:25Z</time>
      </trkpt>
      <trkpt lat="47.33162" lon="5.95196">
        <ele>280.5</ele>
        <time>2012-01-26T13:51:30Z</time>
      </trkpt>
      <trkpt lat="47.33158" lon="5.95189">
        <ele>280.9</ele>
        <time>2012-01-26T13:51:34Z</time>
      </trkpt>
      <trkpt lat="47.33157" lon="5.95177">
        <ele>281.2</ele>
        <time>2012-01-26T13:51:39Z</time>
      </trkpt>
      <trkpt lat="47.33162" lon="5.9517">
        <ele>280.9</ele>
        <time>2012-01-26T13:51:43Z</time>
      </trkpt>
      <trkpt lat="47.33166" lon="5.9516">
        <ele>281.3</ele>
        <time>2012-01-26T13:51:47Z</time>
      </trkpt>
      <trkpt lat="47.33168" lon="5.95151">
        <ele>281.4</ele>
        <time>2012-01-26T13:51:55Z</time>
      </trkpt>
      <trkpt lat="47.33171" lon="5.95143">
        <ele>281.9</ele>
        <time>2012-01-26T13:51:59Z</time>
      </trkpt>
      <trkpt lat="47.33178" lon="5.95137">
        <ele>279.5</ele>
        <time>2012-01-26T13:52:07Z</time>
      </trkpt>
      <trkpt lat="47.33178" lon="5.95128">
        <ele>278</ele>
        <time>2012-01-26T13:52:10Z</time>
      </trkpt>
      <trkpt lat="47.33186" lon="5.95112">
        <ele>277</ele>
        <time>2012-01-26T13:52:11Z</time>
      </trkpt>
      <trkpt lat="47.33189" lon="5.95101">
        <ele>275.7</ele>
        <time>2012-01-26T13:52:15Z</time>
      </trkpt>
      <trkpt lat="47.33191" lon="5.95091">
        <ele>277.1</ele>
        <time>2012-01-26T13:52:19Z</time>
      </trkpt>
      <trkpt lat="47.33196" lon="5.95084">
        <ele>275.1</ele>
        <time>2012-01-26T13:52:24Z</time>
      </trkpt>
      <trkpt lat="47.33199" lon="5.95075">
        <ele>273.5</ele>
        <time>2012-01-26T13:52:30Z</time>
      </trkpt>
      <trkpt lat="47.33202" lon="5.95067">
        <ele>274.9</ele>
        <time>2012-01-26T13:52:34Z</time>
      </trkpt>
      <trkpt lat="47.33206" lon="5.95057">
        <ele>275</ele>
        <time>2012-01-26T13:52:39Z</time>
      </trkpt>
      <trkpt lat="47.3321" lon="5.95048">
        <ele>274.6</ele>
        <time>2012-01-26T13:52:43Z</time>
      </trkpt>
      <trkpt lat="47.33213" lon="5.95038">
        <ele>275.6</ele>
        <time>2012-01-26T13:52:47Z</time>
      </trkpt>
      <trkpt lat="47.33217" lon="5.9503">
        <ele>276.1</ele>
        <time>2012-01-26T13:52:52Z</time>
      </trkpt>
      <trkpt lat="47.33219" lon="5.95019">
        <ele>275.2</ele>
        <time>2012-01-26T13:52:56Z</time>
      </trkpt>
      <trkpt lat="47.33223" lon="5.9501">
        <ele>274.4</ele>
        <time>2012-01-26T13:53:01Z</time>
      </trkpt>
      <trkpt lat="47.33228" lon="5.95003">
        <ele>273.9</ele>
        <time>2012-01-26T13:53:08Z</time>
      </trkpt>
      <trkpt lat="47.33231" lon="5.94994">
        <ele>274.8</ele>
        <time>2012-01-26T13:53:11Z</time>
      </trkpt>
      <trkpt lat="47.33233" lon="5.94982">
        <ele>273.5</ele>
        <time>2012-01-26T13:53:17Z</time>
      </trkpt>
      <trkpt lat="47.33237" lon="5.94974">
        <ele>274.3</ele>
        <time>2012-01-26T13:53:21Z</time>
      </trkpt>
      <trkpt lat="47.3324" lon="5.94965">
        <ele>271.7</ele>
        <time>2012-01-26T13:53:32Z</time>
      </trkpt>
      <trkpt lat="47.33239" lon="5.94955">
        <ele>273.7</ele>
        <time>2012-01-26T13:53:34Z</time>
      </trkpt>
      <trkpt lat="47.3324" lon="5.94946">
        <ele>275.5</ele>
        <time>2012-01-26T13:53:37Z</time>
      </trkpt>
      <trkpt lat="47.33246" lon="5.94935">
        <ele>278.1</ele>
        <time>2012-01-26T13:53:41Z</time>
      </trkpt>
      <trkpt lat="47.33251" lon="5.9493">
        <ele>279</ele>
        <time>2012-01-26T13:53:44Z</time>
      </trkpt>
      <trkpt lat="47.33257" lon="5.9494">
        <ele>277.4</ele>
        <time>2012-01-26T13:53:47Z</time>
      </trkpt>
      <trkpt lat="47.33257" lon="5.9494">
        <ele>226.6</ele>
        <time>2012-01-26T13:53:58Z</time>
      </trkpt>
      <trkpt lat="47.33257" lon="5.9494">
        <ele>226.6</ele>
        <time>2012-01-26T13:54:17Z</time>
      </trkpt>
      <trkpt lat="47.33257" lon="5.9494">
        <ele>226.6</ele>
        <time>2012-01-26T13:54:28Z</time>
      </trkpt>
      <trkpt lat="47.33257" lon="5.9494">
        <ele>226.6</ele>
        <time>2012-01-26T13:55:15Z</time>
      </trkpt>
      <trkpt lat="47.3327" lon="5.94917">
        <ele>272.2</ele>
        <time>2012-01-26T13:55:20Z</time>
      </trkpt>
      <trkpt lat="47.33277" lon="5.94917">
        <ele>272.3</ele>
        <time>2012-01-26T13:55:25Z</time>
      </trkpt>
      <trkpt lat="47.3328" lon="5.94908">
        <ele>271.6</ele>
        <time>2012-01-26T13:55:31Z</time>
      </trkpt>
      <trkpt lat="47.33285" lon="5.949">
        <ele>269.6</ele>
        <time>2012-01-26T13:55:40Z</time>
      </trkpt>
      <trkpt lat="47.33291" lon="5.94893">
        <ele>269.2</ele>
        <time>2012-01-26T13:55:46Z</time>
      </trkpt>
      <trkpt lat="47.33297" lon="5.94887">
        <ele>269</ele>
        <time>2012-01-26T13:55:52Z</time>
      </trkpt>
      <trkpt lat="47.333" lon="5.94876">
        <ele>269.6</ele>
        <time>2012-01-26T13:55:58Z</time>
      </trkpt>
      <trkpt lat="47.33306" lon="5.94872">
        <ele>268.5</ele>
        <time>2012-01-26T13:56:05Z</time>
      </trkpt>
      <trkpt lat="47.33311" lon="5.94867">
        <ele>270.6</ele>
        <time>2012-01-26T13:56:11Z</time>
      </trkpt>
      <trkpt lat="47.33315" lon="5.94859">
        <ele>269.1</ele>
        <time>2012-01-26T13:56:16Z</time>
      </trkpt>
      <trkpt lat="47.3332" lon="5.94852">
        <ele>268.9</ele>
        <time>2012-01-26T13:56:21Z</time>
      </trkpt>
      <trkpt lat="47.33324" lon="5.94844">
        <ele>269.9</ele>
        <time>2012-01-26T13:56:26Z</time>
      </trkpt>
      <trkpt lat="47.3333" lon="5.9484">
        <ele>268.7</ele>
        <time>2012-01-26T13:56:32Z</time>
      </trkpt>
      <trkpt lat="47.33335" lon="5.94832">
        <ele>268.3</ele>
        <time>2012-01-26T13:56:37Z</time>
      </trkpt>
      <trkpt lat="47.33339" lon="5.94823">
        <ele>267.7</ele>
        <time>2012-01-26T13:56:42Z</time>
      </trkpt>
      <trkpt lat="47.33345" lon="5.94815">
        <ele>268.8</ele>
        <time>2012-01-26T13:56:48Z</time>
      </trkpt>
      <trkpt lat="47.33351" lon="5.9481">
        <ele>269.1</ele>
        <time>2012-01-26T13:56:54Z</time>
      </trkpt>
      <trkpt lat="47.33357" lon="5.94805">
        <ele>268.3</ele>
        <time>2012-01-26T13:56:59Z</time>
      </trkpt>
      <trkpt lat="47.33361" lon="5.94795">
        <ele>267.1</ele>
        <time>2012-01-26T13:57:08Z</time>
      </trkpt>
      <trkpt lat="47.33367" lon="5.94793">
        <ele>266.7</ele>
        <time>2012-01-26T13:57:19Z</time>
      </trkpt>
      <trkpt lat="47.33372" lon="5.94786">
        <ele>267.5</ele>
        <time>2012-01-26T13:57:23Z</time>
      </trkpt>
      <trkpt lat="47.33379" lon="5.94786">
        <ele>266.5</ele>
        <time>2012-01-26T13:57:30Z</time>
      </trkpt>
      <trkpt lat="47.33382" lon="5.94776">
        <ele>265.3</ele>
        <time>2012-01-26T13:57:33Z</time>
      </trkpt>
      <trkpt lat="47.33388" lon="5.94764">
        <ele>267.3</ele>
        <time>2012-01-26T13:57:41Z</time>
      </trkpt>
      <trkpt lat="47.33391" lon="5.94755">
        <ele>268.3</ele>
        <time>2012-01-26T13:57:45Z</time>
      </trkpt>
      <trkpt lat="47.33393" lon="5.94746">
        <ele>269.6</ele>
        <time>2012-01-26T13:57:49Z</time>
      </trkpt>
      <trkpt lat="47.33399" lon="5.9474">
        <ele>269.1</ele>
        <time>2012-01-26T13:57:54Z</time>
      </trkpt>
      <trkpt lat="47.33407" lon="5.94737">
        <ele>268.9</ele>
        <time>2012-01-26T13:58:04Z</time>
      </trkpt>
      <trkpt lat="47.33415" lon="5.94729">
        <ele>268.3</ele>
        <time>2012-01-26T13:58:11Z</time>
      </trkpt>
      <trkpt lat="47.33417" lon="5.9472">
        <ele>268.4</ele>
        <time>2012-01-26T13:58:14Z</time>
      </trkpt>
      <trkpt lat="47.33422" lon="5.94713">
        <ele>270</ele>
        <time>2012-01-26T13:58:18Z</time>
      </trkpt>
      <trkpt lat="47.33428" lon="5.94706">
        <ele>270.8</ele>
        <time>2012-01-26T13:58:23Z</time>
      </trkpt>
      <trkpt lat="47.33432" lon="5.94698">
        <ele>270.8</ele>
        <time>2012-01-26T13:58:29Z</time>
      </trkpt>
      <trkpt lat="47.33437" lon="5.9469">
        <ele>271.3</ele>
        <time>2012-01-26T13:58:34Z</time>
      </trkpt>
      <trkpt lat="47.33443" lon="5.94686">
        <ele>271.2</ele>
        <time>2012-01-26T13:58:40Z</time>
      </trkpt>
      <trkpt lat="47.33448" lon="5.94678">
        <ele>270.5</ele>
        <time>2012-01-26T13:58:45Z</time>
      </trkpt>
      <trkpt lat="47.33452" lon="5.94671">
        <ele>269.2</ele>
        <time>2012-01-26T13:58:50Z</time>
      </trkpt>
      <trkpt lat="47.33457" lon="5.94662">
        <ele>268.4</ele>
        <time>2012-01-26T13:58:53Z</time>
      </trkpt>
      <trkpt lat="47.33461" lon="5.94656">
        <ele>270.6</ele>
        <time>2012-01-26T13:58:58Z</time>
      </trkpt>
      <trkpt lat="47.33468" lon="5.94654">
        <ele>271.9</ele>
        <time>2012-01-26T13:59:03Z</time>
      </trkpt>
      <trkpt lat="47.33472" lon="5.94644">
        <ele>272.2</ele>
        <time>2012-01-26T13:59:08Z</time>
      </trkpt>
      <trkpt lat="47.33478" lon="5.94636">
        <ele>272.3</ele>
        <time>2012-01-26T13:59:13Z</time>
      </trkpt>
      <trkpt lat="47.33483" lon="5.94629">
        <ele>272.8</ele>
        <time>2012-01-26T13:59:18Z</time>
      </trkpt>
      <trkpt lat="47.33487" lon="5.94622">
        <ele>273.6</ele>
        <time>2012-01-26T13:59:24Z</time>
      </trkpt>
      <trkpt lat="47.33489" lon="5.94612">
        <ele>274.1</ele>
        <time>2012-01-26T13:59:28Z</time>
      </trkpt>
      <trkpt lat="47.33494" lon="5.94607">
        <ele>273.2</ele>
        <time>2012-01-26T13:59:34Z</time>
      </trkpt>
      <trkpt lat="47.335" lon="5.946">
        <ele>274</ele>
        <time>2012-01-26T13:59:38Z</time>
      </trkpt>
      <trkpt lat="47.33505" lon="5.94592">
        <ele>274.1</ele>
        <time>2012-01-26T13:59:43Z</time>
      </trkpt>
      <trkpt lat="47.33511" lon="5.94588">
        <ele>275.9</ele>
        <time>2012-01-26T13:59:47Z</time>
      </trkpt>
      <trkpt lat="47.33518" lon="5.94586">
        <ele>275.9</ele>
        <time>2012-01-26T13:59:54Z</time>
      </trkpt>
      <trkpt lat="47.33524" lon="5.94584">
        <ele>274</ele>
        <time>2012-01-26T14:00:00Z</time>
      </trkpt>
      <trkpt lat="47.33529" lon="5.94578">
        <ele>275</ele>
        <time>2012-01-26T14:00:04Z</time>
      </trkpt>
      <trkpt lat="47.33535" lon="5.94571">
        <ele>274.4</ele>
        <time>2012-01-26T14:00:10Z</time>
      </trkpt>
      <trkpt lat="47.33541" lon="5.94565">
        <ele>276.5</ele>
        <time>2012-01-26T14:00:15Z</time>
      </trkpt>
      <trkpt lat="47.33541" lon="5.94565">
        <ele>229.7</ele>
        <time>2012-01-26T14:00:26Z</time>
      </trkpt>
      <trkpt lat="47.33541" lon="5.94565">
        <ele>229.7</ele>
        <time>2012-01-26T14:00:48Z</time>
      </trkpt>
      <trkpt lat="47.33549" lon="5.94548">
        <ele>275.5</ele>
        <time>2012-01-26T14:00:55Z</time>
      </trkpt>
      <trkpt lat="47.33557" lon="5.94546">
        <ele>275.1</ele>
        <time>2012-01-26T14:01:01Z</time>
      </trkpt>
      <trkpt lat="47.33562" lon="5.9454">
        <ele>277.7</ele>
        <time>2012-01-26T14:01:07Z</time>
      </trkpt>
      <trkpt lat="47.33568" lon="5.94534">
        <ele>276.8</ele>
        <time>2012-01-26T14:01:13Z</time>
      </trkpt>
      <trkpt lat="47.33573" lon="5.94528">
        <ele>278</ele>
        <time>2012-01-26T14:01:20Z</time>
      </trkpt>
      <trkpt lat="47.33577" lon="5.9452">
        <ele>278.2</ele>
        <time>2012-01-26T14:01:23Z</time>
      </trkpt>
      <trkpt lat="47.33584" lon="5.94519">
        <ele>276.4</ele>
        <time>2012-01-26T14:01:32Z</time>
      </trkpt>
      <trkpt lat="47.33588" lon="5.94512">
        <ele>277.8</ele>
        <time>2012-01-26T14:01:37Z</time>
      </trkpt>
      <trkpt lat="47.33591" lon="5.94502">
        <ele>276.5</ele>
        <time>2012-01-26T14:01:44Z</time>
      </trkpt>
      <trkpt lat="47.33598" lon="5.94501">
        <ele>277.8</ele>
        <time>2012-01-26T14:01:49Z</time>
      </trkpt>
      <trkpt lat="47.33604" lon="5.94497">
        <ele>277.9</ele>
        <time>2012-01-26T14:01:54Z</time>
      </trkpt>
      <trkpt lat="47.33607" lon="5.94487">
        <ele>279.7</ele>
        <time>2012-01-26T14:01:59Z</time>
      </trkpt>
      <trkpt lat="47.33611" lon="5.94479">
        <ele>279.6</ele>
        <time>2012-01-26T14:02:05Z</time>
      </trkpt>
      <trkpt lat="47.33615" lon="5.9447">
        <ele>279.8</ele>
        <time>2012-01-26T14:02:11Z</time>
      </trkpt>
      <trkpt lat="47.33621" lon="5.94464">
        <ele>280.8</ele>
        <time>2012-01-26T14:02:19Z</time>
      </trkpt>
      <trkpt lat="47.33626" lon="5.94458">
        <ele>279.9</ele>
        <time>2012-01-26T14:02:23Z</time>
      </trkpt>
      <trkpt lat="47.33631" lon="5.94452">
        <ele>279.4</ele>
        <time>2012-01-26T14:02:32Z</time>
      </trkpt>
      <trkpt lat="47.33637" lon="5.94447">
        <ele>277.6</ele>
        <time>2012-01-26T14:02:38Z</time>
      </trkpt>
      <trkpt lat="47.33643" lon="5.9444">
        <ele>277.5</ele>
        <time>2012-01-26T14:02:44Z</time>
      </trkpt>
      <trkpt lat="47.33646" lon="5.94431">
        <ele>279.3</ele>
        <time>2012-01-26T14:02:48Z</time>
      </trkpt>
      <trkpt lat="47.33653" lon="5.94427">
        <ele>280.6</ele>
        <time>2012-01-26T14:02:54Z</time>
      </trkpt>
      <trkpt lat="47.33659" lon="5.9442">
        <ele>279.8</ele>
        <time>2012-01-26T14:03:01Z</time>
      </trkpt>
      <trkpt lat="47.33666" lon="5.94418">
        <ele>278.8</ele>
        <time>2012-01-26T14:03:07Z</time>
      </trkpt>
      <trkpt lat="47.3367" lon="5.9441">
        <ele>280</ele>
        <time>2012-01-26T14:03:12Z</time>
      </trkpt>
      <trkpt lat="47.33675" lon="5.94405">
        <ele>279.6</ele>
        <time>2012-01-26T14:03:19Z</time>
      </trkpt>
      <trkpt lat="47.33683" lon="5.94413">
        <ele>277.5</ele>
        <time>2012-01-26T14:03:25Z</time>
      </trkpt>
      <trkpt lat="47.33687" lon="5.94406">
        <ele>278.4</ele>
        <time>2012-01-26T14:03:29Z</time>
      </trkpt>
      <trkpt lat="47.33689" lon="5.94396">
        <ele>278.7</ele>
        <time>2012-01-26T14:03:33Z</time>
      </trkpt>
      <trkpt lat="47.33692" lon="5.94388">
        <ele>279</ele>
        <time>2012-01-26T14:03:39Z</time>
      </trkpt>
      <trkpt lat="47.33699" lon="5.94389">
        <ele>278.8</ele>
        <time>2012-01-26T14:03:45Z</time>
      </trkpt>
      <trkpt lat="47.33703" lon="5.94379">
        <ele>278.8</ele>
        <time>2012-01-26T14:03:51Z</time>
      </trkpt>
      <trkpt lat="47.33708" lon="5.94371">
        <ele>280.6</ele>
        <time>2012-01-26T14:03:55Z</time>
      </trkpt>
      <trkpt lat="47.33714" lon="5.94369">
        <ele>281.9</ele>
        <time>2012-01-26T14:04:01Z</time>
      </trkpt>
      <trkpt lat="47.33721" lon="5.94366">
        <ele>281.1</ele>
        <time>2012-01-26T14:04:08Z</time>
      </trkpt>
      <trkpt lat="47.33723" lon="5.94353">
        <ele>279</ele>
        <time>2012-01-26T14:04:15Z</time>
      </trkpt>
      <trkpt lat="47.33731" lon="5.94355">
        <ele>278.4</ele>
        <time>2012-01-26T14:04:21Z</time>
      </trkpt>
      <trkpt lat="47.33733" lon="5.94346">
        <ele>279.7</ele>
        <time>2012-01-26T14:04:26Z</time>
      </trkpt>
      <trkpt lat="47.33736" lon="5.94338">
        <ele>280</ele>
        <time>2012-01-26T14:04:32Z</time>
      </trkpt>
      <trkpt lat="47.3374" lon="5.94329">
        <ele>280.8</ele>
        <time>2012-01-26T14:04:37Z</time>
      </trkpt>
      <trkpt lat="47.3375" lon="5.94332">
        <ele>281.9</ele>
        <time>2012-01-26T14:04:44Z</time>
      </trkpt>
      <trkpt lat="47.33757" lon="5.94329">
        <ele>281.7</ele>
        <time>2012-01-26T14:04:59Z</time>
      </trkpt>
      <trkpt lat="47.33761" lon="5.9432">
        <ele>282.2</ele>
        <time>2012-01-26T14:05:04Z</time>
      </trkpt>
      <trkpt lat="47.33767" lon="5.94316">
        <ele>278.6</ele>
        <time>2012-01-26T14:05:11Z</time>
      </trkpt>
      <trkpt lat="47.33769" lon="5.94306">
        <ele>280.5</ele>
        <time>2012-01-26T14:05:15Z</time>
      </trkpt>
      <trkpt lat="47.3377" lon="5.94296">
        <ele>280.8</ele>
        <time>2012-01-26T14:05:20Z</time>
      </trkpt>
      <trkpt lat="47.33774" lon="5.94287">
        <ele>281.8</ele>
        <time>2012-01-26T14:05:25Z</time>
      </trkpt>
      <trkpt lat="47.3378" lon="5.94289">
        <ele>284.5</ele>
        <time>2012-01-26T14:05:30Z</time>
      </trkpt>
      <trkpt lat="47.33787" lon="5.94288">
        <ele>284.6</ele>
        <time>2012-01-26T14:05:37Z</time>
      </trkpt>
      <trkpt lat="47.3379" lon="5.9427">
        <ele>285.5</ele>
        <time>2012-01-26T14:05:43Z</time>
      </trkpt>
      <trkpt lat="47.33797" lon="5.94266">
        <ele>287.6</ele>
        <time>2012-01-26T14:05:49Z</time>
      </trkpt>
      <trkpt lat="47.33798" lon="5.94257">
        <ele>287.1</ele>
        <time>2012-01-26T14:05:57Z</time>
      </trkpt>
      <trkpt lat="47.33803" lon="5.9425">
        <ele>288.2</ele>
        <time>2012-01-26T14:06:05Z</time>
      </trkpt>
      <trkpt lat="47.33803" lon="5.9424">
        <ele>285.7</ele>
        <time>2012-01-26T14:06:17Z</time>
      </trkpt>
      <trkpt lat="47.33799" lon="5.94233">
        <ele>285.4</ele>
        <time>2012-01-26T14:06:22Z</time>
      </trkpt>
      <trkpt lat="47.33799" lon="5.94233">
        <ele>240.6</ele>
        <time>2012-01-26T14:06:33Z</time>
      </trkpt>
      <trkpt lat="47.33799" lon="5.94233">
        <ele>240.6</ele>
        <time>2012-01-26T14:10:21Z</time>
      </trkpt>
      <trkpt lat="47.33799" lon="5.94233">
        <ele>240.6</ele>
        <time>2012-01-26T14:10:33Z</time>
      </trkpt>
      <trkpt lat="47.33799" lon="5.94233">
        <ele>240.6</ele>
        <time>2012-01-26T14:12:41Z</time>
      </trkpt>
      <trkpt lat="47.33785" lon="5.94214">
        <ele>287</ele>
        <time>2012-01-26T14:12:49Z</time>
      </trkpt>
      <trkpt lat="47.33779" lon="5.94208">
        <ele>286.5</ele>
        <time>2012-01-26T14:12:54Z</time>
      </trkpt>
      <trkpt lat="47.33777" lon="5.94199">
        <ele>287.7</ele>
        <time>2012-01-26T14:13:01Z</time>
      </trkpt>
      <trkpt lat="47.33772" lon="5.9419">
        <ele>287.2</ele>
        <time>2012-01-26T14:13:08Z</time>
      </trkpt>
      <trkpt lat="47.33767" lon="5.94183">
        <ele>285.2</ele>
        <time>2012-01-26T14:13:16Z</time>
      </trkpt>
      <trkpt lat="47.33763" lon="5.94176">
        <ele>283.4</ele>
        <time>2012-01-26T14:13:25Z</time>
      </trkpt>
      <trkpt lat="47.33757" lon="5.94173">
        <ele>284.9</ele>
        <time>2012-01-26T14:13:32Z</time>
      </trkpt>
      <trkpt lat="47.33752" lon="5.94165">
        <ele>285.5</ele>
        <time>2012-01-26T14:13:38Z</time>
      </trkpt>
      <trkpt lat="47.33748" lon="5.94159">
        <ele>284.7</ele>
        <time>2012-01-26T14:13:45Z</time>
      </trkpt>
      <trkpt lat="47.33744" lon="5.94151">
        <ele>284.9</ele>
        <time>2012-01-26T14:13:50Z</time>
      </trkpt>
      <trkpt lat="47.33739" lon="5.94146">
        <ele>285</ele>
        <time>2012-01-26T14:13:57Z</time>
      </trkpt>
      <trkpt lat="47.33733" lon="5.94138">
        <ele>286.4</ele>
        <time>2012-01-26T14:14:04Z</time>
      </trkpt>
      <trkpt lat="47.3373" lon="5.94129">
        <ele>287.3</ele>
        <time>2012-01-26T14:14:10Z</time>
      </trkpt>
      <trkpt lat="47.33725" lon="5.94121">
        <ele>285.8</ele>
        <time>2012-01-26T14:14:18Z</time>
      </trkpt>
      <trkpt lat="47.3372" lon="5.94115">
        <ele>288.4</ele>
        <time>2012-01-26T14:14:27Z</time>
      </trkpt>
      <trkpt lat="47.33716" lon="5.94107">
        <ele>288.4</ele>
        <time>2012-01-26T14:14:34Z</time>
      </trkpt>
      <trkpt lat="47.33713" lon="5.94099">
        <ele>288.7</ele>
        <time>2012-01-26T14:14:39Z</time>
      </trkpt>
      <trkpt lat="47.33708" lon="5.9409">
        <ele>289.5</ele>
        <time>2012-01-26T14:14:46Z</time>
      </trkpt>
      <trkpt lat="47.33702" lon="5.94082">
        <ele>288.9</ele>
        <time>2012-01-26T14:14:54Z</time>
      </trkpt>
      <trkpt lat="47.33696" lon="5.94075">
        <ele>287</ele>
        <time>2012-01-26T14:15:02Z</time>
      </trkpt>
      <trkpt lat="47.33692" lon="5.94067">
        <ele>287.6</ele>
        <time>2012-01-26T14:15:10Z</time>
      </trkpt>
      <trkpt lat="47.33685" lon="5.94063">
        <ele>287.9</ele>
        <time>2012-01-26T14:15:15Z</time>
      </trkpt>
      <trkpt lat="47.33679" lon="5.94056">
        <ele>288.7</ele>
        <time>2012-01-26T14:15:21Z</time>
      </trkpt>
      <trkpt lat="47.33675" lon="5.94048">
        <ele>290.5</ele>
        <time>2012-01-26T14:15:29Z</time>
      </trkpt>
      <trkpt lat="47.33671" lon="5.94041">
        <ele>290.2</ele>
        <time>2012-01-26T14:15:35Z</time>
      </trkpt>
      <trkpt lat="47.33671" lon="5.94041">
        <ele>243.5</ele>
        <time>2012-01-26T14:15:46Z</time>
      </trkpt>
      <trkpt lat="47.33671" lon="5.94041">
        <ele>243.5</ele>
        <time>2012-01-26T14:15:47Z</time>
      </trkpt>
      <trkpt lat="47.33663" lon="5.94025">
        <ele>290.1</ele>
        <time>2012-01-26T14:15:54Z</time>
      </trkpt>
      <trkpt lat="47.33663" lon="5.94025">
        <ele>242.7</ele>
        <time>2012-01-26T14:16:05Z</time>
      </trkpt>
      <trkpt lat="47.33663" lon="5.94025">
        <ele>242.7</ele>
        <time>2012-01-26T14:16:24Z</time>
      </trkpt>
      <trkpt lat="47.33656" lon="5.94043">
        <ele>284.1</ele>
        <time>2012-01-26T14:16:28Z</time>
      </trkpt>
      <trkpt lat="47.33652" lon="5.94051">
        <ele>288</ele>
        <time>2012-01-26T14:16:34Z</time>
      </trkpt>
      <trkpt lat="47.33646" lon="5.94057">
        <ele>288.2</ele>
        <time>2012-01-26T14:16:40Z</time>
      </trkpt>
      <trkpt lat="47.3364" lon="5.94061">
        <ele>286</ele>
        <time>2012-01-26T14:16:47Z</time>
      </trkpt>
      <trkpt lat="47.33634" lon="5.94067">
        <ele>285.8</ele>
        <time>2012-01-26T14:16:54Z</time>
      </trkpt>
      <trkpt lat="47.33631" lon="5.94075">
        <ele>287.3</ele>
        <time>2012-01-26T14:17:05Z</time>
      </trkpt>
      <trkpt lat="47.33626" lon="5.94081">
        <ele>289.7</ele>
        <time>2012-01-26T14:17:12Z</time>
      </trkpt>
      <trkpt lat="47.3362" lon="5.94088">
        <ele>289.7</ele>
        <time>2012-01-26T14:17:21Z</time>
      </trkpt>
      <trkpt lat="47.33613" lon="5.94092">
        <ele>289.1</ele>
        <time>2012-01-26T14:17:25Z</time>
      </trkpt>
      <trkpt lat="47.33605" lon="5.94091">
        <ele>287.4</ele>
        <time>2012-01-26T14:17:29Z</time>
      </trkpt>
      <trkpt lat="47.33598" lon="5.94092">
        <ele>288.8</ele>
        <time>2012-01-26T14:17:36Z</time>
      </trkpt>
      <trkpt lat="47.3359" lon="5.94094">
        <ele>289.8</ele>
        <time>2012-01-26T14:17:42Z</time>
      </trkpt>
      <trkpt lat="47.33583" lon="5.94091">
        <ele>289.8</ele>
        <time>2012-01-26T14:17:44Z</time>
      </trkpt>
      <trkpt lat="47.33576" lon="5.94089">
        <ele>291.2</ele>
        <time>2012-01-26T14:17:48Z</time>
      </trkpt>
      <trkpt lat="47.3357" lon="5.9409">
        <ele>291.9</ele>
        <time>2012-01-26T14:17:54Z</time>
      </trkpt>
      <trkpt lat="47.33563" lon="5.94086">
        <ele>290.3</ele>
        <time>2012-01-26T14:18:03Z</time>
      </trkpt>
      <trkpt lat="47.33558" lon="5.94081">
        <ele>292.1</ele>
        <time>2012-01-26T14:18:10Z</time>
      </trkpt>
      <trkpt lat="47.33554" lon="5.94073">
        <ele>290.7</ele>
        <time>2012-01-26T14:18:18Z</time>
      </trkpt>
      <trkpt lat="47.33554" lon="5.94073">
        <ele>244.6</ele>
        <time>2012-01-26T14:18:29Z</time>
      </trkpt>
      <trkpt lat="47.33554" lon="5.94073">
        <ele>244.6</ele>
        <time>2012-01-26T14:18:30Z</time>
      </trkpt>
      <trkpt lat="47.33541" lon="5.94063">
        <ele>291.8</ele>
        <time>2012-01-26T14:18:36Z</time>
      </trkpt>
      <trkpt lat="47.33535" lon="5.94059">
        <ele>291.7</ele>
        <time>2012-01-26T14:18:42Z</time>
      </trkpt>
      <trkpt lat="47.33529" lon="5.94053">
        <ele>294.2</ele>
        <time>2012-01-26T14:18:46Z</time>
      </trkpt>
      <trkpt lat="47.33522" lon="5.9405">
        <ele>294.4</ele>
        <time>2012-01-26T14:18:52Z</time>
      </trkpt>
      <trkpt lat="47.33516" lon="5.94047">
        <ele>292.8</ele>
        <time>2012-01-26T14:18:58Z</time>
      </trkpt>
      <trkpt lat="47.33509" lon="5.94044">
        <ele>293.6</ele>
        <time>2012-01-26T14:19:02Z</time>
      </trkpt>
      <trkpt lat="47.33501" lon="5.94044">
        <ele>297.2</ele>
        <time>2012-01-26T14:19:07Z</time>
      </trkpt>
      <trkpt lat="47.33498" lon="5.94037">
        <ele>298.3</ele>
        <time>2012-01-26T14:19:15Z</time>
      </trkpt>
      <trkpt lat="47.3349" lon="5.94032">
        <ele>298.5</ele>
        <time>2012-01-26T14:19:16Z</time>
      </trkpt>
      <trkpt lat="47.33485" lon="5.94027">
        <ele>299.6</ele>
        <time>2012-01-26T14:19:22Z</time>
      </trkpt>
      <trkpt lat="47.33478" lon="5.94019">
        <ele>300.8</ele>
        <time>2012-01-26T14:19:29Z</time>
      </trkpt>
      <trkpt lat="47.33471" lon="5.94019">
        <ele>300.9</ele>
        <time>2012-01-26T14:19:39Z</time>
      </trkpt>
      <trkpt lat="47.33466" lon="5.94024">
        <ele>302</ele>
        <time>2012-01-26T14:19:43Z</time>
      </trkpt>
      <trkpt lat="47.33459" lon="5.94026">
        <ele>303.8</ele>
        <time>2012-01-26T14:19:45Z</time>
      </trkpt>
      <trkpt lat="47.33452" lon="5.94026">
        <ele>305.9</ele>
        <time>2012-01-26T14:19:49Z</time>
      </trkpt>
      <trkpt lat="47.33444" lon="5.94031">
        <ele>306.5</ele>
        <time>2012-01-26T14:19:51Z</time>
      </trkpt>
      <trkpt lat="47.33437" lon="5.94036">
        <ele>309.4</ele>
        <time>2012-01-26T14:19:55Z</time>
      </trkpt>
      <trkpt lat="47.33434" lon="5.94027">
        <ele>306.7</ele>
        <time>2012-01-26T14:19:57Z</time>
      </trkpt>
      <trkpt lat="47.33432" lon="5.94016">
        <ele>308</ele>
        <time>2012-01-26T14:20:02Z</time>
      </trkpt>
      <trkpt lat="47.33431" lon="5.94004">
        <ele>307.7</ele>
        <time>2012-01-26T14:20:09Z</time>
      </trkpt>
      <trkpt lat="47.33426" lon="5.93999">
        <ele>306.5</ele>
        <time>2012-01-26T14:20:16Z</time>
      </trkpt>
      <trkpt lat="47.33419" lon="5.93999">
        <ele>300.6</ele>
        <time>2012-01-26T14:20:24Z</time>
      </trkpt>
      <trkpt lat="47.33414" lon="5.93994">
        <ele>295.8</ele>
        <time>2012-01-26T14:20:34Z</time>
      </trkpt>
      <trkpt lat="47.33408" lon="5.93991">
        <ele>294.2</ele>
        <time>2012-01-26T14:20:42Z</time>
      </trkpt>
      <trkpt lat="47.33401" lon="5.93994">
        <ele>291.4</ele>
        <time>2012-01-26T14:20:57Z</time>
      </trkpt>
      <trkpt lat="47.33394" lon="5.93996">
        <ele>289.7</ele>
        <time>2012-01-26T14:21:07Z</time>
      </trkpt>
      <trkpt lat="47.33388" lon="5.93992">
        <ele>288</ele>
        <time>2012-01-26T14:21:14Z</time>
      </trkpt>
      <trkpt lat="47.33381" lon="5.9399">
        <ele>287.8</ele>
        <time>2012-01-26T14:21:21Z</time>
      </trkpt>
      <trkpt lat="47.33375" lon="5.93985">
        <ele>287.3</ele>
        <time>2012-01-26T14:21:27Z</time>
      </trkpt>
      <trkpt lat="47.3337" lon="5.93977">
        <ele>286.8</ele>
        <time>2012-01-26T14:21:36Z</time>
      </trkpt>
      <trkpt lat="47.33363" lon="5.93976">
        <ele>285</ele>
        <time>2012-01-26T14:21:42Z</time>
      </trkpt>
      <trkpt lat="47.33357" lon="5.93973">
        <ele>285.4</ele>
        <time>2012-01-26T14:21:47Z</time>
      </trkpt>
      <trkpt lat="47.33352" lon="5.93967">
        <ele>284.9</ele>
        <time>2012-01-26T14:21:54Z</time>
      </trkpt>
      <trkpt lat="47.33346" lon="5.9396">
        <ele>282.8</ele>
        <time>2012-01-26T14:22:00Z</time>
      </trkpt>
      <trkpt lat="47.33341" lon="5.93954">
        <ele>282.5</ele>
        <time>2012-01-26T14:22:06Z</time>
      </trkpt>
      <trkpt lat="47.33336" lon="5.93945">
        <ele>283.9</ele>
        <time>2012-01-26T14:22:11Z</time>
      </trkpt>
      <trkpt lat="47.3333" lon="5.93941">
        <ele>284.3</ele>
        <time>2012-01-26T14:22:17Z</time>
      </trkpt>
      <trkpt lat="47.33323" lon="5.9394">
        <ele>285.3</ele>
        <time>2012-01-26T14:22:21Z</time>
      </trkpt>
      <trkpt lat="47.33317" lon="5.93934">
        <ele>285.8</ele>
        <time>2012-01-26T14:22:29Z</time>
      </trkpt>
      <trkpt lat="47.33313" lon="5.93927">
        <ele>285.1</ele>
        <time>2012-01-26T14:22:38Z</time>
      </trkpt>
      <trkpt lat="47.33307" lon="5.93922">
        <ele>285.7</ele>
        <time>2012-01-26T14:22:44Z</time>
      </trkpt>
      <trkpt lat="47.333" lon="5.93918">
        <ele>285.9</ele>
        <time>2012-01-26T14:22:50Z</time>
      </trkpt>
      <trkpt lat="47.33294" lon="5.93914">
        <ele>284.1</ele>
        <time>2012-01-26T14:22:58Z</time>
      </trkpt>
      <trkpt lat="47.33289" lon="5.93905">
        <ele>283.6</ele>
        <time>2012-01-26T14:23:03Z</time>
      </trkpt>
      <trkpt lat="47.33282" lon="5.93902">
        <ele>283.7</ele>
        <time>2012-01-26T14:23:10Z</time>
      </trkpt>
      <trkpt lat="47.33275" lon="5.93899">
        <ele>284.7</ele>
        <time>2012-01-26T14:23:14Z</time>
      </trkpt>
      <trkpt lat="47.3327" lon="5.93892">
        <ele>284.1</ele>
        <time>2012-01-26T14:23:22Z</time>
      </trkpt>
      <trkpt lat="47.33264" lon="5.93887">
        <ele>285.1</ele>
        <time>2012-01-26T14:23:28Z</time>
      </trkpt>
      <trkpt lat="47.33257" lon="5.93883">
        <ele>286.1</ele>
        <time>2012-01-26T14:23:33Z</time>
      </trkpt>
      <trkpt lat="47.33251" lon="5.93881">
        <ele>285.4</ele>
        <time>2012-01-26T14:23:39Z</time>
      </trkpt>
      <trkpt lat="47.33245" lon="5.93878">
        <ele>286.8</ele>
        <time>2012-01-26T14:23:47Z</time>
      </trkpt>
      <trkpt lat="47.3324" lon="5.93871">
        <ele>285.1</ele>
        <time>2012-01-26T14:23:54Z</time>
      </trkpt>
      <trkpt lat="47.33233" lon="5.93869">
        <ele>282.4</ele>
        <time>2012-01-26T14:24:01Z</time>
      </trkpt>
      <trkpt lat="47.33228" lon="5.93862">
        <ele>282.5</ele>
        <time>2012-01-26T14:24:06Z</time>
      </trkpt>
      <trkpt lat="47.33222" lon="5.9386">
        <ele>281.7</ele>
        <time>2012-01-26T14:24:12Z</time>
      </trkpt>
      <trkpt lat="47.33215" lon="5.93857">
        <ele>281.1</ele>
        <time>2012-01-26T14:24:20Z</time>
      </trkpt>
      <trkpt lat="47.33204" lon="5.93845">
        <ele>280.7</ele>
        <time>2012-01-26T14:24:24Z</time>
      </trkpt>
      <trkpt lat="47.33198" lon="5.93842">
        <ele>279.3</ele>
        <time>2012-01-26T14:24:29Z</time>
      </trkpt>
      <trkpt lat="47.33193" lon="5.93836">
        <ele>278.8</ele>
        <time>2012-01-26T14:24:37Z</time>
      </trkpt>
      <trkpt lat="47.33186" lon="5.93833">
        <ele>276.4</ele>
        <time>2012-01-26T14:24:42Z</time>
      </trkpt>
      <trkpt lat="47.33179" lon="5.93834">
        <ele>277.6</ele>
        <time>2012-01-26T14:24:47Z</time>
      </trkpt>
      <trkpt lat="47.33172" lon="5.93832">
        <ele>277.9</ele>
        <time>2012-01-26T14:24:53Z</time>
      </trkpt>
      <trkpt lat="47.33166" lon="5.93831">
        <ele>278.4</ele>
        <time>2012-01-26T14:24:57Z</time>
      </trkpt>
      <trkpt lat="47.33166" lon="5.93831">
        <ele>229.9</ele>
        <time>2012-01-26T14:25:09Z</time>
      </trkpt>
      <trkpt lat="47.33166" lon="5.93831">
        <ele>229.9</ele>
        <time>2012-01-26T14:25:10Z</time>
      </trkpt>
      <trkpt lat="47.33153" lon="5.93833">
        <ele>277.1</ele>
        <time>2012-01-26T14:25:16Z</time>
      </trkpt>
      <trkpt lat="47.33146" lon="5.93834">
        <ele>277.8</ele>
        <time>2012-01-26T14:25:22Z</time>
      </trkpt>
      <trkpt lat="47.33139" lon="5.93836">
        <ele>278.2</ele>
        <time>2012-01-26T14:25:28Z</time>
      </trkpt>
      <trkpt lat="47.33132" lon="5.93837">
        <ele>277.2</ele>
        <time>2012-01-26T14:25:35Z</time>
      </trkpt>
      <trkpt lat="47.33125" lon="5.93836">
        <ele>276.7</ele>
        <time>2012-01-26T14:25:40Z</time>
      </trkpt>
      <trkpt lat="47.33119" lon="5.93839">
        <ele>277.5</ele>
        <time>2012-01-26T14:25:49Z</time>
      </trkpt>
      <trkpt lat="47.33111" lon="5.9384">
        <ele>276.1</ele>
        <time>2012-01-26T14:25:55Z</time>
      </trkpt>
      <trkpt lat="47.33105" lon="5.93843">
        <ele>275.1</ele>
        <time>2012-01-26T14:26:01Z</time>
      </trkpt>
      <trkpt lat="47.33098" lon="5.93845">
        <ele>274.1</ele>
        <time>2012-01-26T14:26:08Z</time>
      </trkpt>
      <trkpt lat="47.3309" lon="5.93846">
        <ele>273.7</ele>
        <time>2012-01-26T14:26:16Z</time>
      </trkpt>
      <trkpt lat="47.33083" lon="5.93847">
        <ele>273.7</ele>
        <time>2012-01-26T14:26:23Z</time>
      </trkpt>
      <trkpt lat="47.33077" lon="5.93847">
        <ele>272</ele>
        <time>2012-01-26T14:26:29Z</time>
      </trkpt>
      <trkpt lat="47.33069" lon="5.93848">
        <ele>270.7</ele>
        <time>2012-01-26T14:26:35Z</time>
      </trkpt>
      <trkpt lat="47.33064" lon="5.93842">
        <ele>271.2</ele>
        <time>2012-01-26T14:26:42Z</time>
      </trkpt>
      <trkpt lat="47.33058" lon="5.93837">
        <ele>271.9</ele>
        <time>2012-01-26T14:26:50Z</time>
      </trkpt>
      <trkpt lat="47.33052" lon="5.93831">
        <ele>271.4</ele>
        <time>2012-01-26T14:26:55Z</time>
      </trkpt>
      <trkpt lat="47.33046" lon="5.93827">
        <ele>271.3</ele>
        <time>2012-01-26T14:27:02Z</time>
      </trkpt>
      <trkpt lat="47.33041" lon="5.93822">
        <ele>270.5</ele>
        <time>2012-01-26T14:27:08Z</time>
      </trkpt>
      <trkpt lat="47.33032" lon="5.93819">
        <ele>271.4</ele>
        <time>2012-01-26T14:27:16Z</time>
      </trkpt>
      <trkpt lat="47.33026" lon="5.93816">
        <ele>274.2</ele>
        <time>2012-01-26T14:27:24Z</time>
      </trkpt>
      <trkpt lat="47.3302" lon="5.93815">
        <ele>276.8</ele>
        <time>2012-01-26T14:27:29Z</time>
      </trkpt>
      <trkpt lat="47.33013" lon="5.93816">
        <ele>278.4</ele>
        <time>2012-01-26T14:27:34Z</time>
      </trkpt>
      <trkpt lat="47.33005" lon="5.93817">
        <ele>280.7</ele>
        <time>2012-01-26T14:27:40Z</time>
      </trkpt>
      <trkpt lat="47.32999" lon="5.93815">
        <ele>279.2</ele>
        <time>2012-01-26T14:27:46Z</time>
      </trkpt>
      <trkpt lat="47.32992" lon="5.93815">
        <ele>279.8</ele>
        <time>2012-01-26T14:27:53Z</time>
      </trkpt>
      <trkpt lat="47.32986" lon="5.9381">
        <ele>279.9</ele>
        <time>2012-01-26T14:28:00Z</time>
      </trkpt>
      <trkpt lat="47.32979" lon="5.93812">
        <ele>279.7</ele>
        <time>2012-01-26T14:28:05Z</time>
      </trkpt>
      <trkpt lat="47.32973" lon="5.9381">
        <ele>279.1</ele>
        <time>2012-01-26T14:28:12Z</time>
      </trkpt>
      <trkpt lat="47.32966" lon="5.93811">
        <ele>278.4</ele>
        <time>2012-01-26T14:28:20Z</time>
      </trkpt>
      <trkpt lat="47.3296" lon="5.93815">
        <ele>280.8</ele>
        <time>2012-01-26T14:28:28Z</time>
      </trkpt>
      <trkpt lat="47.32954" lon="5.93819">
        <ele>283.1</ele>
        <time>2012-01-26T14:28:32Z</time>
      </trkpt>
      <trkpt lat="47.32954" lon="5.93819">
        <ele>233.6</ele>
        <time>2012-01-26T14:28:44Z</time>
      </trkpt>
      <trkpt lat="47.32954" lon="5.93819">
        <ele>233.6</ele>
        <time>2012-01-26T14:28:51Z</time>
      </trkpt>
      <trkpt lat="47.32942" lon="5.93828">
        <ele>287.9</ele>
        <time>2012-01-26T14:28:55Z</time>
      </trkpt>
      <trkpt lat="47.32935" lon="5.93828">
        <ele>288.8</ele>
        <time>2012-01-26T14:29:03Z</time>
      </trkpt>
      <trkpt lat="47.32928" lon="5.93827">
        <ele>289</ele>
        <time>2012-01-26T14:29:08Z</time>
      </trkpt>
      <trkpt lat="47.32922" lon="5.93831">
        <ele>285.4</ele>
        <time>2012-01-26T14:29:19Z</time>
      </trkpt>
      <trkpt lat="47.32916" lon="5.93834">
        <ele>282.3</ele>
        <time>2012-01-26T14:29:31Z</time>
      </trkpt>
      <trkpt lat="47.32909" lon="5.93838">
        <ele>282.8</ele>
        <time>2012-01-26T14:29:36Z</time>
      </trkpt>
      <trkpt lat="47.32904" lon="5.93843">
        <ele>283.2</ele>
        <time>2012-01-26T14:29:42Z</time>
      </trkpt>
      <trkpt lat="47.32897" lon="5.93846">
        <ele>282.6</ele>
        <time>2012-01-26T14:29:47Z</time>
      </trkpt>
      <trkpt lat="47.32891" lon="5.93844">
        <ele>288.1</ele>
        <time>2012-01-26T14:29:52Z</time>
      </trkpt>
      <trkpt lat="47.32884" lon="5.93848">
        <ele>288.2</ele>
        <time>2012-01-26T14:29:57Z</time>
      </trkpt>
      <trkpt lat="47.32877" lon="5.93853">
        <ele>286.9</ele>
        <time>2012-01-26T14:30:04Z</time>
      </trkpt>
      <trkpt lat="47.3287" lon="5.93858">
        <ele>286.6</ele>
        <time>2012-01-26T14:30:09Z</time>
      </trkpt>
      <trkpt lat="47.3275" lon="5.93932">
        <ele>282.6</ele>
        <time>2012-01-26T14:32:15Z</time>
      </trkpt>
      <trkpt lat="47.32743" lon="5.93934">
        <ele>281</ele>
        <time>2012-01-26T14:32:23Z</time>
      </trkpt>
      <trkpt lat="47.32737" lon="5.93938">
        <ele>281.9</ele>
        <time>2012-01-26T14:32:29Z</time>
      </trkpt>
      <trkpt lat="47.32737" lon="5.93938">
        <ele>228.2</ele>
        <time>2012-01-26T14:32:40Z</time>
      </trkpt>
      <trkpt lat="47.32737" lon="5.93938">
        <ele>228.2</ele>
        <time>2012-01-26T14:32:50Z</time>
      </trkpt>
      <trkpt lat="47.32722" lon="5.93947">
        <ele>279.1</ele>
        <time>2012-01-26T14:32:55Z</time>
      </trkpt>
      <trkpt lat="47.32715" lon="5.9395">
        <ele>278.1</ele>
        <time>2012-01-26T14:33:00Z</time>
      </trkpt>
      <trkpt lat="47.32709" lon="5.93955">
        <ele>277.6</ele>
        <time>2012-01-26T14:33:06Z</time>
      </trkpt>
      <trkpt lat="47.32703" lon="5.93959">
        <ele>278.7</ele>
        <time>2012-01-26T14:33:11Z</time>
      </trkpt>
      <trkpt lat="47.32696" lon="5.93963">
        <ele>279.8</ele>
        <time>2012-01-26T14:33:18Z</time>
      </trkpt>
      <trkpt lat="47.32689" lon="5.93967">
        <ele>282</ele>
        <time>2012-01-26T14:33:24Z</time>
      </trkpt>
      <trkpt lat="47.32682" lon="5.93969">
        <ele>281.2</ele>
        <time>2012-01-26T14:33:32Z</time>
      </trkpt>
      <trkpt lat="47.32676" lon="5.93972">
        <ele>281.1</ele>
        <time>2012-01-26T14:33:38Z</time>
      </trkpt>
      <trkpt lat="47.3267" lon="5.93976">
        <ele>282.4</ele>
        <time>2012-01-26T14:33:44Z</time>
      </trkpt>
      <trkpt lat="47.32664" lon="5.93978">
        <ele>282.3</ele>
        <time>2012-01-26T14:33:51Z</time>
      </trkpt>
      <trkpt lat="47.32657" lon="5.9398">
        <ele>282.2</ele>
        <time>2012-01-26T14:33:57Z</time>
      </trkpt>
      <trkpt lat="47.3265" lon="5.93982">
        <ele>282.9</ele>
        <time>2012-01-26T14:34:04Z</time>
      </trkpt>
      <trkpt lat="47.32643" lon="5.93982">
        <ele>282.8</ele>
        <time>2012-01-26T14:34:10Z</time>
      </trkpt>
      <trkpt lat="47.32636" lon="5.93981">
        <ele>283.6</ele>
        <time>2012-01-26T14:34:17Z</time>
      </trkpt>
      <trkpt lat="47.3263" lon="5.93984">
        <ele>284.1</ele>
        <time>2012-01-26T14:34:22Z</time>
      </trkpt>
      <trkpt lat="47.32623" lon="5.93985">
        <ele>285.3</ele>
        <time>2012-01-26T14:34:29Z</time>
      </trkpt>
      <trkpt lat="47.32617" lon="5.93982">
        <ele>288.4</ele>
        <time>2012-01-26T14:34:37Z</time>
      </trkpt>
      <trkpt lat="47.32611" lon="5.93982">
        <ele>286.5</ele>
        <time>2012-01-26T14:34:43Z</time>
      </trkpt>
      <trkpt lat="47.32604" lon="5.93979">
        <ele>285</ele>
        <time>2012-01-26T14:34:51Z</time>
      </trkpt>
      <trkpt lat="47.32597" lon="5.93979">
        <ele>283.4</ele>
        <time>2012-01-26T14:34:57Z</time>
      </trkpt>
      <trkpt lat="47.3259" lon="5.9398">
        <ele>283.2</ele>
        <time>2012-01-26T14:35:05Z</time>
      </trkpt>
      <trkpt lat="47.32583" lon="5.93982">
        <ele>284.9</ele>
        <time>2012-01-26T14:35:12Z</time>
      </trkpt>
      <trkpt lat="47.32576" lon="5.93981">
        <ele>284.1</ele>
        <time>2012-01-26T14:35:19Z</time>
      </trkpt>
      <trkpt lat="47.3257" lon="5.93982">
        <ele>284.8</ele>
        <time>2012-01-26T14:35:24Z</time>
      </trkpt>
      <trkpt lat="47.32563" lon="5.93981">
        <ele>282.9</ele>
        <time>2012-01-26T14:35:32Z</time>
      </trkpt>
      <trkpt lat="47.32555" lon="5.93979">
        <ele>284</ele>
        <time>2012-01-26T14:35:39Z</time>
      </trkpt>
      <trkpt lat="47.32548" lon="5.9398">
        <ele>283</ele>
        <time>2012-01-26T14:35:46Z</time>
      </trkpt>
      <trkpt lat="47.32541" lon="5.93983">
        <ele>283.5</ele>
        <time>2012-01-26T14:35:51Z</time>
      </trkpt>
      <trkpt lat="47.32534" lon="5.93988">
        <ele>282.9</ele>
        <time>2012-01-26T14:36:01Z</time>
      </trkpt>
      <trkpt lat="47.32526" lon="5.93986">
        <ele>282.7</ele>
        <time>2012-01-26T14:36:07Z</time>
      </trkpt>
      <trkpt lat="47.32519" lon="5.93987">
        <ele>280.2</ele>
        <time>2012-01-26T14:36:15Z</time>
      </trkpt>
      <trkpt lat="47.32512" lon="5.93988">
        <ele>280.1</ele>
        <time>2012-01-26T14:36:23Z</time>
      </trkpt>
      <trkpt lat="47.32506" lon="5.93991">
        <ele>279.4</ele>
        <time>2012-01-26T14:36:27Z</time>
      </trkpt>
      <trkpt lat="47.32498" lon="5.9399">
        <ele>279.2</ele>
        <time>2012-01-26T14:36:33Z</time>
      </trkpt>
      <trkpt lat="47.32491" lon="5.93992">
        <ele>279.6</ele>
        <time>2012-01-26T14:36:40Z</time>
      </trkpt>
      <trkpt lat="47.32485" lon="5.93988">
        <ele>277.2</ele>
        <time>2012-01-26T14:36:46Z</time>
      </trkpt>
      <trkpt lat="47.32477" lon="5.93989">
        <ele>276.8</ele>
        <time>2012-01-26T14:36:54Z</time>
      </trkpt>
      <trkpt lat="47.32471" lon="5.93988">
        <ele>275.6</ele>
        <time>2012-01-26T14:37:01Z</time>
      </trkpt>
      <trkpt lat="47.32465" lon="5.93985">
        <ele>276.9</ele>
        <time>2012-01-26T14:37:06Z</time>
      </trkpt>
      <trkpt lat="47.3246" lon="5.93992">
        <ele>275.9</ele>
        <time>2012-01-26T14:37:12Z</time>
      </trkpt>
      <trkpt lat="47.32455" lon="5.94001">
        <ele>278.6</ele>
        <time>2012-01-26T14:37:20Z</time>
      </trkpt>
      <trkpt lat="47.32454" lon="5.9401">
        <ele>281.4</ele>
        <time>2012-01-26T14:37:26Z</time>
      </trkpt>
      <trkpt lat="47.32453" lon="5.9402">
        <ele>282.1</ele>
        <time>2012-01-26T14:37:33Z</time>
      </trkpt>
      <trkpt lat="47.32452" lon="5.94031">
        <ele>282</ele>
        <time>2012-01-26T14:37:41Z</time>
      </trkpt>
      <trkpt lat="47.32449" lon="5.9404">
        <ele>282.3</ele>
        <time>2012-01-26T14:37:50Z</time>
      </trkpt>
      <trkpt lat="47.32452" lon="5.9405">
        <ele>283.2</ele>
        <time>2012-01-26T14:37:56Z</time>
      </trkpt>
      <trkpt lat="47.32452" lon="5.9405">
        <ele>233.7</ele>
        <time>2012-01-26T14:38:08Z</time>
      </trkpt>
      <trkpt lat="47.32452" lon="5.9405">
        <ele>233.7</ele>
        <time>2012-01-26T14:38:12Z</time>
      </trkpt>
      <trkpt lat="47.32437" lon="5.9405">
        <ele>282.8</ele>
        <time>2012-01-26T14:38:15Z</time>
      </trkpt>
      <trkpt lat="47.32431" lon="5.94048">
        <ele>280.8</ele>
        <time>2012-01-26T14:38:21Z</time>
      </trkpt>
      <trkpt lat="47.3243" lon="5.94058">
        <ele>281.2</ele>
        <time>2012-01-26T14:38:27Z</time>
      </trkpt>
      <trkpt lat="47.3243" lon="5.94058">
        <ele>234.5</ele>
        <time>2012-01-26T14:38:39Z</time>
      </trkpt>
      <trkpt lat="47.3243" lon="5.94058">
        <ele>234.5</ele>
        <time>2012-01-26T14:38:39Z</time>
      </trkpt>
      <trkpt lat="47.32421" lon="5.94076">
        <ele>282.9</ele>
        <time>2012-01-26T14:38:46Z</time>
      </trkpt>
      <trkpt lat="47.32426" lon="5.94068">
        <ele>281.9</ele>
        <time>2012-01-26T14:38:55Z</time>
      </trkpt>
      <trkpt lat="47.32432" lon="5.94062">
        <ele>278.6</ele>
        <time>2012-01-26T14:38:58Z</time>
      </trkpt>
      <trkpt lat="47.32432" lon="5.94052">
        <ele>276.4</ele>
        <time>2012-01-26T14:39:02Z</time>
      </trkpt>
      <trkpt lat="47.32433" lon="5.94042">
        <ele>277.2</ele>
        <time>2012-01-26T14:39:13Z</time>
      </trkpt>
      <trkpt lat="47.32433" lon="5.94042">
        <ele>234.2</ele>
        <time>2012-01-26T14:39:25Z</time>
      </trkpt>
      <trkpt lat="47.32433" lon="5.94042">
        <ele>234.2</ele>
        <time>2012-01-26T14:39:57Z</time>
      </trkpt>
      <trkpt lat="47.32416" lon="5.94049">
        <ele>275.4</ele>
        <time>2012-01-26T14:39:59Z</time>
      </trkpt>
      <trkpt lat="47.32411" lon="5.9406">
        <ele>274.6</ele>
        <time>2012-01-26T14:40:02Z</time>
      </trkpt>
      <trkpt lat="47.32407" lon="5.94068">
        <ele>274.5</ele>
        <time>2012-01-26T14:40:06Z</time>
      </trkpt>
      <trkpt lat="47.32401" lon="5.94071">
        <ele>276.6</ele>
        <time>2012-01-26T14:40:12Z</time>
      </trkpt>
      <trkpt lat="47.32398" lon="5.94081">
        <ele>277.6</ele>
        <time>2012-01-26T14:40:17Z</time>
      </trkpt>
      <trkpt lat="47.32398" lon="5.94081">
        <ele>236.3</ele>
        <time>2012-01-26T14:40:29Z</time>
      </trkpt>
      <trkpt lat="47.32398" lon="5.94081">
        <ele>236.3</ele>
        <time>2012-01-26T14:40:39Z</time>
      </trkpt>
      <trkpt lat="47.32398" lon="5.94081">
        <ele>236.3</ele>
        <time>2012-01-26T14:40:51Z</time>
      </trkpt>
      <trkpt lat="47.32398" lon="5.94081">
        <ele>236.3</ele>
        <time>2012-01-26T14:41:15Z</time>
      </trkpt>
      <trkpt lat="47.32383" lon="5.94066">
        <ele>276.6</ele>
        <time>2012-01-26T14:41:18Z</time>
      </trkpt>
      <trkpt lat="47.32378" lon="5.94057">
        <ele>279</ele>
        <time>2012-01-26T14:41:21Z</time>
      </trkpt>
      <trkpt lat="47.32371" lon="5.94048">
        <ele>277.6</ele>
        <time>2012-01-26T14:41:24Z</time>
      </trkpt>
      <trkpt lat="47.32366" lon="5.94042">
        <ele>276.6</ele>
        <time>2012-01-26T14:41:28Z</time>
      </trkpt>
      <trkpt lat="47.3236" lon="5.94036">
        <ele>276.7</ele>
        <time>2012-01-26T14:41:31Z</time>
      </trkpt>
      <trkpt lat="47.32356" lon="5.94029">
        <ele>275.9</ele>
        <time>2012-01-26T14:41:33Z</time>
      </trkpt>
      <trkpt lat="47.3235" lon="5.94023">
        <ele>279.2</ele>
        <time>2012-01-26T14:41:40Z</time>
      </trkpt>
      <trkpt lat="47.32345" lon="5.94015">
        <ele>281.4</ele>
        <time>2012-01-26T14:41:46Z</time>
      </trkpt>
      <trkpt lat="47.32339" lon="5.94009">
        <ele>283.3</ele>
        <time>2012-01-26T14:41:51Z</time>
      </trkpt>
      <trkpt lat="47.32335" lon="5.94002">
        <ele>283.9</ele>
        <time>2012-01-26T14:41:55Z</time>
      </trkpt>
      <trkpt lat="47.32333" lon="5.93993">
        <ele>286.4</ele>
        <time>2012-01-26T14:42:02Z</time>
      </trkpt>
      <trkpt lat="47.32334" lon="5.93983">
        <ele>284.6</ele>
        <time>2012-01-26T14:42:13Z</time>
      </trkpt>
      <trkpt lat="47.32334" lon="5.93983">
        <ele>236.3</ele>
        <time>2012-01-26T14:42:25Z</time>
      </trkpt>
      <trkpt lat="47.32334" lon="5.93983">
        <ele>236.3</ele>
        <time>2012-01-26T14:42:28Z</time>
      </trkpt>
      <trkpt lat="47.32334" lon="5.93959">
        <ele>283.2</ele>
        <time>2012-01-26T14:42:32Z</time>
      </trkpt>
      <trkpt lat="47.32336" lon="5.93949">
        <ele>278.9</ele>
        <time>2012-01-26T14:42:37Z</time>
      </trkpt>
      <trkpt lat="47.32338" lon="5.93939">
        <ele>277.2</ele>
        <time>2012-01-26T14:42:40Z</time>
      </trkpt>
      <trkpt lat="47.32335" lon="5.93929">
        <ele>276.1</ele>
        <time>2012-01-26T14:42:45Z</time>
      </trkpt>
      <trkpt lat="47.32331" lon="5.93921">
        <ele>277.8</ele>
        <time>2012-01-26T14:42:48Z</time>
      </trkpt>
      <trkpt lat="47.32331" lon="5.93921">
        <ele>235.2</ele>
        <time>2012-01-26T14:43:00Z</time>
      </trkpt>
      <trkpt lat="47.32331" lon="5.93921">
        <ele>235.2</ele>
        <time>2012-01-26T14:43:21Z</time>
      </trkpt>
      <trkpt lat="47.32323" lon="5.93905">
        <ele>282.9</ele>
        <time>2012-01-26T14:43:26Z</time>
      </trkpt>
      <trkpt lat="47.32319" lon="5.93898">
        <ele>283.4</ele>
        <time>2012-01-26T14:43:29Z</time>
      </trkpt>
      <trkpt lat="47.32317" lon="5.93889">
        <ele>283.5</ele>
        <time>2012-01-26T14:43:34Z</time>
      </trkpt>
      <trkpt lat="47.32317" lon="5.93879">
        <ele>279.8</ele>
        <time>2012-01-26T14:43:44Z</time>
      </trkpt>
      <trkpt lat="47.32308" lon="5.93875">
        <ele>279.1</ele>
        <time>2012-01-26T14:43:47Z</time>
      </trkpt>
      <trkpt lat="47.32304" lon="5.93868">
        <ele>279.8</ele>
        <time>2012-01-26T14:43:50Z</time>
      </trkpt>
      <trkpt lat="47.32304" lon="5.93868">
        <ele>240.5</ele>
        <time>2012-01-26T14:44:02Z</time>
      </trkpt>
      <trkpt lat="47.32304" lon="5.93868">
        <ele>240.5</ele>
        <time>2012-01-26T14:44:23Z</time>
      </trkpt>
      <trkpt lat="47.32304" lon="5.93868">
        <ele>240.5</ele>
        <time>2012-01-26T14:44:35Z</time>
      </trkpt>
      <trkpt lat="47.32304" lon="5.93868">
        <ele>240.5</ele>
        <time>2012-01-26T14:45:17Z</time>
      </trkpt>
      <trkpt lat="47.32294" lon="5.93845">
        <ele>287.4</ele>
        <time>2012-01-26T14:45:22Z</time>
      </trkpt>
      <trkpt lat="47.32294" lon="5.93834">
        <ele>286.2</ele>
        <time>2012-01-26T14:45:27Z</time>
      </trkpt>
      <trkpt lat="47.32294" lon="5.93834">
        <ele>241.6</ele>
        <time>2012-01-26T14:45:39Z</time>
      </trkpt>
      <trkpt lat="47.32294" lon="5.93834">
        <ele>241.6</ele>
        <time>2012-01-26T14:45:59Z</time>
      </trkpt>
      <trkpt lat="47.32289" lon="5.93816">
        <ele>285.8</ele>
        <time>2012-01-26T14:46:03Z</time>
      </trkpt>
      <trkpt lat="47.32283" lon="5.9381">
        <ele>287.4</ele>
        <time>2012-01-26T14:46:06Z</time>
      </trkpt>
      <trkpt lat="47.32278" lon="5.938">
        <ele>288.8</ele>
        <time>2012-01-26T14:46:10Z</time>
      </trkpt>
      <trkpt lat="47.32272" lon="5.93794">
        <ele>288.3</ele>
        <time>2012-01-26T14:46:13Z</time>
      </trkpt>
      <trkpt lat="47.32265" lon="5.93786">
        <ele>289.7</ele>
        <time>2012-01-26T14:46:21Z</time>
      </trkpt>
      <trkpt lat="47.32259" lon="5.93781">
        <ele>290.8</ele>
        <time>2012-01-26T14:46:23Z</time>
      </trkpt>
      <trkpt lat="47.32257" lon="5.93767">
        <ele>292.1</ele>
        <time>2012-01-26T14:46:28Z</time>
      </trkpt>
      <trkpt lat="47.3226" lon="5.93758">
        <ele>288.5</ele>
        <time>2012-01-26T14:46:37Z</time>
      </trkpt>
      <trkpt lat="47.32264" lon="5.93751">
        <ele>283.5</ele>
        <time>2012-01-26T14:46:40Z</time>
      </trkpt>
      <trkpt lat="47.32265" lon="5.93741">
        <ele>281.8</ele>
        <time>2012-01-26T14:46:49Z</time>
      </trkpt>
      <trkpt lat="47.32265" lon="5.93741">
        <ele>242</ele>
        <time>2012-01-26T14:47:01Z</time>
      </trkpt>
      <trkpt lat="47.32265" lon="5.93741">
        <ele>242</ele>
        <time>2012-01-26T14:47:18Z</time>
      </trkpt>
      <trkpt lat="47.3227" lon="5.9372">
        <ele>281</ele>
        <time>2012-01-26T14:47:22Z</time>
      </trkpt>
      <trkpt lat="47.32272" lon="5.93709">
        <ele>278.6</ele>
        <time>2012-01-26T14:47:26Z</time>
      </trkpt>
      <trkpt lat="47.32268" lon="5.93702">
        <ele>279.8</ele>
        <time>2012-01-26T14:47:31Z</time>
      </trkpt>
      <trkpt lat="47.32268" lon="5.93702">
        <ele>241.5</ele>
        <time>2012-01-26T14:47:51Z</time>
      </trkpt>
      <trkpt lat="47.32268" lon="5.93702">
        <ele>241.5</ele>
        <time>2012-01-26T14:48:24Z</time>
      </trkpt>
      <trkpt lat="47.32268" lon="5.93702">
        <ele>241.5</ele>
        <time>2012-01-26T14:48:36Z</time>
      </trkpt>
      <trkpt lat="47.32268" lon="5.93702">
        <ele>241.5</ele>
        <time>2012-01-26T14:49:34Z</time>
      </trkpt>
      <trkpt lat="47.3225" lon="5.93681">
        <ele>278</ele>
        <time>2012-01-26T14:49:35Z</time>
      </trkpt>
      <trkpt lat="47.32231" lon="5.93671">
        <ele>278.5</ele>
        <time>2012-01-26T14:49:38Z</time>
      </trkpt>
      <trkpt lat="47.32224" lon="5.93669">
        <ele>277.7</ele>
        <time>2012-01-26T14:49:39Z</time>
      </trkpt>
      <trkpt lat="47.32217" lon="5.93665">
        <ele>277.5</ele>
        <time>2012-01-26T14:49:42Z</time>
      </trkpt>
      <trkpt lat="47.32211" lon="5.93661">
        <ele>278.2</ele>
        <time>2012-01-26T14:49:44Z</time>
      </trkpt>
      <trkpt lat="47.32204" lon="5.93657">
        <ele>279.3</ele>
        <time>2012-01-26T14:49:49Z</time>
      </trkpt>
      <trkpt lat="47.32194" lon="5.9367">
        <ele>277.1</ele>
        <time>2012-01-26T14:49:57Z</time>
      </trkpt>
      <trkpt lat="47.32191" lon="5.93679">
        <ele>278</ele>
        <time>2012-01-26T14:50:02Z</time>
      </trkpt>
      <trkpt lat="47.32191" lon="5.93679">
        <ele>239.8</ele>
        <time>2012-01-26T14:50:14Z</time>
      </trkpt>
      <trkpt lat="47.32191" lon="5.93679">
        <ele>239.8</ele>
        <time>2012-01-26T14:51:47Z</time>
      </trkpt>
      <trkpt lat="47.32191" lon="5.93679">
        <ele>239.8</ele>
        <time>2012-01-26T14:51:59Z</time>
      </trkpt>
      <trkpt lat="47.32191" lon="5.93679">
        <ele>239.8</ele>
        <time>2012-01-26T14:52:04Z</time>
      </trkpt>
      <trkpt lat="47.32204" lon="5.93701">
        <ele>281.2</ele>
        <time>2012-01-26T14:52:06Z</time>
      </trkpt>
      <trkpt lat="47.32205" lon="5.9371">
        <ele>282.7</ele>
        <time>2012-01-26T14:52:11Z</time>
      </trkpt>
      <trkpt lat="47.32208" lon="5.93719">
        <ele>279</ele>
        <time>2012-01-26T14:52:16Z</time>
      </trkpt>
      <trkpt lat="47.32213" lon="5.93724">
        <ele>278</ele>
        <time>2012-01-26T14:52:19Z</time>
      </trkpt>
      <trkpt lat="47.32216" lon="5.93733">
        <ele>278.8</ele>
        <time>2012-01-26T14:52:24Z</time>
      </trkpt>
      <trkpt lat="47.32221" lon="5.93743">
        <ele>279</ele>
        <time>2012-01-26T14:52:31Z</time>
      </trkpt>
      <trkpt lat="47.32221" lon="5.93743">
        <ele>240.9</ele>
        <time>2012-01-26T14:52:43Z</time>
      </trkpt>
      <trkpt lat="47.32221" lon="5.93743">
        <ele>240.9</ele>
        <time>2012-01-26T14:52:51Z</time>
      </trkpt>
      <trkpt lat="47.32217" lon="5.93762">
        <ele>285.3</ele>
        <time>2012-01-26T14:52:58Z</time>
      </trkpt>
      <trkpt lat="47.32215" lon="5.93772">
        <ele>284.2</ele>
        <time>2012-01-26T14:53:03Z</time>
      </trkpt>
      <trkpt lat="47.32219" lon="5.9378">
        <ele>286.5</ele>
        <time>2012-01-26T14:53:08Z</time>
      </trkpt>
      <trkpt lat="47.32225" lon="5.93786">
        <ele>287.5</ele>
        <time>2012-01-26T14:53:11Z</time>
      </trkpt>
      <trkpt lat="47.32224" lon="5.93796">
        <ele>287.5</ele>
        <time>2012-01-26T14:53:16Z</time>
      </trkpt>
      <trkpt lat="47.32219" lon="5.93806">
        <ele>286.6</ele>
        <time>2012-01-26T14:53:20Z</time>
      </trkpt>
      <trkpt lat="47.32219" lon="5.93816">
        <ele>285.9</ele>
        <time>2012-01-26T14:53:26Z</time>
      </trkpt>
      <trkpt lat="47.32219" lon="5.93826">
        <ele>283.4</ele>
        <time>2012-01-26T14:53:34Z</time>
      </trkpt>
      <trkpt lat="47.32221" lon="5.93837">
        <ele>281.4</ele>
        <time>2012-01-26T14:53:39Z</time>
      </trkpt>
      <trkpt lat="47.32221" lon="5.93849">
        <ele>279.8</ele>
        <time>2012-01-26T14:53:45Z</time>
      </trkpt>
      <trkpt lat="47.32224" lon="5.93857">
        <ele>280</ele>
        <time>2012-01-26T14:53:51Z</time>
      </trkpt>
      <trkpt lat="47.3223" lon="5.93866">
        <ele>278.3</ele>
        <time>2012-01-26T14:53:56Z</time>
      </trkpt>
      <trkpt lat="47.3223" lon="5.93866">
        <ele>241</ele>
        <time>2012-01-26T14:54:08Z</time>
      </trkpt>
      <trkpt lat="47.3223" lon="5.93866">
        <ele>241</ele>
        <time>2012-01-26T14:54:09Z</time>
      </trkpt>
      <trkpt lat="47.32236" lon="5.93884">
        <ele>279.5</ele>
        <time>2012-01-26T14:54:15Z</time>
      </trkpt>
      <trkpt lat="47.3224" lon="5.93891">
        <ele>280.4</ele>
        <time>2012-01-26T14:54:21Z</time>
      </trkpt>
      <trkpt lat="47.32243" lon="5.93901">
        <ele>282.1</ele>
        <time>2012-01-26T14:54:26Z</time>
      </trkpt>
      <trkpt lat="47.32246" lon="5.9391">
        <ele>283</ele>
        <time>2012-01-26T14:54:31Z</time>
      </trkpt>
      <trkpt lat="47.32249" lon="5.93923">
        <ele>283.9</ele>
        <time>2012-01-26T14:54:37Z</time>
      </trkpt>
      <trkpt lat="47.32253" lon="5.93931">
        <ele>284.7</ele>
        <time>2012-01-26T14:54:44Z</time>
      </trkpt>
      <trkpt lat="47.32258" lon="5.9394">
        <ele>285.2</ele>
        <time>2012-01-26T14:54:48Z</time>
      </trkpt>
      <trkpt lat="47.32259" lon="5.93951">
        <ele>283.5</ele>
        <time>2012-01-26T14:54:53Z</time>
      </trkpt>
      <trkpt lat="47.3226" lon="5.93961">
        <ele>286.4</ele>
        <time>2012-01-26T14:55:03Z</time>
      </trkpt>
      <trkpt lat="47.32265" lon="5.93968">
        <ele>287.7</ele>
        <time>2012-01-26T14:55:07Z</time>
      </trkpt>
      <trkpt lat="47.32268" lon="5.93977">
        <ele>288.5</ele>
        <time>2012-01-26T14:55:13Z</time>
      </trkpt>
      <trkpt lat="47.32265" lon="5.93987">
        <ele>293.4</ele>
        <time>2012-01-26T14:55:21Z</time>
      </trkpt>
      <trkpt lat="47.32266" lon="5.93997">
        <ele>291.6</ele>
        <time>2012-01-26T14:55:30Z</time>
      </trkpt>
      <trkpt lat="47.32265" lon="5.94007">
        <ele>291.1</ele>
        <time>2012-01-26T14:55:38Z</time>
      </trkpt>
      <trkpt lat="47.32264" lon="5.94017">
        <ele>290.6</ele>
        <time>2012-01-26T14:55:46Z</time>
      </trkpt>
      <trkpt lat="47.32266" lon="5.94027">
        <ele>288.9</ele>
        <time>2012-01-26T14:55:49Z</time>
      </trkpt>
      <trkpt lat="47.32272" lon="5.94033">
        <ele>288.9</ele>
        <time>2012-01-26T14:55:52Z</time>
      </trkpt>
      <trkpt lat="47.32276" lon="5.94043">
        <ele>290.1</ele>
        <time>2012-01-26T14:55:58Z</time>
      </trkpt>
      <trkpt lat="47.32273" lon="5.94051">
        <ele>289.5</ele>
        <time>2012-01-26T14:56:07Z</time>
      </trkpt>
      <trkpt lat="47.32275" lon="5.94062">
        <ele>288.7</ele>
        <time>2012-01-26T14:56:13Z</time>
      </trkpt>
      <trkpt lat="47.32277" lon="5.94072">
        <ele>287.4</ele>
        <time>2012-01-26T14:56:21Z</time>
      </trkpt>
      <trkpt lat="47.32283" lon="5.94079">
        <ele>288.2</ele>
        <time>2012-01-26T14:56:26Z</time>
      </trkpt>
      <trkpt lat="47.32286" lon="5.94088">
        <ele>287.8</ele>
        <time>2012-01-26T14:56:30Z</time>
      </trkpt>
      <trkpt lat="47.32282" lon="5.94096">
        <ele>287.8</ele>
        <time>2012-01-26T14:56:36Z</time>
      </trkpt>
      <trkpt lat="47.32286" lon="5.94107">
        <ele>286.9</ele>
        <time>2012-01-26T14:56:43Z</time>
      </trkpt>
      <trkpt lat="47.32289" lon="5.94117">
        <ele>287.4</ele>
        <time>2012-01-26T14:56:51Z</time>
      </trkpt>
      <trkpt lat="47.32293" lon="5.94126">
        <ele>285.5</ele>
        <time>2012-01-26T14:56:56Z</time>
      </trkpt>
      <trkpt lat="47.3229" lon="5.94133">
        <ele>284.9</ele>
        <time>2012-01-26T14:57:03Z</time>
      </trkpt>
      <trkpt lat="47.32293" lon="5.94142">
        <ele>284.6</ele>
        <time>2012-01-26T14:57:08Z</time>
      </trkpt>
      <trkpt lat="47.32291" lon="5.94152">
        <ele>285</ele>
        <time>2012-01-26T14:57:15Z</time>
      </trkpt>
      <trkpt lat="47.32295" lon="5.9416">
        <ele>284.4</ele>
        <time>2012-01-26T14:57:17Z</time>
      </trkpt>
      <trkpt lat="47.3229" lon="5.9417">
        <ele>285.8</ele>
        <time>2012-01-26T14:57:22Z</time>
      </trkpt>
      <trkpt lat="47.32294" lon="5.94178">
        <ele>286.1</ele>
        <time>2012-01-26T14:57:26Z</time>
      </trkpt>
      <trkpt lat="47.323" lon="5.94184">
        <ele>285.8</ele>
        <time>2012-01-26T14:57:37Z</time>
      </trkpt>
      <trkpt lat="47.32303" lon="5.94193">
        <ele>287.8</ele>
        <time>2012-01-26T14:57:42Z</time>
      </trkpt>
      <trkpt lat="47.32309" lon="5.942">
        <ele>287.4</ele>
        <time>2012-01-26T14:57:49Z</time>
      </trkpt>
      <trkpt lat="47.32314" lon="5.94206">
        <ele>288.9</ele>
        <time>2012-01-26T14:57:56Z</time>
      </trkpt>
      <trkpt lat="47.32319" lon="5.94213">
        <ele>289.8</ele>
        <time>2012-01-26T14:58:02Z</time>
      </trkpt>
      <trkpt lat="47.32322" lon="5.94222">
        <ele>290.8</ele>
        <time>2012-01-26T14:58:11Z</time>
      </trkpt>
      <trkpt lat="47.32327" lon="5.9423">
        <ele>290.1</ele>
        <time>2012-01-26T14:58:16Z</time>
      </trkpt>
      <trkpt lat="47.32332" lon="5.94239">
        <ele>290.8</ele>
        <time>2012-01-26T14:58:22Z</time>
      </trkpt>
      <trkpt lat="47.32336" lon="5.94247">
        <ele>296.7</ele>
        <time>2012-01-26T14:58:31Z</time>
      </trkpt>
      <trkpt lat="47.32342" lon="5.94253">
        <ele>297.8</ele>
        <time>2012-01-26T14:58:37Z</time>
      </trkpt>
      <trkpt lat="47.32349" lon="5.94258">
        <ele>297.4</ele>
        <time>2012-01-26T14:58:46Z</time>
      </trkpt>
      <trkpt lat="47.32355" lon="5.94264">
        <ele>296.2</ele>
        <time>2012-01-26T14:58:55Z</time>
      </trkpt>
      <trkpt lat="47.32361" lon="5.9427">
        <ele>296.3</ele>
        <time>2012-01-26T14:59:02Z</time>
      </trkpt>
      <trkpt lat="47.32367" lon="5.94278">
        <ele>297</ele>
        <time>2012-01-26T14:59:06Z</time>
      </trkpt>
      <trkpt lat="47.3237" lon="5.94286">
        <ele>297.4</ele>
        <time>2012-01-26T14:59:10Z</time>
      </trkpt>
      <trkpt lat="47.32376" lon="5.94291">
        <ele>296.9</ele>
        <time>2012-01-26T14:59:14Z</time>
      </trkpt>
      <trkpt lat="47.32379" lon="5.94299">
        <ele>294.6</ele>
        <time>2012-01-26T14:59:21Z</time>
      </trkpt>
      <trkpt lat="47.32384" lon="5.94309">
        <ele>294</ele>
        <time>2012-01-26T14:59:28Z</time>
      </trkpt>
      <trkpt lat="47.3239" lon="5.94311">
        <ele>293.5</ele>
        <time>2012-01-26T14:59:33Z</time>
      </trkpt>
      <trkpt lat="47.32395" lon="5.9432">
        <ele>293.5</ele>
        <time>2012-01-26T14:59:40Z</time>
      </trkpt>
      <trkpt lat="47.32399" lon="5.9433">
        <ele>292.6</ele>
        <time>2012-01-26T14:59:46Z</time>
      </trkpt>
      <trkpt lat="47.32403" lon="5.94337">
        <ele>293.8</ele>
        <time>2012-01-26T14:59:54Z</time>
      </trkpt>
      <trkpt lat="47.32409" lon="5.94344">
        <ele>295</ele>
        <time>2012-01-26T15:00:00Z</time>
      </trkpt>
      <trkpt lat="47.32415" lon="5.94351">
        <ele>296.6</ele>
        <time>2012-01-26T15:00:05Z</time>
      </trkpt>
      <trkpt lat="47.32408" lon="5.94361">
        <ele>297.1</ele>
        <time>2012-01-26T15:00:11Z</time>
      </trkpt>
      <trkpt lat="47.32402" lon="5.94363">
        <ele>297</ele>
        <time>2012-01-26T15:00:14Z</time>
      </trkpt>
      <trkpt lat="47.32394" lon="5.94364">
        <ele>295.9</ele>
        <time>2012-01-26T15:00:17Z</time>
      </trkpt>
      <trkpt lat="47.32387" lon="5.94367">
        <ele>294.7</ele>
        <time>2012-01-26T15:00:21Z</time>
      </trkpt>
      <trkpt lat="47.32387" lon="5.94367">
        <ele>247.7</ele>
        <time>2012-01-26T15:00:32Z</time>
      </trkpt>
      <trkpt lat="47.32387" lon="5.94367">
        <ele>247.7</ele>
        <time>2012-01-26T15:00:33Z</time>
      </trkpt>
      <trkpt lat="47.32377" lon="5.94378">
        <ele>292.6</ele>
        <time>2012-01-26T15:00:36Z</time>
      </trkpt>
      <trkpt lat="47.32372" lon="5.94384">
        <ele>293</ele>
        <time>2012-01-26T15:00:42Z</time>
      </trkpt>
      <trkpt lat="47.32372" lon="5.94384">
        <ele>247.4</ele>
        <time>2012-01-26T15:00:53Z</time>
      </trkpt>
      <trkpt lat="47.32372" lon="5.94384">
        <ele>247.4</ele>
        <time>2012-01-26T15:01:02Z</time>
      </trkpt>
      <trkpt lat="47.32372" lon="5.94384">
        <ele>247.4</ele>
        <time>2012-01-26T15:01:13Z</time>
      </trkpt>
      <trkpt lat="47.32372" lon="5.94384">
        <ele>247.4</ele>
        <time>2012-01-26T15:01:29Z</time>
      </trkpt>
      <trkpt lat="47.32375" lon="5.94414">
        <ele>287.7</ele>
        <time>2012-01-26T15:01:33Z</time>
      </trkpt>
      <trkpt lat="47.32378" lon="5.94424">
        <ele>287.6</ele>
        <time>2012-01-26T15:01:39Z</time>
      </trkpt>
      <trkpt lat="47.32375" lon="5.94432">
        <ele>287.2</ele>
        <time>2012-01-26T15:01:43Z</time>
      </trkpt>
      <trkpt lat="47.32375" lon="5.94432">
        <ele>246.2</ele>
        <time>2012-01-26T15:01:54Z</time>
      </trkpt>
      <trkpt lat="47.32375" lon="5.94432">
        <ele>246.2</ele>
        <time>2012-01-26T15:02:02Z</time>
      </trkpt>
      <trkpt lat="47.32378" lon="5.94449">
        <ele>289.3</ele>
        <time>2012-01-26T15:02:11Z</time>
      </trkpt>
      <trkpt lat="47.32371" lon="5.9445">
        <ele>291.5</ele>
        <time>2012-01-26T15:02:16Z</time>
      </trkpt>
      <trkpt lat="47.32365" lon="5.94454">
        <ele>290.5</ele>
        <time>2012-01-26T15:02:19Z</time>
      </trkpt>
      <trkpt lat="47.32365" lon="5.94454">
        <ele>247.5</ele>
        <time>2012-01-26T15:02:30Z</time>
      </trkpt>
      <trkpt lat="47.32365" lon="5.94454">
        <ele>247.5</ele>
        <time>2012-01-26T15:02:34Z</time>
      </trkpt>
      <trkpt lat="47.32369" lon="5.94471">
        <ele>286.5</ele>
        <time>2012-01-26T15:02:45Z</time>
      </trkpt>
      <trkpt lat="47.32372" lon="5.94479">
        <ele>288</ele>
        <time>2012-01-26T15:02:51Z</time>
      </trkpt>
      <trkpt lat="47.32372" lon="5.94493">
        <ele>287.1</ele>
        <time>2012-01-26T15:02:55Z</time>
      </trkpt>
      <trkpt lat="47.32371" lon="5.94504">
        <ele>285.5</ele>
        <time>2012-01-26T15:03:01Z</time>
      </trkpt>
      <trkpt lat="47.32371" lon="5.94514">
        <ele>283.2</ele>
        <time>2012-01-26T15:03:07Z</time>
      </trkpt>
      <trkpt lat="47.32373" lon="5.94524">
        <ele>282.5</ele>
        <time>2012-01-26T15:03:11Z</time>
      </trkpt>
      <trkpt lat="47.32372" lon="5.94534">
        <ele>283</ele>
        <time>2012-01-26T15:03:17Z</time>
      </trkpt>
      <trkpt lat="47.32368" lon="5.94543">
        <ele>284.3</ele>
        <time>2012-01-26T15:03:22Z</time>
      </trkpt>
      <trkpt lat="47.32367" lon="5.94552">
        <ele>285.8</ele>
        <time>2012-01-26T15:03:26Z</time>
      </trkpt>
      <trkpt lat="47.32369" lon="5.94562">
        <ele>285.9</ele>
        <time>2012-01-26T15:03:31Z</time>
      </trkpt>
      <trkpt lat="47.32368" lon="5.94573">
        <ele>287.9</ele>
        <time>2012-01-26T15:03:40Z</time>
      </trkpt>
      <trkpt lat="47.32368" lon="5.94583">
        <ele>287.7</ele>
        <time>2012-01-26T15:03:46Z</time>
      </trkpt>
      <trkpt lat="47.32373" lon="5.94591">
        <ele>286</ele>
        <time>2012-01-26T15:03:54Z</time>
      </trkpt>
      <trkpt lat="47.32376" lon="5.94601">
        <ele>284.3</ele>
        <time>2012-01-26T15:03:59Z</time>
      </trkpt>
      <trkpt lat="47.32377" lon="5.94612">
        <ele>284.9</ele>
        <time>2012-01-26T15:04:05Z</time>
      </trkpt>
      <trkpt lat="47.32379" lon="5.94622">
        <ele>286.3</ele>
        <time>2012-01-26T15:04:10Z</time>
      </trkpt>
      <trkpt lat="47.32373" lon="5.94628">
        <ele>285.9</ele>
        <time>2012-01-26T15:04:14Z</time>
      </trkpt>
      <trkpt lat="47.32373" lon="5.94637">
        <ele>285.2</ele>
        <time>2012-01-26T15:04:21Z</time>
      </trkpt>
      <trkpt lat="47.32372" lon="5.94647">
        <ele>286</ele>
        <time>2012-01-26T15:04:27Z</time>
      </trkpt>
      <trkpt lat="47.32367" lon="5.94654">
        <ele>286.7</ele>
        <time>2012-01-26T15:04:31Z</time>
      </trkpt>
      <trkpt lat="47.32367" lon="5.94664">
        <ele>286.3</ele>
        <time>2012-01-26T15:04:36Z</time>
      </trkpt>
      <trkpt lat="47.32369" lon="5.94676">
        <ele>286</ele>
        <time>2012-01-26T15:04:44Z</time>
      </trkpt>
      <trkpt lat="47.32369" lon="5.94676">
        <ele>250.3</ele>
        <time>2012-01-26T15:04:55Z</time>
      </trkpt>
      <trkpt lat="47.32369" lon="5.94676">
        <ele>250.3</ele>
        <time>2012-01-26T15:05:01Z</time>
      </trkpt>
      <trkpt lat="47.32369" lon="5.94676">
        <ele>250.3</ele>
        <time>2012-01-26T15:05:13Z</time>
      </trkpt>
      <trkpt lat="47.32369" lon="5.94676">
        <ele>250.3</ele>
        <time>2012-01-26T15:05:20Z</time>
      </trkpt>
      <trkpt lat="47.32369" lon="5.94676">
        <ele>250.3</ele>
        <time>2012-01-26T15:05:32Z</time>
      </trkpt>
      <trkpt lat="47.32369" lon="5.94676">
        <ele>250.3</ele>
        <time>2012-01-26T15:05:38Z</time>
      </trkpt>
      <trkpt lat="47.32369" lon="5.94676">
        <ele>250.3</ele>
        <time>2012-01-26T15:05:50Z</time>
      </trkpt>
      <trkpt lat="47.32369" lon="5.94676">
        <ele>250.3</ele>
        <time>2012-01-26T15:05:50Z</time>
      </trkpt>
      <trkpt lat="47.32363" lon="5.94727">
        <ele>290.8</ele>
        <time>2012-01-26T15:05:54Z</time>
      </trkpt>
      <trkpt lat="47.32366" lon="5.94735">
        <ele>290.8</ele>
        <time>2012-01-26T15:05:59Z</time>
      </trkpt>
      <trkpt lat="47.32367" lon="5.94746">
        <ele>291.8</ele>
        <time>2012-01-26T15:06:03Z</time>
      </trkpt>
      <trkpt lat="47.32367" lon="5.94832">
        <ele>293.1</ele>
        <time>2012-01-26T15:07:11Z</time>
      </trkpt>
      <trkpt lat="47.32363" lon="5.94842">
        <ele>291.3</ele>
        <time>2012-01-26T15:07:15Z</time>
      </trkpt>
      <trkpt lat="47.32359" lon="5.9485">
        <ele>292.7</ele>
        <time>2012-01-26T15:07:19Z</time>
      </trkpt>
      <trkpt lat="47.32352" lon="5.94855">
        <ele>292.8</ele>
        <time>2012-01-26T15:07:25Z</time>
      </trkpt>
      <trkpt lat="47.32354" lon="5.94864">
        <ele>293.2</ele>
        <time>2012-01-26T15:07:30Z</time>
      </trkpt>
      <trkpt lat="47.32353" lon="5.94873">
        <ele>293.7</ele>
        <time>2012-01-26T15:07:37Z</time>
      </trkpt>
      <trkpt lat="47.32355" lon="5.94882">
        <ele>291.4</ele>
        <time>2012-01-26T15:07:45Z</time>
      </trkpt>
      <trkpt lat="47.32357" lon="5.94893">
        <ele>292.1</ele>
        <time>2012-01-26T15:07:50Z</time>
      </trkpt>
      <trkpt lat="47.32357" lon="5.94903">
        <ele>291.4</ele>
        <time>2012-01-26T15:07:59Z</time>
      </trkpt>
      <trkpt lat="47.32353" lon="5.94911">
        <ele>292.3</ele>
        <time>2012-01-26T15:08:06Z</time>
      </trkpt>
      <trkpt lat="47.32351" lon="5.94922">
        <ele>291.2</ele>
        <time>2012-01-26T15:08:11Z</time>
      </trkpt>
      <trkpt lat="47.3235" lon="5.94933">
        <ele>289.5</ele>
        <time>2012-01-26T15:08:18Z</time>
      </trkpt>
      <trkpt lat="47.32349" lon="5.94942">
        <ele>290.3</ele>
        <time>2012-01-26T15:08:25Z</time>
      </trkpt>
      <trkpt lat="47.32349" lon="5.94951">
        <ele>290.1</ele>
        <time>2012-01-26T15:08:31Z</time>
      </trkpt>
      <trkpt lat="47.32346" lon="5.94959">
        <ele>290.5</ele>
        <time>2012-01-26T15:08:35Z</time>
      </trkpt>
      <trkpt lat="47.32346" lon="5.94969">
        <ele>292.4</ele>
        <time>2012-01-26T15:08:40Z</time>
      </trkpt>
      <trkpt lat="47.32348" lon="5.94981">
        <ele>292.4</ele>
        <time>2012-01-26T15:08:47Z</time>
      </trkpt>
      <trkpt lat="47.32349" lon="5.94992">
        <ele>292.3</ele>
        <time>2012-01-26T15:08:53Z</time>
      </trkpt>
      <trkpt lat="47.32351" lon="5.95002">
        <ele>292.4</ele>
        <time>2012-01-26T15:08:59Z</time>
      </trkpt>
      <trkpt lat="47.32352" lon="5.95012">
        <ele>294.5</ele>
        <time>2012-01-26T15:09:09Z</time>
      </trkpt>
      <trkpt lat="47.3235" lon="5.95021">
        <ele>297.2</ele>
        <time>2012-01-26T15:09:18Z</time>
      </trkpt>
      <trkpt lat="47.3235" lon="5.95021">
        <ele>243.6</ele>
        <time>2012-01-26T15:09:30Z</time>
      </trkpt>
      <trkpt lat="47.3235" lon="5.95021">
        <ele>243.6</ele>
        <time>2012-01-26T15:09:32Z</time>
      </trkpt>
      <trkpt lat="47.32348" lon="5.95043">
        <ele>294.9</ele>
        <time>2012-01-26T15:09:40Z</time>
      </trkpt>
      <trkpt lat="47.32345" lon="5.95052">
        <ele>293.8</ele>
        <time>2012-01-26T15:09:47Z</time>
      </trkpt>
      <trkpt lat="47.32348" lon="5.95062">
        <ele>294.9</ele>
        <time>2012-01-26T15:09:52Z</time>
      </trkpt>
      <trkpt lat="47.32349" lon="5.95072">
        <ele>292.9</ele>
        <time>2012-01-26T15:10:00Z</time>
      </trkpt>
      <trkpt lat="47.32348" lon="5.95082">
        <ele>291.8</ele>
        <time>2012-01-26T15:10:09Z</time>
      </trkpt>
      <trkpt lat="47.32346" lon="5.95093">
        <ele>292.9</ele>
        <time>2012-01-26T15:10:16Z</time>
      </trkpt>
      <trkpt lat="47.32342" lon="5.951">
        <ele>292.5</ele>
        <time>2012-01-26T15:10:20Z</time>
      </trkpt>
      <trkpt lat="47.32339" lon="5.9511">
        <ele>293.2</ele>
        <time>2012-01-26T15:10:26Z</time>
      </trkpt>
      <trkpt lat="47.32332" lon="5.95112">
        <ele>293.3</ele>
        <time>2012-01-26T15:10:29Z</time>
      </trkpt>
      <trkpt lat="47.32327" lon="5.95117">
        <ele>289.1</ele>
        <time>2012-01-26T15:10:36Z</time>
      </trkpt>
      <trkpt lat="47.32328" lon="5.95127">
        <ele>283.7</ele>
        <time>2012-01-26T15:10:46Z</time>
      </trkpt>
      <trkpt lat="47.32333" lon="5.95135">
        <ele>282</ele>
        <time>2012-01-26T15:10:50Z</time>
      </trkpt>
      <trkpt lat="47.32339" lon="5.95139">
        <ele>281.7</ele>
        <time>2012-01-26T15:10:55Z</time>
      </trkpt>
      <trkpt lat="47.32342" lon="5.95148">
        <ele>282.7</ele>
        <time>2012-01-26T15:10:59Z</time>
      </trkpt>
      <trkpt lat="47.32342" lon="5.95158">
        <ele>281.6</ele>
        <time>2012-01-26T15:11:07Z</time>
      </trkpt>
      <trkpt lat="47.3234" lon="5.95167">
        <ele>280.8</ele>
        <time>2012-01-26T15:11:20Z</time>
      </trkpt>
      <trkpt lat="47.32339" lon="5.95178">
        <ele>279.6</ele>
        <time>2012-01-26T15:11:26Z</time>
      </trkpt>
      <trkpt lat="47.3234" lon="5.95188">
        <ele>278.6</ele>
        <time>2012-01-26T15:11:35Z</time>
      </trkpt>
      <trkpt lat="47.32336" lon="5.95195">
        <ele>278.9</ele>
        <time>2012-01-26T15:11:44Z</time>
      </trkpt>
      <trkpt lat="47.32337" lon="5.95204">
        <ele>281.8</ele>
        <time>2012-01-26T15:11:49Z</time>
      </trkpt>
      <trkpt lat="47.32333" lon="5.95212">
        <ele>281.3</ele>
        <time>2012-01-26T15:11:55Z</time>
      </trkpt>
      <trkpt lat="47.32327" lon="5.95219">
        <ele>282.7</ele>
        <time>2012-01-26T15:11:59Z</time>
      </trkpt>
      <trkpt lat="47.32322" lon="5.95225">
        <ele>284</ele>
        <time>2012-01-26T15:12:04Z</time>
      </trkpt>
      <trkpt lat="47.32315" lon="5.95231">
        <ele>283.7</ele>
        <time>2012-01-26T15:12:13Z</time>
      </trkpt>
      <trkpt lat="47.3231" lon="5.95239">
        <ele>286.3</ele>
        <time>2012-01-26T15:12:20Z</time>
      </trkpt>
      <trkpt lat="47.32303" lon="5.95241">
        <ele>286.2</ele>
        <time>2012-01-26T15:12:26Z</time>
      </trkpt>
      <trkpt lat="47.32297" lon="5.95246">
        <ele>286.4</ele>
        <time>2012-01-26T15:12:30Z</time>
      </trkpt>
      <trkpt lat="47.3229" lon="5.95248">
        <ele>287.7</ele>
        <time>2012-01-26T15:12:37Z</time>
      </trkpt>
      <trkpt lat="47.32284" lon="5.9525">
        <ele>287.1</ele>
        <time>2012-01-26T15:12:48Z</time>
      </trkpt>
      <trkpt lat="47.32284" lon="5.9525">
        <ele>245.8</ele>
        <time>2012-01-26T15:12:59Z</time>
      </trkpt>
      <trkpt lat="47.32284" lon="5.9525">
        <ele>245.8</ele>
        <time>2012-01-26T15:18:00Z</time>
      </trkpt>
      <trkpt lat="47.32272" lon="5.95241">
        <ele>289.3</ele>
        <time>2012-01-26T15:18:04Z</time>
      </trkpt>
      <trkpt lat="47.32267" lon="5.95236">
        <ele>290</ele>
        <time>2012-01-26T15:18:12Z</time>
      </trkpt>
      <trkpt lat="47.32267" lon="5.95236">
        <ele>246</ele>
        <time>2012-01-26T15:18:24Z</time>
      </trkpt>
      <trkpt lat="47.32267" lon="5.95236">
        <ele>246</ele>
        <time>2012-01-26T15:18:26Z</time>
      </trkpt>
      <trkpt lat="47.32256" lon="5.95218">
        <ele>286.1</ele>
        <time>2012-01-26T15:18:29Z</time>
      </trkpt>
      <trkpt lat="47.32248" lon="5.95215">
        <ele>287.3</ele>
        <time>2012-01-26T15:18:32Z</time>
      </trkpt>
      <trkpt lat="47.3224" lon="5.95208">
        <ele>286.7</ele>
        <time>2012-01-26T15:18:36Z</time>
      </trkpt>
      <trkpt lat="47.32235" lon="5.95203">
        <ele>286.9</ele>
        <time>2012-01-26T15:18:40Z</time>
      </trkpt>
      <trkpt lat="47.32229" lon="5.95197">
        <ele>287.1</ele>
        <time>2012-01-26T15:18:46Z</time>
      </trkpt>
      <trkpt lat="47.32229" lon="5.95197">
        <ele>246</ele>
        <time>2012-01-26T15:18:58Z</time>
      </trkpt>
      <trkpt lat="47.32229" lon="5.95197">
        <ele>246</ele>
        <time>2012-01-26T15:19:14Z</time>
      </trkpt>
      <trkpt lat="47.32213" lon="5.95194">
        <ele>288.3</ele>
        <time>2012-01-26T15:19:16Z</time>
      </trkpt>
      <trkpt lat="47.32207" lon="5.9519">
        <ele>291.9</ele>
        <time>2012-01-26T15:19:20Z</time>
      </trkpt>
      <trkpt lat="47.32201" lon="5.9519">
        <ele>293.7</ele>
        <time>2012-01-26T15:19:24Z</time>
      </trkpt>
      <trkpt lat="47.32194" lon="5.95192">
        <ele>296.4</ele>
        <time>2012-01-26T15:19:33Z</time>
      </trkpt>
      <trkpt lat="47.32185" lon="5.95188">
        <ele>296.3</ele>
        <time>2012-01-26T15:19:38Z</time>
      </trkpt>
      <trkpt lat="47.32178" lon="5.95191">
        <ele>297.6</ele>
        <time>2012-01-26T15:19:44Z</time>
      </trkpt>
      <trkpt lat="47.32173" lon="5.95195">
        <ele>299.4</ele>
        <time>2012-01-26T15:19:50Z</time>
      </trkpt>
      <trkpt lat="47.32165" lon="5.95199">
        <ele>302.5</ele>
        <time>2012-01-26T15:19:56Z</time>
      </trkpt>
      <trkpt lat="47.32156" lon="5.95203">
        <ele>303.9</ele>
        <time>2012-01-26T15:20:03Z</time>
      </trkpt>
      <trkpt lat="47.3215" lon="5.95208">
        <ele>307.1</ele>
        <time>2012-01-26T15:20:09Z</time>
      </trkpt>
      <trkpt lat="47.32143" lon="5.95207">
        <ele>302.8</ele>
        <time>2012-01-26T15:20:18Z</time>
      </trkpt>
      <trkpt lat="47.32137" lon="5.95203">
        <ele>301.7</ele>
        <time>2012-01-26T15:20:24Z</time>
      </trkpt>
      <trkpt lat="47.3213" lon="5.95205">
        <ele>299.6</ele>
        <time>2012-01-26T15:20:32Z</time>
      </trkpt>
      <trkpt lat="47.3213" lon="5.95205">
        <ele>248.5</ele>
        <time>2012-01-26T15:20:44Z</time>
      </trkpt>
      <trkpt lat="47.3213" lon="5.95205">
        <ele>248.5</ele>
        <time>2012-01-26T15:20:45Z</time>
      </trkpt>
      <trkpt lat="47.32117" lon="5.95211">
        <ele>298.1</ele>
        <time>2012-01-26T15:20:53Z</time>
      </trkpt>
      <trkpt lat="47.32111" lon="5.9521">
        <ele>296.4</ele>
        <time>2012-01-26T15:20:58Z</time>
      </trkpt>
      <trkpt lat="47.32106" lon="5.95218">
        <ele>294.8</ele>
        <time>2012-01-26T15:21:07Z</time>
      </trkpt>
      <trkpt lat="47.321" lon="5.95221">
        <ele>294.6</ele>
        <time>2012-01-26T15:21:13Z</time>
      </trkpt>
      <trkpt lat="47.321" lon="5.95221">
        <ele>250</ele>
        <time>2012-01-26T15:21:25Z</time>
      </trkpt>
      <trkpt lat="47.321" lon="5.95221">
        <ele>250</ele>
        <time>2012-01-26T15:21:51Z</time>
      </trkpt>
      <trkpt lat="47.32082" lon="5.95222">
        <ele>295.8</ele>
        <time>2012-01-26T15:21:54Z</time>
      </trkpt>
      <trkpt lat="47.32082" lon="5.95222">
        <ele>250</ele>
        <time>2012-01-26T15:22:06Z</time>
      </trkpt>
      <trkpt lat="47.32082" lon="5.95222">
        <ele>250</ele>
        <time>2012-01-26T15:22:19Z</time>
      </trkpt>
      <trkpt lat="47.32066" lon="5.95221">
        <ele>296.5</ele>
        <time>2012-01-26T15:22:22Z</time>
      </trkpt>
      <trkpt lat="47.32059" lon="5.95218">
        <ele>296.6</ele>
        <time>2012-01-26T15:22:25Z</time>
      </trkpt>
      <trkpt lat="47.32059" lon="5.95229">
        <ele>298.9</ele>
        <time>2012-01-26T15:22:30Z</time>
      </trkpt>
      <trkpt lat="47.32059" lon="5.95229">
        <ele>250</ele>
        <time>2012-01-26T15:22:42Z</time>
      </trkpt>
      <trkpt lat="47.32059" lon="5.95229">
        <ele>250</ele>
        <time>2012-01-26T15:22:48Z</time>
      </trkpt>
      <trkpt lat="47.32059" lon="5.95229">
        <ele>250</ele>
        <time>2012-01-26T15:23:00Z</time>
      </trkpt>
      <trkpt lat="47.32059" lon="5.95229">
        <ele>250</ele>
        <time>2012-01-26T15:23:10Z</time>
      </trkpt>
      <trkpt lat="47.32039" lon="5.95236">
        <ele>309.8</ele>
        <time>2012-01-26T15:23:14Z</time>
      </trkpt>
      <trkpt lat="47.32032" lon="5.95232">
        <ele>310.7</ele>
        <time>2012-01-26T15:23:22Z</time>
      </trkpt>
      <trkpt lat="47.32025" lon="5.95232">
        <ele>312</ele>
        <time>2012-01-26T15:23:29Z</time>
      </trkpt>
      <trkpt lat="47.32017" lon="5.95231">
        <ele>311.5</ele>
        <time>2012-01-26T15:23:36Z</time>
      </trkpt>
      <trkpt lat="47.32009" lon="5.9523">
        <ele>309.3</ele>
        <time>2012-01-26T15:23:43Z</time>
      </trkpt>
      <trkpt lat="47.32001" lon="5.95228">
        <ele>310.6</ele>
        <time>2012-01-26T15:23:52Z</time>
      </trkpt>
      <trkpt lat="47.31996" lon="5.95222">
        <ele>311.2</ele>
        <time>2012-01-26T15:23:56Z</time>
      </trkpt>
      <trkpt lat="47.31989" lon="5.95223">
        <ele>312.8</ele>
        <time>2012-01-26T15:24:00Z</time>
      </trkpt>
      <trkpt lat="47.31983" lon="5.95219">
        <ele>312.9</ele>
        <time>2012-01-26T15:24:05Z</time>
      </trkpt>
      <trkpt lat="47.31976" lon="5.95219">
        <ele>313.5</ele>
        <time>2012-01-26T15:24:11Z</time>
      </trkpt>
      <trkpt lat="47.3197" lon="5.95215">
        <ele>311.8</ele>
        <time>2012-01-26T15:24:15Z</time>
      </trkpt>
      <trkpt lat="47.31965" lon="5.95222">
        <ele>309.9</ele>
        <time>2012-01-26T15:24:25Z</time>
      </trkpt>
      <trkpt lat="47.31959" lon="5.9522">
        <ele>308.8</ele>
        <time>2012-01-26T15:24:31Z</time>
      </trkpt>
      <trkpt lat="47.31959" lon="5.9522">
        <ele>250.4</ele>
        <time>2012-01-26T15:24:43Z</time>
      </trkpt>
      <trkpt lat="47.31959" lon="5.9522">
        <ele>250.4</ele>
        <time>2012-01-26T15:25:08Z</time>
      </trkpt>
      <trkpt lat="47.31959" lon="5.9522">
        <ele>250.4</ele>
        <time>2012-01-26T15:25:20Z</time>
      </trkpt>
      <trkpt lat="47.31959" lon="5.9522">
        <ele>250.4</ele>
        <time>2012-01-26T15:26:37Z</time>
      </trkpt>
      <trkpt lat="47.31935" lon="5.95211">
        <ele>305.4</ele>
        <time>2012-01-26T15:26:40Z</time>
      </trkpt>
      <trkpt lat="47.31929" lon="5.9521">
        <ele>306</ele>
        <time>2012-01-26T15:26:45Z</time>
      </trkpt>
      <trkpt lat="47.31922" lon="5.95208">
        <ele>306.6</ele>
        <time>2012-01-26T15:26:48Z</time>
      </trkpt>
      <trkpt lat="47.31916" lon="5.95201">
        <ele>307.7</ele>
        <time>2012-01-26T15:26:52Z</time>
      </trkpt>
      <trkpt lat="47.3191" lon="5.952">
        <ele>305.1</ele>
        <time>2012-01-26T15:26:59Z</time>
      </trkpt>
      <trkpt lat="47.31903" lon="5.95202">
        <ele>304.9</ele>
        <time>2012-01-26T15:27:05Z</time>
      </trkpt>
      <trkpt lat="47.31903" lon="5.95202">
        <ele>251</ele>
        <time>2012-01-26T15:27:18Z</time>
      </trkpt>
      <trkpt lat="47.31903" lon="5.95202">
        <ele>251</ele>
        <time>2012-01-26T15:27:19Z</time>
      </trkpt>
      <trkpt lat="47.31891" lon="5.95199">
        <ele>306.1</ele>
        <time>2012-01-26T15:27:29Z</time>
      </trkpt>
      <trkpt lat="47.31882" lon="5.95197">
        <ele>305.8</ele>
        <time>2012-01-26T15:27:31Z</time>
      </trkpt>
      <trkpt lat="47.31876" lon="5.95199">
        <ele>305.9</ele>
        <time>2012-01-26T15:27:35Z</time>
      </trkpt>
      <trkpt lat="47.31867" lon="5.95198">
        <ele>305</ele>
        <time>2012-01-26T15:27:38Z</time>
      </trkpt>
      <trkpt lat="47.31859" lon="5.952">
        <ele>304.8</ele>
        <time>2012-01-26T15:27:41Z</time>
      </trkpt>
      <trkpt lat="47.31853" lon="5.95197">
        <ele>307.3</ele>
        <time>2012-01-26T15:27:48Z</time>
      </trkpt>
      <trkpt lat="47.31846" lon="5.95192">
        <ele>308</ele>
        <time>2012-01-26T15:27:52Z</time>
      </trkpt>
      <trkpt lat="47.31838" lon="5.95189">
        <ele>307</ele>
        <time>2012-01-26T15:27:57Z</time>
      </trkpt>
      <trkpt lat="47.31832" lon="5.95186">
        <ele>308.5</ele>
        <time>2012-01-26T15:28:01Z</time>
      </trkpt>
      <trkpt lat="47.31825" lon="5.95183">
        <ele>307.4</ele>
        <time>2012-01-26T15:28:07Z</time>
      </trkpt>
      <trkpt lat="47.31818" lon="5.95181">
        <ele>309.5</ele>
        <time>2012-01-26T15:28:12Z</time>
      </trkpt>
      <trkpt lat="47.31812" lon="5.95179">
        <ele>311.4</ele>
        <time>2012-01-26T15:28:19Z</time>
      </trkpt>
      <trkpt lat="47.31805" lon="5.95178">
        <ele>310.3</ele>
        <time>2012-01-26T15:28:25Z</time>
      </trkpt>
      <trkpt lat="47.31798" lon="5.95178">
        <ele>310</ele>
        <time>2012-01-26T15:28:33Z</time>
      </trkpt>
      <trkpt lat="47.31795" lon="5.9517">
        <ele>310.4</ele>
        <time>2012-01-26T15:28:39Z</time>
      </trkpt>
      <trkpt lat="47.31788" lon="5.9517">
        <ele>310.1</ele>
        <time>2012-01-26T15:28:46Z</time>
      </trkpt>
      <trkpt lat="47.31782" lon="5.95167">
        <ele>309.1</ele>
        <time>2012-01-26T15:28:49Z</time>
      </trkpt>
      <trkpt lat="47.31774" lon="5.95165">
        <ele>310.3</ele>
        <time>2012-01-26T15:28:54Z</time>
      </trkpt>
      <trkpt lat="47.31767" lon="5.95163">
        <ele>311.1</ele>
        <time>2012-01-26T15:28:59Z</time>
      </trkpt>
      <trkpt lat="47.31761" lon="5.9516">
        <ele>312.3</ele>
        <time>2012-01-26T15:29:04Z</time>
      </trkpt>
      <trkpt lat="47.31754" lon="5.95156">
        <ele>311.9</ele>
        <time>2012-01-26T15:29:09Z</time>
      </trkpt>
      <trkpt lat="47.31749" lon="5.9515">
        <ele>310.3</ele>
        <time>2012-01-26T15:29:16Z</time>
      </trkpt>
      <trkpt lat="47.31745" lon="5.95141">
        <ele>308.6</ele>
        <time>2012-01-26T15:29:23Z</time>
      </trkpt>
      <trkpt lat="47.31739" lon="5.95144">
        <ele>309.6</ele>
        <time>2012-01-26T15:29:29Z</time>
      </trkpt>
      <trkpt lat="47.31732" lon="5.95145">
        <ele>308.3</ele>
        <time>2012-01-26T15:29:33Z</time>
      </trkpt>
      <trkpt lat="47.31724" lon="5.95144">
        <ele>307.7</ele>
        <time>2012-01-26T15:29:38Z</time>
      </trkpt>
      <trkpt lat="47.31718" lon="5.95141">
        <ele>308.1</ele>
        <time>2012-01-26T15:29:41Z</time>
      </trkpt>
      <trkpt lat="47.31711" lon="5.95141">
        <ele>309.5</ele>
        <time>2012-01-26T15:29:46Z</time>
      </trkpt>
      <trkpt lat="47.31704" lon="5.95141">
        <ele>310.1</ele>
        <time>2012-01-26T15:29:50Z</time>
      </trkpt>
      <trkpt lat="47.31697" lon="5.95141">
        <ele>312.1</ele>
        <time>2012-01-26T15:29:58Z</time>
      </trkpt>
      <trkpt lat="47.31691" lon="5.95145">
        <ele>311.4</ele>
        <time>2012-01-26T15:30:03Z</time>
      </trkpt>
      <trkpt lat="47.31686" lon="5.95151">
        <ele>309.9</ele>
        <time>2012-01-26T15:30:09Z</time>
      </trkpt>
      <trkpt lat="47.31682" lon="5.9516">
        <ele>309.3</ele>
        <time>2012-01-26T15:30:14Z</time>
      </trkpt>
      <trkpt lat="47.31677" lon="5.95166">
        <ele>308.2</ele>
        <time>2012-01-26T15:30:22Z</time>
      </trkpt>
      <trkpt lat="47.3167" lon="5.95168">
        <ele>306.9</ele>
        <time>2012-01-26T15:30:27Z</time>
      </trkpt>
      <trkpt lat="47.31662" lon="5.95171">
        <ele>307</ele>
        <time>2012-01-26T15:30:33Z</time>
      </trkpt>
      <trkpt lat="47.31656" lon="5.95175">
        <ele>307</ele>
        <time>2012-01-26T15:30:37Z</time>
      </trkpt>
      <trkpt lat="47.31651" lon="5.95183">
        <ele>308.8</ele>
        <time>2012-01-26T15:30:43Z</time>
      </trkpt>
      <trkpt lat="47.31644" lon="5.9519">
        <ele>310.8</ele>
        <time>2012-01-26T15:30:49Z</time>
      </trkpt>
      <trkpt lat="47.31637" lon="5.95189">
        <ele>309.1</ele>
        <time>2012-01-26T15:30:56Z</time>
      </trkpt>
      <trkpt lat="47.3163" lon="5.95193">
        <ele>305.6</ele>
        <time>2012-01-26T15:31:04Z</time>
      </trkpt>
      <trkpt lat="47.31623" lon="5.95193">
        <ele>304</ele>
        <time>2012-01-26T15:31:08Z</time>
      </trkpt>
      <trkpt lat="47.31623" lon="5.95193">
        <ele>240.4</ele>
        <time>2012-01-26T15:31:20Z</time>
      </trkpt>
      <trkpt lat="47.31623" lon="5.95193">
        <ele>240.4</ele>
        <time>2012-01-26T15:32:29Z</time>
      </trkpt>
      <trkpt lat="47.3162" lon="5.95211">
        <ele>303.5</ele>
        <time>2012-01-26T15:32:34Z</time>
      </trkpt>
      <trkpt lat="47.31613" lon="5.95213">
        <ele>301.9</ele>
        <time>2012-01-26T15:32:36Z</time>
      </trkpt>
      <trkpt lat="47.31607" lon="5.95217">
        <ele>301.3</ele>
        <time>2012-01-26T15:32:40Z</time>
      </trkpt>
      <trkpt lat="47.31599" lon="5.95215">
        <ele>299.9</ele>
        <time>2012-01-26T15:32:45Z</time>
      </trkpt>
      <trkpt lat="47.31592" lon="5.95216">
        <ele>296.7</ele>
        <time>2012-01-26T15:32:52Z</time>
      </trkpt>
      <trkpt lat="47.31587" lon="5.95223">
        <ele>295.5</ele>
        <time>2012-01-26T15:32:56Z</time>
      </trkpt>
      <trkpt lat="47.3158" lon="5.95227">
        <ele>294.1</ele>
        <time>2012-01-26T15:32:59Z</time>
      </trkpt>
      <trkpt lat="47.3158" lon="5.95227">
        <ele>241</ele>
        <time>2012-01-26T15:33:11Z</time>
      </trkpt>
      <trkpt lat="47.3158" lon="5.95227">
        <ele>241</ele>
        <time>2012-01-26T15:33:15Z</time>
      </trkpt>
      <trkpt lat="47.31568" lon="5.95234">
        <ele>290.8</ele>
        <time>2012-01-26T15:33:24Z</time>
      </trkpt>
      <trkpt lat="47.31561" lon="5.95239">
        <ele>290.9</ele>
        <time>2012-01-26T15:33:30Z</time>
      </trkpt>
      <trkpt lat="47.31557" lon="5.95247">
        <ele>288</ele>
        <time>2012-01-26T15:33:36Z</time>
      </trkpt>
      <trkpt lat="47.31557" lon="5.95247">
        <ele>241</ele>
        <time>2012-01-26T15:33:48Z</time>
      </trkpt>
      <trkpt lat="47.31557" lon="5.95247">
        <ele>241</ele>
        <time>2012-01-26T15:33:56Z</time>
      </trkpt>
      <trkpt lat="47.31545" lon="5.95263">
        <ele>286.9</ele>
        <time>2012-01-26T15:33:58Z</time>
      </trkpt>
      <trkpt lat="47.31538" lon="5.95274">
        <ele>286.5</ele>
        <time>2012-01-26T15:34:01Z</time>
      </trkpt>
      <trkpt lat="47.31532" lon="5.95278">
        <ele>284</ele>
        <time>2012-01-26T15:34:08Z</time>
      </trkpt>
      <trkpt lat="47.31524" lon="5.9528">
        <ele>284.1</ele>
        <time>2012-01-26T15:34:14Z</time>
      </trkpt>
      <trkpt lat="47.31524" lon="5.9528">
        <ele>243.1</ele>
        <time>2012-01-26T15:34:26Z</time>
      </trkpt>
      <trkpt lat="47.31524" lon="5.9528">
        <ele>243.1</ele>
        <time>2012-01-26T15:34:26Z</time>
      </trkpt>
      <trkpt lat="47.31509" lon="5.95274">
        <ele>286.6</ele>
        <time>2012-01-26T15:34:32Z</time>
      </trkpt>
      <trkpt lat="47.31503" lon="5.95268">
        <ele>286.5</ele>
        <time>2012-01-26T15:34:36Z</time>
      </trkpt>
      <trkpt lat="47.31503" lon="5.95268">
        <ele>243.5</ele>
        <time>2012-01-26T15:34:48Z</time>
      </trkpt>
      <trkpt lat="47.31503" lon="5.95268">
        <ele>243.5</ele>
        <time>2012-01-26T15:34:48Z</time>
      </trkpt>
      <trkpt lat="47.31488" lon="5.9527">
        <ele>284.5</ele>
        <time>2012-01-26T15:34:59Z</time>
      </trkpt>
      <trkpt lat="47.31481" lon="5.95271">
        <ele>285.3</ele>
        <time>2012-01-26T15:35:05Z</time>
      </trkpt>
      <trkpt lat="47.31472" lon="5.95271">
        <ele>287.2</ele>
        <time>2012-01-26T15:35:09Z</time>
      </trkpt>
      <trkpt lat="47.31465" lon="5.95274">
        <ele>288.6</ele>
        <time>2012-01-26T15:35:14Z</time>
      </trkpt>
      <trkpt lat="47.31459" lon="5.95272">
        <ele>288</ele>
        <time>2012-01-26T15:35:19Z</time>
      </trkpt>
      <trkpt lat="47.31451" lon="5.95273">
        <ele>287.8</ele>
        <time>2012-01-26T15:35:25Z</time>
      </trkpt>
      <trkpt lat="47.31451" lon="5.95273">
        <ele>245.8</ele>
        <time>2012-01-26T15:35:37Z</time>
      </trkpt>
      <trkpt lat="47.31451" lon="5.95273">
        <ele>245.8</ele>
        <time>2012-01-26T15:35:39Z</time>
      </trkpt>
      <trkpt lat="47.31437" lon="5.95271">
        <ele>288.4</ele>
        <time>2012-01-26T15:35:45Z</time>
      </trkpt>
      <trkpt lat="47.31431" lon="5.95274">
        <ele>288.2</ele>
        <time>2012-01-26T15:35:49Z</time>
      </trkpt>
      <trkpt lat="47.31422" lon="5.95272">
        <ele>289.9</ele>
        <time>2012-01-26T15:35:57Z</time>
      </trkpt>
      <trkpt lat="47.31422" lon="5.95272">
        <ele>246.2</ele>
        <time>2012-01-26T15:36:09Z</time>
      </trkpt>
      <trkpt lat="47.31422" lon="5.95272">
        <ele>246.2</ele>
        <time>2012-01-26T15:36:13Z</time>
      </trkpt>
      <trkpt lat="47.31422" lon="5.95272">
        <ele>246.2</ele>
        <time>2012-01-26T15:36:25Z</time>
      </trkpt>
      <trkpt lat="47.31422" lon="5.95272">
        <ele>246.2</ele>
        <time>2012-01-26T15:36:36Z</time>
      </trkpt>
      <trkpt lat="47.31422" lon="5.95272">
        <ele>246.2</ele>
        <time>2012-01-26T15:36:48Z</time>
      </trkpt>
      <trkpt lat="47.31422" lon="5.95272">
        <ele>246.2</ele>
        <time>2012-01-26T15:36:52Z</time>
      </trkpt>
      <trkpt lat="47.31422" lon="5.95272">
        <ele>246.2</ele>
        <time>2012-01-26T15:37:04Z</time>
      </trkpt>
      <trkpt lat="47.31422" lon="5.95272">
        <ele>246.2</ele>
        <time>2012-01-26T15:37:38Z</time>
      </trkpt>
      <trkpt lat="47.31421" lon="5.95288">
        <ele>291.9</ele>
        <time>2012-01-26T15:37:41Z</time>
      </trkpt>
      <trkpt lat="47.31424" lon="5.95297">
        <ele>293.1</ele>
        <time>2012-01-26T15:37:44Z</time>
      </trkpt>
      <trkpt lat="47.31429" lon="5.95307">
        <ele>293.3</ele>
        <time>2012-01-26T15:37:48Z</time>
      </trkpt>
      <trkpt lat="47.31428" lon="5.95316">
        <ele>298.5</ele>
        <time>2012-01-26T15:37:55Z</time>
      </trkpt>
      <trkpt lat="47.31427" lon="5.95326">
        <ele>305.3</ele>
        <time>2012-01-26T15:38:04Z</time>
      </trkpt>
      <trkpt lat="47.31427" lon="5.95326">
        <ele>243.8</ele>
        <time>2012-01-26T15:38:16Z</time>
      </trkpt>
      <trkpt lat="47.31427" lon="5.95326">
        <ele>243.8</ele>
        <time>2012-01-26T15:38:26Z</time>
      </trkpt>
      <trkpt lat="47.31434" lon="5.95347">
        <ele>302.1</ele>
        <time>2012-01-26T15:38:28Z</time>
      </trkpt>
      <trkpt lat="47.31434" lon="5.95359">
        <ele>300.6</ele>
        <time>2012-01-26T15:38:31Z</time>
      </trkpt>
      <trkpt lat="47.31433" lon="5.95369">
        <ele>300.4</ele>
        <time>2012-01-26T15:38:35Z</time>
      </trkpt>
      <trkpt lat="47.31436" lon="5.95379">
        <ele>303.1</ele>
        <time>2012-01-26T15:38:41Z</time>
      </trkpt>
      <trkpt lat="47.31437" lon="5.95389">
        <ele>306.1</ele>
        <time>2012-01-26T15:38:51Z</time>
      </trkpt>
      <trkpt lat="47.31437" lon="5.95389">
        <ele>240</ele>
        <time>2012-01-26T15:39:02Z</time>
      </trkpt>
      <trkpt lat="47.31437" lon="5.95389">
        <ele>240</ele>
        <time>2012-01-26T15:39:03Z</time>
      </trkpt>
      <trkpt lat="47.31442" lon="5.95412">
        <ele>301.4</ele>
        <time>2012-01-26T15:39:07Z</time>
      </trkpt>
      <trkpt lat="47.31439" lon="5.95422">
        <ele>300.5</ele>
        <time>2012-01-26T15:39:11Z</time>
      </trkpt>
      <trkpt lat="47.31442" lon="5.95433">
        <ele>297.9</ele>
        <time>2012-01-26T15:39:19Z</time>
      </trkpt>
      <trkpt lat="47.31443" lon="5.95443">
        <ele>294.6</ele>
        <time>2012-01-26T15:39:26Z</time>
      </trkpt>
      <trkpt lat="47.31444" lon="5.95453">
        <ele>295.4</ele>
        <time>2012-01-26T15:39:32Z</time>
      </trkpt>
      <trkpt lat="47.31445" lon="5.95462">
        <ele>294.5</ele>
        <time>2012-01-26T15:39:37Z</time>
      </trkpt>
      <trkpt lat="47.31447" lon="5.95472">
        <ele>293.9</ele>
        <time>2012-01-26T15:39:42Z</time>
      </trkpt>
      <trkpt lat="47.31447" lon="5.95482">
        <ele>292.8</ele>
        <time>2012-01-26T15:39:46Z</time>
      </trkpt>
      <trkpt lat="47.31447" lon="5.95492">
        <ele>292.2</ele>
        <time>2012-01-26T15:39:52Z</time>
      </trkpt>
      <trkpt lat="47.31445" lon="5.95504">
        <ele>294.4</ele>
        <time>2012-01-26T15:39:57Z</time>
      </trkpt>
      <trkpt lat="47.31444" lon="5.95514">
        <ele>294.5</ele>
        <time>2012-01-26T15:40:04Z</time>
      </trkpt>
      <trkpt lat="47.31447" lon="5.95523">
        <ele>292.2</ele>
        <time>2012-01-26T15:40:12Z</time>
      </trkpt>
      <trkpt lat="47.31448" lon="5.95535">
        <ele>291.5</ele>
        <time>2012-01-26T15:40:16Z</time>
      </trkpt>
      <trkpt lat="47.31452" lon="5.95544">
        <ele>290.8</ele>
        <time>2012-01-26T15:40:25Z</time>
      </trkpt>
      <trkpt lat="47.31451" lon="5.95556">
        <ele>292.4</ele>
        <time>2012-01-26T15:40:29Z</time>
      </trkpt>
      <trkpt lat="47.31452" lon="5.95566">
        <ele>291.4</ele>
        <time>2012-01-26T15:40:35Z</time>
      </trkpt>
      <trkpt lat="47.31452" lon="5.95576">
        <ele>291.4</ele>
        <time>2012-01-26T15:40:42Z</time>
      </trkpt>
      <trkpt lat="47.31456" lon="5.95584">
        <ele>289.4</ele>
        <time>2012-01-26T15:40:48Z</time>
      </trkpt>
      <trkpt lat="47.3146" lon="5.95593">
        <ele>287</ele>
        <time>2012-01-26T15:40:54Z</time>
      </trkpt>
      <trkpt lat="47.31463" lon="5.95601">
        <ele>286.2</ele>
        <time>2012-01-26T15:40:58Z</time>
      </trkpt>
      <trkpt lat="47.31461" lon="5.95612">
        <ele>286.2</ele>
        <time>2012-01-26T15:41:02Z</time>
      </trkpt>
      <trkpt lat="47.31462" lon="5.95639">
        <ele>289.6</ele>
        <time>2012-01-26T15:41:06Z</time>
      </trkpt>
      <trkpt lat="47.31459" lon="5.95649">
        <ele>290.7</ele>
        <time>2012-01-26T15:41:11Z</time>
      </trkpt>
      <trkpt lat="47.31461" lon="5.95659">
        <ele>290.1</ele>
        <time>2012-01-26T15:41:21Z</time>
      </trkpt>
      <trkpt lat="47.31462" lon="5.95669">
        <ele>288.2</ele>
        <time>2012-01-26T15:41:25Z</time>
      </trkpt>
      <trkpt lat="47.31465" lon="5.95678">
        <ele>285.5</ele>
        <time>2012-01-26T15:41:32Z</time>
      </trkpt>
      <trkpt lat="47.31464" lon="5.95688">
        <ele>285.9</ele>
        <time>2012-01-26T15:41:36Z</time>
      </trkpt>
      <trkpt lat="47.31465" lon="5.95698">
        <ele>285</ele>
        <time>2012-01-26T15:41:42Z</time>
      </trkpt>
      <trkpt lat="47.31467" lon="5.95707">
        <ele>284.4</ele>
        <time>2012-01-26T15:41:48Z</time>
      </trkpt>
      <trkpt lat="47.31469" lon="5.95716">
        <ele>285.5</ele>
        <time>2012-01-26T15:41:54Z</time>
      </trkpt>
      <trkpt lat="47.31468" lon="5.95726">
        <ele>283.6</ele>
        <time>2012-01-26T15:41:58Z</time>
      </trkpt>
      <trkpt lat="47.31468" lon="5.95726">
        <ele>231.4</ele>
        <time>2012-01-26T15:42:09Z</time>
      </trkpt>
      <trkpt lat="47.31468" lon="5.95726">
        <ele>231.4</ele>
        <time>2012-01-26T15:42:10Z</time>
      </trkpt>
      <trkpt lat="47.31469" lon="5.95748">
        <ele>282.7</ele>
        <time>2012-01-26T15:42:19Z</time>
      </trkpt>
      <trkpt lat="47.31471" lon="5.95758">
        <ele>281.5</ele>
        <time>2012-01-26T15:42:21Z</time>
      </trkpt>
      <trkpt lat="47.31469" lon="5.95767">
        <ele>280.8</ele>
        <time>2012-01-26T15:42:24Z</time>
      </trkpt>
      <trkpt lat="47.31469" lon="5.95779">
        <ele>280.2</ele>
        <time>2012-01-26T15:42:28Z</time>
      </trkpt>
      <trkpt lat="47.31471" lon="5.9579">
        <ele>278.8</ele>
        <time>2012-01-26T15:42:31Z</time>
      </trkpt>
      <trkpt lat="47.31471" lon="5.95801">
        <ele>279.5</ele>
        <time>2012-01-26T15:42:36Z</time>
      </trkpt>
      <trkpt lat="47.31472" lon="5.95812">
        <ele>279.8</ele>
        <time>2012-01-26T15:42:43Z</time>
      </trkpt>
      <trkpt lat="47.31467" lon="5.9582">
        <ele>280</ele>
        <time>2012-01-26T15:42:47Z</time>
      </trkpt>
      <trkpt lat="47.31468" lon="5.95831">
        <ele>285.4</ele>
        <time>2012-01-26T15:42:53Z</time>
      </trkpt>
      <trkpt lat="47.31469" lon="5.95841">
        <ele>293.6</ele>
        <time>2012-01-26T15:43:03Z</time>
      </trkpt>
      <trkpt lat="47.3147" lon="5.9585">
        <ele>292.5</ele>
        <time>2012-01-26T15:43:08Z</time>
      </trkpt>
      <trkpt lat="47.31474" lon="5.95859">
        <ele>290.2</ele>
        <time>2012-01-26T15:43:12Z</time>
      </trkpt>
      <trkpt lat="47.31475" lon="5.95869">
        <ele>290.2</ele>
        <time>2012-01-26T15:43:17Z</time>
      </trkpt>
      <trkpt lat="47.31474" lon="5.9588">
        <ele>290.9</ele>
        <time>2012-01-26T15:43:22Z</time>
      </trkpt>
      <trkpt lat="47.31469" lon="5.9589">
        <ele>291</ele>
        <time>2012-01-26T15:43:27Z</time>
      </trkpt>
      <trkpt lat="47.31473" lon="5.95898">
        <ele>288.4</ele>
        <time>2012-01-26T15:43:29Z</time>
      </trkpt>
      <trkpt lat="47.31474" lon="5.95909">
        <ele>287.7</ele>
        <time>2012-01-26T15:43:32Z</time>
      </trkpt>
      <trkpt lat="47.31473" lon="5.95918">
        <ele>288.4</ele>
        <time>2012-01-26T15:43:38Z</time>
      </trkpt>
      <trkpt lat="47.31471" lon="5.95928">
        <ele>288.3</ele>
        <time>2012-01-26T15:43:42Z</time>
      </trkpt>
      <trkpt lat="47.31469" lon="5.95938">
        <ele>287.4</ele>
        <time>2012-01-26T15:43:48Z</time>
      </trkpt>
      <trkpt lat="47.31463" lon="5.95945">
        <ele>286.7</ele>
        <time>2012-01-26T15:43:53Z</time>
      </trkpt>
      <trkpt lat="47.31466" lon="5.95955">
        <ele>284.3</ele>
        <time>2012-01-26T15:44:02Z</time>
      </trkpt>
      <trkpt lat="47.31469" lon="5.95964">
        <ele>284.2</ele>
        <time>2012-01-26T15:44:06Z</time>
      </trkpt>
      <trkpt lat="47.31467" lon="5.95974">
        <ele>284.2</ele>
        <time>2012-01-26T15:44:22Z</time>
      </trkpt>
      <trkpt lat="47.31467" lon="5.95985">
        <ele>284</ele>
        <time>2012-01-26T15:44:27Z</time>
      </trkpt>
      <trkpt lat="47.31467" lon="5.95995">
        <ele>282.5</ele>
        <time>2012-01-26T15:44:30Z</time>
      </trkpt>
      <trkpt lat="47.31467" lon="5.96005">
        <ele>282.3</ele>
        <time>2012-01-26T15:44:38Z</time>
      </trkpt>
      <trkpt lat="47.31466" lon="5.96017">
        <ele>281.6</ele>
        <time>2012-01-26T15:44:43Z</time>
      </trkpt>
      <trkpt lat="47.31464" lon="5.96028">
        <ele>281.7</ele>
        <time>2012-01-26T15:44:49Z</time>
      </trkpt>
      <trkpt lat="47.31466" lon="5.96037">
        <ele>281.1</ele>
        <time>2012-01-26T15:44:59Z</time>
      </trkpt>
      <trkpt lat="47.31466" lon="5.96037">
        <ele>227.2</ele>
        <time>2012-01-26T15:45:11Z</time>
      </trkpt>
      <trkpt lat="47.31466" lon="5.96037">
        <ele>227.2</ele>
        <time>2012-01-26T15:45:17Z</time>
      </trkpt>
      <trkpt lat="47.31461" lon="5.96062">
        <ele>279.2</ele>
        <time>2012-01-26T15:45:21Z</time>
      </trkpt>
      <trkpt lat="47.31457" lon="5.96071">
        <ele>278.7</ele>
        <time>2012-01-26T15:45:28Z</time>
      </trkpt>
      <trkpt lat="47.31463" lon="5.96073">
        <ele>282</ele>
        <time>2012-01-26T15:45:33Z</time>
      </trkpt>
      <trkpt lat="47.31469" lon="5.96077">
        <ele>282.9</ele>
        <time>2012-01-26T15:45:42Z</time>
      </trkpt>
      <trkpt lat="47.31469" lon="5.96077">
        <ele>226.1</ele>
        <time>2012-01-26T15:45:54Z</time>
      </trkpt>
      <trkpt lat="47.31469" lon="5.96077">
        <ele>226.1</ele>
        <time>2012-01-26T15:47:42Z</time>
      </trkpt>
      <trkpt lat="47.3148" lon="5.96063">
        <ele>283.1</ele>
        <time>2012-01-26T15:47:48Z</time>
      </trkpt>
      <trkpt lat="47.31488" lon="5.96059">
        <ele>275.3</ele>
        <time>2012-01-26T15:47:57Z</time>
      </trkpt>
      <trkpt lat="47.31488" lon="5.96059">
        <ele>228</ele>
        <time>2012-01-26T15:48:09Z</time>
      </trkpt>
      <trkpt lat="47.31488" lon="5.96059">
        <ele>228</ele>
        <time>2012-01-26T15:48:27Z</time>
      </trkpt>
      <trkpt lat="47.31488" lon="5.96059">
        <ele>228</ele>
        <time>2012-01-26T15:48:39Z</time>
      </trkpt>
      <trkpt lat="47.31488" lon="5.96059">
        <ele>228</ele>
        <time>2012-01-26T15:49:08Z</time>
      </trkpt>
      <trkpt lat="47.31506" lon="5.96049">
        <ele>273</ele>
        <time>2012-01-26T15:49:16Z</time>
      </trkpt>
      <trkpt lat="47.31506" lon="5.96049">
        <ele>229.5</ele>
        <time>2012-01-26T15:49:28Z</time>
      </trkpt>
      <trkpt lat="47.31506" lon="5.96049">
        <ele>229.5</ele>
        <time>2012-01-26T15:49:45Z</time>
      </trkpt>
      <trkpt lat="47.31523" lon="5.96048">
        <ele>275.3</ele>
        <time>2012-01-26T15:49:47Z</time>
      </trkpt>
      <trkpt lat="47.3153" lon="5.96051">
        <ele>275.8</ele>
        <time>2012-01-26T15:49:56Z</time>
      </trkpt>
      <trkpt lat="47.3153" lon="5.96051">
        <ele>230.2</ele>
        <time>2012-01-26T15:50:08Z</time>
      </trkpt>
      <trkpt lat="47.3153" lon="5.96051">
        <ele>230.2</ele>
        <time>2012-01-26T15:50:32Z</time>
      </trkpt>
      <trkpt lat="47.31544" lon="5.96034">
        <ele>272.5</ele>
        <time>2012-01-26T15:50:34Z</time>
      </trkpt>
      <trkpt lat="47.31551" lon="5.9603">
        <ele>271.1</ele>
        <time>2012-01-26T15:50:36Z</time>
      </trkpt>
      <trkpt lat="47.31558" lon="5.96025">
        <ele>271.6</ele>
        <time>2012-01-26T15:50:38Z</time>
      </trkpt>
      <trkpt lat="47.31563" lon="5.96018">
        <ele>271.3</ele>
        <time>2012-01-26T15:50:45Z</time>
      </trkpt>
      <trkpt lat="47.31569" lon="5.96016">
        <ele>271.8</ele>
        <time>2012-01-26T15:50:54Z</time>
      </trkpt>
      <trkpt lat="47.31574" lon="5.96007">
        <ele>272</ele>
        <time>2012-01-26T15:51:01Z</time>
      </trkpt>
      <trkpt lat="47.31574" lon="5.96007">
        <ele>231.9</ele>
        <time>2012-01-26T15:51:13Z</time>
      </trkpt>
      <trkpt lat="47.31574" lon="5.96007">
        <ele>231.9</ele>
        <time>2012-01-26T15:51:54Z</time>
      </trkpt>
      <trkpt lat="47.31574" lon="5.96007">
        <ele>231.9</ele>
        <time>2012-01-26T15:52:06Z</time>
      </trkpt>
      <trkpt lat="47.31574" lon="5.96007">
        <ele>231.9</ele>
        <time>2012-01-26T15:52:14Z</time>
      </trkpt>
      <trkpt lat="47.31592" lon="5.9599">
        <ele>270.8</ele>
        <time>2012-01-26T15:52:16Z</time>
      </trkpt>
      <trkpt lat="47.31598" lon="5.95985">
        <ele>272.3</ele>
        <time>2012-01-26T15:52:18Z</time>
      </trkpt>
      <trkpt lat="47.31598" lon="5.95985">
        <ele>231.5</ele>
        <time>2012-01-26T15:52:29Z</time>
      </trkpt>
      <trkpt lat="47.31598" lon="5.95985">
        <ele>231.5</ele>
        <time>2012-01-26T15:53:00Z</time>
      </trkpt>
      <trkpt lat="47.31608" lon="5.95971">
        <ele>266.4</ele>
        <time>2012-01-26T15:53:09Z</time>
      </trkpt>
      <trkpt lat="47.31615" lon="5.95969">
        <ele>266.9</ele>
        <time>2012-01-26T15:53:11Z</time>
      </trkpt>
      <trkpt lat="47.31621" lon="5.95964">
        <ele>269.4</ele>
        <time>2012-01-26T15:53:15Z</time>
      </trkpt>
      <trkpt lat="47.31627" lon="5.95958">
        <ele>271.4</ele>
        <time>2012-01-26T15:53:21Z</time>
      </trkpt>
      <trkpt lat="47.3163" lon="5.95949">
        <ele>271.9</ele>
        <time>2012-01-26T15:53:26Z</time>
      </trkpt>
      <trkpt lat="47.31637" lon="5.95949">
        <ele>271.5</ele>
        <time>2012-01-26T15:53:36Z</time>
      </trkpt>
      <trkpt lat="47.31637" lon="5.95949">
        <ele>229.2</ele>
        <time>2012-01-26T15:53:47Z</time>
      </trkpt>
      <trkpt lat="47.31637" lon="5.95949">
        <ele>229.2</ele>
        <time>2012-01-26T15:53:57Z</time>
      </trkpt>
      <trkpt lat="47.31637" lon="5.95949">
        <ele>229.2</ele>
        <time>2012-01-26T15:54:08Z</time>
      </trkpt>
      <trkpt lat="47.31637" lon="5.95949">
        <ele>229.2</ele>
        <time>2012-01-26T15:54:35Z</time>
      </trkpt>
      <trkpt lat="47.3166" lon="5.95952">
        <ele>277.2</ele>
        <time>2012-01-26T15:54:45Z</time>
      </trkpt>
      <trkpt lat="47.3166" lon="5.95952">
        <ele>229.1</ele>
        <time>2012-01-26T15:54:56Z</time>
      </trkpt>
      <trkpt lat="47.3166" lon="5.95952">
        <ele>229.1</ele>
        <time>2012-01-26T15:55:34Z</time>
      </trkpt>
      <trkpt lat="47.31674" lon="5.95939">
        <ele>274.4</ele>
        <time>2012-01-26T15:55:44Z</time>
      </trkpt>
      <trkpt lat="47.31681" lon="5.95935">
        <ele>272.2</ele>
        <time>2012-01-26T15:55:48Z</time>
      </trkpt>
      <trkpt lat="47.31689" lon="5.95931">
        <ele>272</ele>
        <time>2012-01-26T15:55:51Z</time>
      </trkpt>
      <trkpt lat="47.31695" lon="5.95925">
        <ele>271.5</ele>
        <time>2012-01-26T15:55:53Z</time>
      </trkpt>
      <trkpt lat="47.31703" lon="5.9592">
        <ele>271.3</ele>
        <time>2012-01-26T15:55:57Z</time>
      </trkpt>
      <trkpt lat="47.3171" lon="5.95918">
        <ele>273.3</ele>
        <time>2012-01-26T15:56:06Z</time>
      </trkpt>
      <trkpt lat="47.31717" lon="5.95912">
        <ele>273</ele>
        <time>2012-01-26T15:56:14Z</time>
      </trkpt>
      <trkpt lat="47.31724" lon="5.95905">
        <ele>277</ele>
        <time>2012-01-26T15:56:21Z</time>
      </trkpt>
      <trkpt lat="47.3173" lon="5.95902">
        <ele>277.3</ele>
        <time>2012-01-26T15:56:26Z</time>
      </trkpt>
      <trkpt lat="47.31734" lon="5.95894">
        <ele>277.2</ele>
        <time>2012-01-26T15:56:34Z</time>
      </trkpt>
      <trkpt lat="47.31734" lon="5.95894">
        <ele>227.8</ele>
        <time>2012-01-26T15:56:46Z</time>
      </trkpt>
      <trkpt lat="47.31734" lon="5.95894">
        <ele>227.8</ele>
        <time>2012-01-26T15:59:04Z</time>
      </trkpt>
      <trkpt lat="47.31747" lon="5.95886">
        <ele>272.3</ele>
        <time>2012-01-26T15:59:08Z</time>
      </trkpt>
      <trkpt lat="47.31753" lon="5.95882">
        <ele>272.4</ele>
        <time>2012-01-26T15:59:16Z</time>
      </trkpt>
      <trkpt lat="47.31759" lon="5.95878">
        <ele>275</ele>
        <time>2012-01-26T15:59:25Z</time>
      </trkpt>
      <trkpt lat="47.31763" lon="5.9587">
        <ele>276.8</ele>
        <time>2012-01-26T15:59:32Z</time>
      </trkpt>
      <trkpt lat="47.3177" lon="5.95867">
        <ele>275.1</ele>
        <time>2012-01-26T15:59:41Z</time>
      </trkpt>
      <trkpt lat="47.3177" lon="5.95867">
        <ele>229.5</ele>
        <time>2012-01-26T15:59:53Z</time>
      </trkpt>
      <trkpt lat="47.3177" lon="5.95867">
        <ele>229.5</ele>
        <time>2012-01-26T16:00:02Z</time>
      </trkpt>
      <trkpt lat="47.31786" lon="5.95863">
        <ele>274.6</ele>
        <time>2012-01-26T16:00:07Z</time>
      </trkpt>
      <trkpt lat="47.31792" lon="5.95865">
        <ele>276.2</ele>
        <time>2012-01-26T16:00:17Z</time>
      </trkpt>
      <trkpt lat="47.31792" lon="5.95865">
        <ele>230.5</ele>
        <time>2012-01-26T16:00:28Z</time>
      </trkpt>
      <trkpt lat="47.31792" lon="5.95865">
        <ele>230.5</ele>
        <time>2012-01-26T16:00:42Z</time>
      </trkpt>
      <trkpt lat="47.31801" lon="5.95874">
        <ele>271.3</ele>
        <time>2012-01-26T16:00:45Z</time>
      </trkpt>
      <trkpt lat="47.31807" lon="5.95882">
        <ele>271</ele>
        <time>2012-01-26T16:00:49Z</time>
      </trkpt>
      <trkpt lat="47.31813" lon="5.95886">
        <ele>271.5</ele>
        <time>2012-01-26T16:00:53Z</time>
      </trkpt>
      <trkpt lat="47.31813" lon="5.95886">
        <ele>230.8</ele>
        <time>2012-01-26T16:01:04Z</time>
      </trkpt>
      <trkpt lat="47.31813" lon="5.95886">
        <ele>230.8</ele>
        <time>2012-01-26T16:01:31Z</time>
      </trkpt>
      <trkpt lat="47.31821" lon="5.95903">
        <ele>272.6</ele>
        <time>2012-01-26T16:01:36Z</time>
      </trkpt>
      <trkpt lat="47.31817" lon="5.9591">
        <ele>272.2</ele>
        <time>2012-01-26T16:01:42Z</time>
      </trkpt>
      <trkpt lat="47.31817" lon="5.9592">
        <ele>272.2</ele>
        <time>2012-01-26T16:01:47Z</time>
      </trkpt>
      <trkpt lat="47.31816" lon="5.9593">
        <ele>272.4</ele>
        <time>2012-01-26T16:01:52Z</time>
      </trkpt>
      <trkpt lat="47.3182" lon="5.95938">
        <ele>272.1</ele>
        <time>2012-01-26T16:02:00Z</time>
      </trkpt>
      <trkpt lat="47.31825" lon="5.95946">
        <ele>274</ele>
        <time>2012-01-26T16:02:06Z</time>
      </trkpt>
      <trkpt lat="47.31828" lon="5.95955">
        <ele>271.9</ele>
        <time>2012-01-26T16:02:12Z</time>
      </trkpt>
      <trkpt lat="47.31833" lon="5.95965">
        <ele>271.5</ele>
        <time>2012-01-26T16:02:20Z</time>
      </trkpt>
      <trkpt lat="47.31838" lon="5.95973">
        <ele>273.7</ele>
        <time>2012-01-26T16:02:26Z</time>
      </trkpt>
      <trkpt lat="47.31842" lon="5.95983">
        <ele>273.2</ele>
        <time>2012-01-26T16:02:33Z</time>
      </trkpt>
      <trkpt lat="47.31846" lon="5.9599">
        <ele>273.1</ele>
        <time>2012-01-26T16:02:38Z</time>
      </trkpt>
      <trkpt lat="47.31851" lon="5.95997">
        <ele>273.6</ele>
        <time>2012-01-26T16:02:44Z</time>
      </trkpt>
      <trkpt lat="47.31854" lon="5.96007">
        <ele>272.7</ele>
        <time>2012-01-26T16:02:49Z</time>
      </trkpt>
      <trkpt lat="47.31858" lon="5.96015">
        <ele>272.4</ele>
        <time>2012-01-26T16:02:55Z</time>
      </trkpt>
      <trkpt lat="47.31861" lon="5.96024">
        <ele>272.9</ele>
        <time>2012-01-26T16:03:00Z</time>
      </trkpt>
      <trkpt lat="47.31866" lon="5.96031">
        <ele>274.1</ele>
        <time>2012-01-26T16:03:06Z</time>
      </trkpt>
      <trkpt lat="47.31869" lon="5.9604">
        <ele>273.1</ele>
        <time>2012-01-26T16:03:15Z</time>
      </trkpt>
      <trkpt lat="47.31873" lon="5.96049">
        <ele>273.5</ele>
        <time>2012-01-26T16:03:19Z</time>
      </trkpt>
      <trkpt lat="47.31873" lon="5.96058">
        <ele>274.3</ele>
        <time>2012-01-26T16:03:26Z</time>
      </trkpt>
      <trkpt lat="47.31882" lon="5.9606">
        <ele>273.4</ele>
        <time>2012-01-26T16:03:36Z</time>
      </trkpt>
      <trkpt lat="47.31886" lon="5.96068">
        <ele>274.7</ele>
        <time>2012-01-26T16:03:40Z</time>
      </trkpt>
      <trkpt lat="47.31889" lon="5.96078">
        <ele>275.1</ele>
        <time>2012-01-26T16:03:46Z</time>
      </trkpt>
      <trkpt lat="47.3189" lon="5.96089">
        <ele>273.7</ele>
        <time>2012-01-26T16:03:50Z</time>
      </trkpt>
      <trkpt lat="47.31895" lon="5.96094">
        <ele>271.8</ele>
        <time>2012-01-26T16:03:56Z</time>
      </trkpt>
      <trkpt lat="47.319" lon="5.96103">
        <ele>271.5</ele>
        <time>2012-01-26T16:04:02Z</time>
      </trkpt>
      <trkpt lat="47.31903" lon="5.96112">
        <ele>273.1</ele>
        <time>2012-01-26T16:04:07Z</time>
      </trkpt>
      <trkpt lat="47.3191" lon="5.96117">
        <ele>273.2</ele>
        <time>2012-01-26T16:04:13Z</time>
      </trkpt>
      <trkpt lat="47.3191" lon="5.96117">
        <ele>228.2</ele>
        <time>2012-01-26T16:04:24Z</time>
      </trkpt>
      <trkpt lat="47.3191" lon="5.96117">
        <ele>228.2</ele>
        <time>2012-01-26T16:04:27Z</time>
      </trkpt>
      <trkpt lat="47.31918" lon="5.96133">
        <ele>273.4</ele>
        <time>2012-01-26T16:04:33Z</time>
      </trkpt>
      <trkpt lat="47.31922" lon="5.96143">
        <ele>272.5</ele>
        <time>2012-01-26T16:04:37Z</time>
      </trkpt>
      <trkpt lat="47.31926" lon="5.96152">
        <ele>272.6</ele>
        <time>2012-01-26T16:04:42Z</time>
      </trkpt>
      <trkpt lat="47.31931" lon="5.9616">
        <ele>273.5</ele>
        <time>2012-01-26T16:04:49Z</time>
      </trkpt>
      <trkpt lat="47.31937" lon="5.96166">
        <ele>273.1</ele>
        <time>2012-01-26T16:04:53Z</time>
      </trkpt>
      <trkpt lat="47.31944" lon="5.9617">
        <ele>274</ele>
        <time>2012-01-26T16:04:58Z</time>
      </trkpt>
      <trkpt lat="47.31949" lon="5.96176">
        <ele>275.5</ele>
        <time>2012-01-26T16:05:04Z</time>
      </trkpt>
      <trkpt lat="47.31957" lon="5.96179">
        <ele>275.7</ele>
        <time>2012-01-26T16:05:09Z</time>
      </trkpt>
      <trkpt lat="47.31963" lon="5.96184">
        <ele>275.3</ele>
        <time>2012-01-26T16:05:17Z</time>
      </trkpt>
      <trkpt lat="47.31969" lon="5.96188">
        <ele>275.9</ele>
        <time>2012-01-26T16:05:22Z</time>
      </trkpt>
      <trkpt lat="47.31974" lon="5.96194">
        <ele>273</ele>
        <time>2012-01-26T16:05:29Z</time>
      </trkpt>
      <trkpt lat="47.3198" lon="5.96199">
        <ele>272.3</ele>
        <time>2012-01-26T16:05:35Z</time>
      </trkpt>
      <trkpt lat="47.31985" lon="5.96204">
        <ele>271.7</ele>
        <time>2012-01-26T16:05:41Z</time>
      </trkpt>
      <trkpt lat="47.31992" lon="5.96209">
        <ele>272.7</ele>
        <time>2012-01-26T16:05:47Z</time>
      </trkpt>
      <trkpt lat="47.31998" lon="5.96214">
        <ele>272.9</ele>
        <time>2012-01-26T16:05:52Z</time>
      </trkpt>
      <trkpt lat="47.32005" lon="5.96219">
        <ele>274</ele>
        <time>2012-01-26T16:05:59Z</time>
      </trkpt>
      <trkpt lat="47.32009" lon="5.96226">
        <ele>273.7</ele>
        <time>2012-01-26T16:06:05Z</time>
      </trkpt>
      <trkpt lat="47.32016" lon="5.96229">
        <ele>273.2</ele>
        <time>2012-01-26T16:06:12Z</time>
      </trkpt>
      <trkpt lat="47.32022" lon="5.96229">
        <ele>275.4</ele>
        <time>2012-01-26T16:06:19Z</time>
      </trkpt>
      <trkpt lat="47.32027" lon="5.96237">
        <ele>274.7</ele>
        <time>2012-01-26T16:06:29Z</time>
      </trkpt>
      <trkpt lat="47.32033" lon="5.96244">
        <ele>276.6</ele>
        <time>2012-01-26T16:06:35Z</time>
      </trkpt>
      <trkpt lat="47.32039" lon="5.96251">
        <ele>276</ele>
        <time>2012-01-26T16:06:40Z</time>
      </trkpt>
      <trkpt lat="47.32044" lon="5.96258">
        <ele>274.9</ele>
        <time>2012-01-26T16:06:45Z</time>
      </trkpt>
      <trkpt lat="47.3205" lon="5.96262">
        <ele>275.4</ele>
        <time>2012-01-26T16:06:52Z</time>
      </trkpt>
      <trkpt lat="47.32056" lon="5.9627">
        <ele>274.9</ele>
        <time>2012-01-26T16:06:58Z</time>
      </trkpt>
      <trkpt lat="47.32056" lon="5.9627">
        <ele>229.3</ele>
        <time>2012-01-26T16:07:09Z</time>
      </trkpt>
      <trkpt lat="47.32056" lon="5.9627">
        <ele>229.3</ele>
        <time>2012-01-26T16:07:17Z</time>
      </trkpt>
      <trkpt lat="47.32067" lon="5.96281">
        <ele>274.6</ele>
        <time>2012-01-26T16:07:21Z</time>
      </trkpt>
      <trkpt lat="47.32073" lon="5.96287">
        <ele>274.5</ele>
        <time>2012-01-26T16:07:27Z</time>
      </trkpt>
      <trkpt lat="47.32078" lon="5.96294">
        <ele>275</ele>
        <time>2012-01-26T16:07:32Z</time>
      </trkpt>
      <trkpt lat="47.32082" lon="5.96303">
        <ele>274.7</ele>
        <time>2012-01-26T16:07:37Z</time>
      </trkpt>
      <trkpt lat="47.32088" lon="5.96311">
        <ele>274.6</ele>
        <time>2012-01-26T16:07:42Z</time>
      </trkpt>
      <trkpt lat="47.32094" lon="5.96314">
        <ele>275.6</ele>
        <time>2012-01-26T16:07:47Z</time>
      </trkpt>
      <trkpt lat="47.32096" lon="5.96324">
        <ele>275.6</ele>
        <time>2012-01-26T16:07:52Z</time>
      </trkpt>
      <trkpt lat="47.32101" lon="5.96332">
        <ele>275.5</ele>
        <time>2012-01-26T16:07:57Z</time>
      </trkpt>
      <trkpt lat="47.32107" lon="5.96335">
        <ele>275.1</ele>
        <time>2012-01-26T16:08:02Z</time>
      </trkpt>
      <trkpt lat="47.32113" lon="5.96339">
        <ele>274.6</ele>
        <time>2012-01-26T16:08:06Z</time>
      </trkpt>
      <trkpt lat="47.32115" lon="5.96348">
        <ele>274.6</ele>
        <time>2012-01-26T16:08:10Z</time>
      </trkpt>
      <trkpt lat="47.32121" lon="5.96356">
        <ele>273.1</ele>
        <time>2012-01-26T16:08:16Z</time>
      </trkpt>
      <trkpt lat="47.32126" lon="5.96361">
        <ele>272.1</ele>
        <time>2012-01-26T16:08:22Z</time>
      </trkpt>
      <trkpt lat="47.32129" lon="5.96371">
        <ele>273.5</ele>
        <time>2012-01-26T16:08:30Z</time>
      </trkpt>
      <trkpt lat="47.32137" lon="5.96373">
        <ele>273.6</ele>
        <time>2012-01-26T16:08:39Z</time>
      </trkpt>
      <trkpt lat="47.32142" lon="5.96381">
        <ele>272.6</ele>
        <time>2012-01-26T16:08:45Z</time>
      </trkpt>
      <trkpt lat="47.32146" lon="5.96389">
        <ele>273.2</ele>
        <time>2012-01-26T16:08:50Z</time>
      </trkpt>
      <trkpt lat="47.3215" lon="5.96396">
        <ele>270.6</ele>
        <time>2012-01-26T16:08:56Z</time>
      </trkpt>
      <trkpt lat="47.32155" lon="5.96405">
        <ele>270.3</ele>
        <time>2012-01-26T16:09:01Z</time>
      </trkpt>
      <trkpt lat="47.32156" lon="5.96416">
        <ele>271.5</ele>
        <time>2012-01-26T16:09:07Z</time>
      </trkpt>
      <trkpt lat="47.32158" lon="5.96427">
        <ele>272</ele>
        <time>2012-01-26T16:09:11Z</time>
      </trkpt>
      <trkpt lat="47.32162" lon="5.96434">
        <ele>271.6</ele>
        <time>2012-01-26T16:09:17Z</time>
      </trkpt>
      <trkpt lat="47.32168" lon="5.96441">
        <ele>272.5</ele>
        <time>2012-01-26T16:09:22Z</time>
      </trkpt>
      <trkpt lat="47.32174" lon="5.96449">
        <ele>271.9</ele>
        <time>2012-01-26T16:09:28Z</time>
      </trkpt>
      <trkpt lat="47.32179" lon="5.96467">
        <ele>271</ele>
        <time>2012-01-26T16:09:32Z</time>
      </trkpt>
      <trkpt lat="47.32181" lon="5.96477">
        <ele>270.1</ele>
        <time>2012-01-26T16:09:37Z</time>
      </trkpt>
      <trkpt lat="47.32183" lon="5.96486">
        <ele>269</ele>
        <time>2012-01-26T16:09:41Z</time>
      </trkpt>
      <trkpt lat="47.32186" lon="5.96495">
        <ele>269.4</ele>
        <time>2012-01-26T16:09:47Z</time>
      </trkpt>
      <trkpt lat="47.32189" lon="5.96503">
        <ele>269.7</ele>
        <time>2012-01-26T16:09:52Z</time>
      </trkpt>
      <trkpt lat="47.32191" lon="5.96512">
        <ele>268.4</ele>
        <time>2012-01-26T16:09:57Z</time>
      </trkpt>
      <trkpt lat="47.32194" lon="5.96522">
        <ele>267.3</ele>
        <time>2012-01-26T16:10:03Z</time>
      </trkpt>
      <trkpt lat="47.32197" lon="5.96531">
        <ele>267.5</ele>
        <time>2012-01-26T16:10:12Z</time>
      </trkpt>
      <trkpt lat="47.32199" lon="5.9654">
        <ele>267.8</ele>
        <time>2012-01-26T16:10:18Z</time>
      </trkpt>
      <trkpt lat="47.32198" lon="5.9655">
        <ele>268.9</ele>
        <time>2012-01-26T16:10:22Z</time>
      </trkpt>
      <trkpt lat="47.322" lon="5.9656">
        <ele>268</ele>
        <time>2012-01-26T16:10:28Z</time>
      </trkpt>
      <trkpt lat="47.32202" lon="5.96569">
        <ele>266.6</ele>
        <time>2012-01-26T16:10:33Z</time>
      </trkpt>
      <trkpt lat="47.32204" lon="5.96579">
        <ele>266.1</ele>
        <time>2012-01-26T16:10:40Z</time>
      </trkpt>
      <trkpt lat="47.32206" lon="5.96591">
        <ele>265.3</ele>
        <time>2012-01-26T16:10:45Z</time>
      </trkpt>
      <trkpt lat="47.32209" lon="5.966">
        <ele>267</ele>
        <time>2012-01-26T16:10:53Z</time>
      </trkpt>
      <trkpt lat="47.32213" lon="5.96609">
        <ele>267.8</ele>
        <time>2012-01-26T16:10:59Z</time>
      </trkpt>
      <trkpt lat="47.32215" lon="5.96618">
        <ele>269.8</ele>
        <time>2012-01-26T16:11:05Z</time>
      </trkpt>
      <trkpt lat="47.32219" lon="5.96627">
        <ele>269.2</ele>
        <time>2012-01-26T16:11:11Z</time>
      </trkpt>
      <trkpt lat="47.32223" lon="5.96635">
        <ele>269</ele>
        <time>2012-01-26T16:11:18Z</time>
      </trkpt>
      <trkpt lat="47.32229" lon="5.96644">
        <ele>268.2</ele>
        <time>2012-01-26T16:11:24Z</time>
      </trkpt>
      <trkpt lat="47.32233" lon="5.96652">
        <ele>267.1</ele>
        <time>2012-01-26T16:11:31Z</time>
      </trkpt>
      <trkpt lat="47.32238" lon="5.96659">
        <ele>266</ele>
        <time>2012-01-26T16:11:37Z</time>
      </trkpt>
      <trkpt lat="47.32244" lon="5.96664">
        <ele>266.5</ele>
        <time>2012-01-26T16:11:43Z</time>
      </trkpt>
      <trkpt lat="47.32249" lon="5.96673">
        <ele>266.8</ele>
        <time>2012-01-26T16:11:50Z</time>
      </trkpt>
      <trkpt lat="47.32254" lon="5.96678">
        <ele>268.7</ele>
        <time>2012-01-26T16:11:55Z</time>
      </trkpt>
      <trkpt lat="47.32257" lon="5.96687">
        <ele>269.7</ele>
        <time>2012-01-26T16:12:01Z</time>
      </trkpt>
      <trkpt lat="47.32263" lon="5.96691">
        <ele>269.4</ele>
        <time>2012-01-26T16:12:06Z</time>
      </trkpt>
      <trkpt lat="47.32266" lon="5.967">
        <ele>269.2</ele>
        <time>2012-01-26T16:12:13Z</time>
      </trkpt>
      <trkpt lat="47.32271" lon="5.96707">
        <ele>267.9</ele>
        <time>2012-01-26T16:12:19Z</time>
      </trkpt>
      <trkpt lat="47.32277" lon="5.96712">
        <ele>266.4</ele>
        <time>2012-01-26T16:12:25Z</time>
      </trkpt>
      <trkpt lat="47.32283" lon="5.96718">
        <ele>266.7</ele>
        <time>2012-01-26T16:12:31Z</time>
      </trkpt>
      <trkpt lat="47.32286" lon="5.96729">
        <ele>267.5</ele>
        <time>2012-01-26T16:12:37Z</time>
      </trkpt>
      <trkpt lat="47.3229" lon="5.96736">
        <ele>266.5</ele>
        <time>2012-01-26T16:12:43Z</time>
      </trkpt>
      <trkpt lat="47.3229" lon="5.96747">
        <ele>265.6</ele>
        <time>2012-01-26T16:12:49Z</time>
      </trkpt>
      <trkpt lat="47.32292" lon="5.96757">
        <ele>264.7</ele>
        <time>2012-01-26T16:12:55Z</time>
      </trkpt>
      <trkpt lat="47.32295" lon="5.96764">
        <ele>265.6</ele>
        <time>2012-01-26T16:13:03Z</time>
      </trkpt>
      <trkpt lat="47.32298" lon="5.96774">
        <ele>268</ele>
        <time>2012-01-26T16:13:09Z</time>
      </trkpt>
      <trkpt lat="47.323" lon="5.96784">
        <ele>267.4</ele>
        <time>2012-01-26T16:13:17Z</time>
      </trkpt>
      <trkpt lat="47.32303" lon="5.96793">
        <ele>268.1</ele>
        <time>2012-01-26T16:13:23Z</time>
      </trkpt>
      <trkpt lat="47.32301" lon="5.96802">
        <ele>267.5</ele>
        <time>2012-01-26T16:13:28Z</time>
      </trkpt>
      <trkpt lat="47.323" lon="5.96813">
        <ele>267.8</ele>
        <time>2012-01-26T16:13:35Z</time>
      </trkpt>
      <trkpt lat="47.32299" lon="5.96824">
        <ele>267.5</ele>
        <time>2012-01-26T16:13:40Z</time>
      </trkpt>
      <trkpt lat="47.32299" lon="5.96833">
        <ele>266.8</ele>
        <time>2012-01-26T16:13:45Z</time>
      </trkpt>
      <trkpt lat="47.32296" lon="5.96843">
        <ele>268</ele>
        <time>2012-01-26T16:13:51Z</time>
      </trkpt>
      <trkpt lat="47.32293" lon="5.96852">
        <ele>266.3</ele>
        <time>2012-01-26T16:13:58Z</time>
      </trkpt>
      <trkpt lat="47.32285" lon="5.96851">
        <ele>266.8</ele>
        <time>2012-01-26T16:14:07Z</time>
      </trkpt>
      <trkpt lat="47.32278" lon="5.96848">
        <ele>266.8</ele>
        <time>2012-01-26T16:14:16Z</time>
      </trkpt>
      <trkpt lat="47.32276" lon="5.96839">
        <ele>264.4</ele>
        <time>2012-01-26T16:14:22Z</time>
      </trkpt>
      <trkpt lat="47.32275" lon="5.9683">
        <ele>265.3</ele>
        <time>2012-01-26T16:14:28Z</time>
      </trkpt>
      <trkpt lat="47.32275" lon="5.9683">
        <ele>223.4</ele>
        <time>2012-01-26T16:14:40Z</time>
      </trkpt>
      <trkpt lat="47.32275" lon="5.9683">
        <ele>223.4</ele>
        <time>2012-01-26T16:14:42Z</time>
      </trkpt>
      <trkpt lat="47.32275" lon="5.9683">
        <ele>223.4</ele>
        <time>2012-01-26T16:14:54Z</time>
      </trkpt>
      <trkpt lat="47.32275" lon="5.9683">
        <ele>223.4</ele>
        <time>2012-01-26T16:16:38Z</time>
      </trkpt>
    </trkseg>
  </trk>
</gpx>